<?xml version="1.0" encoding="UTF-8"?>
<gpx version="1.0" creator="Trackator" xmlns:xsi="http://www.w3.org/2001/XMLSchema-instance" xmlns="http://www.topografix.com/GPX/1/0" xmlns:topografix="http://www.topografix.com/GPX/Private/TopoGrafix/0/1" xsi:schemaLocation="http://www.topografix.com/GPX/1/0 http://www.topografix.com/GPX/1/0/gpx.xsd http://www.topografix.com/GPX/Private/TopoGrafix/0/1 http://www.topografix.com/GPX/Private/TopoGrafix/0/1/topografix.xsd">
<metadata>
<link href="http://www.trackator.com">
<text>Trackator</text>
</link>
</metadata>
<time>2014-09-28T:52:52Z</time>
<trk>
<name>Track: </name>
<desc>Paragliding</desc>
<trkseg>
<trkpt lat="42.871039729146226" lon="-2.114839451489612">
<ele>1108</ele>
<time>2014-09-28T:52:52Z</time>
</trkpt>
<trkpt lat="42.871039729146226" lon="-2.114839451489612">
<ele>1099</ele>
<time>2014-09-28T16:52:55Z</time>
</trkpt>
<trkpt lat="42.871039729146226" lon="-2.114839451489612">
<ele>1099</ele>
<time>2014-09-28T16:52:57Z</time>
</trkpt>
<trkpt lat="42.871039729146226" lon="-2.114839451489612">
<ele>1104</ele>
<time>2014-09-28T16:52:59Z</time>
</trkpt>
<trkpt lat="42.870986826644454" lon="-2.11481057827414">
<ele>1104</ele>
<time>2014-09-28T16:53:01Z</time>
</trkpt>
<trkpt lat="42.870986826644454" lon="-2.11481057827414">
<ele>1106</ele>
<time>2014-09-28T16:53:03Z</time>
</trkpt>
<trkpt lat="42.870986826644454" lon="-2.11481057827414">
<ele>1106</ele>
<time>2014-09-28T16:53:05Z</time>
</trkpt>
<trkpt lat="42.870986826644454" lon="-2.11481057827414">
<ele>1108</ele>
<time>2014-09-28T16:53:07Z</time>
</trkpt>
<trkpt lat="42.870986826644454" lon="-2.11481057827414">
<ele>1108</ele>
<time>2014-09-28T16:53:09Z</time>
</trkpt>
<trkpt lat="42.87095154409181" lon="-2.114769230454116">
<ele>1108</ele>
<time>2014-09-28T16:53:11Z</time>
</trkpt>
<trkpt lat="42.87093959181653" lon="-2.114730479276975">
<ele>1109</ele>
<time>2014-09-28T16:53:13Z</time>
</trkpt>
<trkpt lat="42.87093532844583" lon="-2.1147099721706244">
<ele>1109</ele>
<time>2014-09-28T16:53:15Z</time>
</trkpt>
<trkpt lat="42.87092963227283" lon="-2.114667407996544">
<ele>1106</ele>
<time>2014-09-28T16:53:17Z</time>
</trkpt>
<trkpt lat="42.87091619743422" lon="-2.11463959544599">
<ele>1106</ele>
<time>2014-09-28T16:53:19Z</time>
</trkpt>
<trkpt lat="42.87089788755558" lon="-2.1146141548844946">
<ele>1106</ele>
<time>2014-09-28T16:53:21Z</time>
</trkpt>
<trkpt lat="42.87089788755558" lon="-2.1146141548844946">
<ele>1106</ele>
<time>2014-09-28T16:53:23Z</time>
</trkpt>
<trkpt lat="42.870886681310324" lon="-2.1145607525996652">
<ele>1106</ele>
<time>2014-09-28T16:53:25Z</time>
</trkpt>
<trkpt lat="42.87088675301643" lon="-2.114516199035983">
<ele>1106</ele>
<time>2014-09-28T16:53:27Z</time>
</trkpt>
<trkpt lat="42.87089378462869" lon="-2.1144785758348332">
<ele>1106</ele>
<time>2014-09-28T16:53:29Z</time>
</trkpt>
<trkpt lat="42.87089460240063" lon="-2.114446637671904">
<ele>1106</ele>
<time>2014-09-28T16:53:31Z</time>
</trkpt>
<trkpt lat="42.87090686608915" lon="-2.1144012314289284">
<ele>1106</ele>
<time>2014-09-28T16:53:33Z</time>
</trkpt>
<trkpt lat="42.87090904412475" lon="-2.1143934987291018">
<ele>1106</ele>
<time>2014-09-28T16:53:35Z</time>
</trkpt>
<trkpt lat="42.87092379932771" lon="-2.1143631843570088">
<ele>1106</ele>
<time>2014-09-28T16:53:37Z</time>
</trkpt>
<trkpt lat="42.87093205302677" lon="-2.1143367838495135">
<ele>1106</ele>
<time>2014-09-28T16:53:39Z</time>
</trkpt>
<trkpt lat="42.87093475099869" lon="-2.1143167630302475">
<ele>1107</ele>
<time>2014-09-28T16:53:41Z</time>
</trkpt>
<trkpt lat="42.87093303864807" lon="-2.1142829262678857">
<ele>1107</ele>
<time>2014-09-28T16:53:43Z</time>
</trkpt>
<trkpt lat="42.87092922770995" lon="-2.1142537575820866">
<ele>1107</ele>
<time>2014-09-28T16:53:45Z</time>
</trkpt>
<trkpt lat="42.870939226812624" lon="-2.1142265339682225">
<ele>1107</ele>
<time>2014-09-28T16:53:47Z</time>
</trkpt>
<trkpt lat="42.87096340571419" lon="-2.1142022138200067">
<ele>1107</ele>
<time>2014-09-28T16:53:49Z</time>
</trkpt>
<trkpt lat="42.87098069113886" lon="-2.1141721170470005">
<ele>1106</ele>
<time>2014-09-28T16:53:51Z</time>
</trkpt>
<trkpt lat="42.87097715676501" lon="-2.11414429646161">
<ele>1106</ele>
<time>2014-09-28T16:53:53Z</time>
</trkpt>
<trkpt lat="42.870955210797796" lon="-2.114117833648334">
<ele>1106</ele>
<time>2014-09-28T16:53:55Z</time>
</trkpt>
<trkpt lat="42.870934697275075" lon="-2.1141083909185747">
<ele>1106</ele>
<time>2014-09-28T16:53:57Z</time>
</trkpt>
<trkpt lat="42.870893774622736" lon="-2.1141018793622885">
<ele>1106</ele>
<time>2014-09-28T16:53:59Z</time>
</trkpt>
<trkpt lat="42.87086452328117" lon="-2.1140956956068284">
<ele>1106</ele>
<time>2014-09-28T16:54:01Z</time>
</trkpt>
<trkpt lat="42.87083443185209" lon="-2.114087512640667">
<ele>1106</ele>
<time>2014-09-28T16:54:03Z</time>
</trkpt>
<trkpt lat="42.87081334651036" lon="-2.114070551393012">
<ele>1106</ele>
<time>2014-09-28T16:54:05Z</time>
</trkpt>
<trkpt lat="42.87079360095287" lon="-2.114058862618517">
<ele>1106</ele>
<time>2014-09-28T16:54:07Z</time>
</trkpt>
<trkpt lat="42.87077404311708" lon="-2.1140453590306882">
<ele>1106</ele>
<time>2014-09-28T16:54:09Z</time>
</trkpt>
<trkpt lat="42.87074583370118" lon="-2.1140208556485">
<ele>1106</ele>
<time>2014-09-28T16:54:11Z</time>
</trkpt>
<trkpt lat="42.87072119511554" lon="-2.113998871386549">
<ele>1106</ele>
<time>2014-09-28T16:54:13Z</time>
</trkpt>
<trkpt lat="42.87069290118496" lon="-2.1139776892562097">
<ele>1105</ele>
<time>2014-09-28T16:54:15Z</time>
</trkpt>
<trkpt lat="42.87067402858111" lon="-2.113944386777963">
<ele>1105</ele>
<time>2014-09-28T16:54:17Z</time>
</trkpt>
<trkpt lat="42.870661205162" lon="-2.113912915930689">
<ele>1105</ele>
<time>2014-09-28T16:54:19Z</time>
</trkpt>
<trkpt lat="42.8706518692552" lon="-2.1138864508223008">
<ele>1105</ele>
<time>2014-09-28T16:54:21Z</time>
</trkpt>
<trkpt lat="42.87063917061699" lon="-2.113851238885438">
<ele>1105</ele>
<time>2014-09-28T16:54:23Z</time>
</trkpt>
<trkpt lat="42.870623726207185" lon="-2.1138173338707538">
<ele>1104</ele>
<time>2014-09-28T16:54:25Z</time>
</trkpt>
<trkpt lat="42.87060998338136" lon="-2.113786080075203">
<ele>1104</ele>
<time>2014-09-28T16:54:27Z</time>
</trkpt>
<trkpt lat="42.870593235668764" lon="-2.1137509371612277">
<ele>1104</ele>
<time>2014-09-28T16:54:29Z</time>
</trkpt>
<trkpt lat="42.87058436353848" lon="-2.1137072754312123">
<ele>1104</ele>
<time>2014-09-28T16:54:31Z</time>
</trkpt>
<trkpt lat="42.87058030020871" lon="-2.1136716541236162">
<ele>1104</ele>
<time>2014-09-28T16:54:33Z</time>
</trkpt>
<trkpt lat="42.87057036416887" lon="-2.1136365265989836">
<ele>1103</ele>
<time>2014-09-28T16:54:35Z</time>
</trkpt>
<trkpt lat="42.87055605483981" lon="-2.1136067434184094">
<ele>1103</ele>
<time>2014-09-28T16:54:37Z</time>
</trkpt>
<trkpt lat="42.870555004926864" lon="-2.113560469566786">
<ele>1103</ele>
<time>2014-09-28T16:54:39Z</time>
</trkpt>
<trkpt lat="42.87053648712538" lon="-2.1135359361366133">
<ele>1102</ele>
<time>2014-09-28T16:54:41Z</time>
</trkpt>
<trkpt lat="42.87052030243972" lon="-2.1135183668395987">
<ele>1102</ele>
<time>2014-09-28T16:54:43Z</time>
</trkpt>
<trkpt lat="42.870503954392056" lon="-2.1134971152024318">
<ele>1102</ele>
<time>2014-09-28T16:54:45Z</time>
</trkpt>
<trkpt lat="42.870488297327924" lon="-2.1134702159097762">
<ele>1101</ele>
<time>2014-09-28T16:54:47Z</time>
</trkpt>
<trkpt lat="42.870473797272155" lon="-2.1134393311348023">
<ele>1101</ele>
<time>2014-09-28T16:54:49Z</time>
</trkpt>
<trkpt lat="42.87045917111209" lon="-2.113419700852905">
<ele>1100</ele>
<time>2014-09-28T16:54:51Z</time>
</trkpt>
<trkpt lat="42.87043808214336" lon="-2.113392988502652">
<ele>1100</ele>
<time>2014-09-28T16:54:53Z</time>
</trkpt>
<trkpt lat="42.870420957178524" lon="-2.1133592778678025">
<ele>1099</ele>
<time>2014-09-28T16:54:55Z</time>
</trkpt>
<trkpt lat="42.87041489378722" lon="-2.113334027066518">
<ele>1099</ele>
<time>2014-09-28T16:54:57Z</time>
</trkpt>
<trkpt lat="42.870412375012314" lon="-2.1132986110729526">
<ele>1099</ele>
<time>2014-09-28T16:54:59Z</time>
</trkpt>
<trkpt lat="42.870411718037914" lon="-2.1132675243700256">
<ele>1098</ele>
<time>2014-09-28T16:55:01Z</time>
</trkpt>
<trkpt lat="42.870414331035846" lon="-2.1132276724983434">
<ele>1098</ele>
<time>2014-09-28T16:55:03Z</time>
</trkpt>
<trkpt lat="42.87041949302101" lon="-2.1131974936685007">
<ele>1097</ele>
<time>2014-09-28T16:55:05Z</time>
</trkpt>
<trkpt lat="42.87042891690983" lon="-2.1131621585411073">
<ele>1097</ele>
<time>2014-09-28T16:55:07Z</time>
</trkpt>
<trkpt lat="42.87044792577661" lon="-2.113115893746714">
<ele>1097</ele>
<time>2014-09-28T16:55:09Z</time>
</trkpt>
<trkpt lat="42.87047465830927" lon="-2.113068677891573">
<ele>1096</ele>
<time>2014-09-28T16:55:11Z</time>
</trkpt>
<trkpt lat="42.87049780227001" lon="-2.1130286529225817">
<ele>1096</ele>
<time>2014-09-28T16:55:13Z</time>
</trkpt>
<trkpt lat="42.870509990582704" lon="-2.113011185668787">
<ele>1095</ele>
<time>2014-09-28T16:55:15Z</time>
</trkpt>
<trkpt lat="42.87052911790846" lon="-2.1129860628585506">
<ele>1095</ele>
<time>2014-09-28T16:55:17Z</time>
</trkpt>
<trkpt lat="42.87054992632473" lon="-2.1129530638552576">
<ele>1094</ele>
<time>2014-09-28T16:55:19Z</time>
</trkpt>
<trkpt lat="42.87056211716781" lon="-2.1129223040146154">
<ele>1094</ele>
<time>2014-09-28T16:55:21Z</time>
</trkpt>
<trkpt lat="42.870572493494436" lon="-2.1128824420921535">
<ele>1094</ele>
<time>2014-09-28T16:55:23Z</time>
</trkpt>
<trkpt lat="42.87058386031154" lon="-2.1128572899585474">
<ele>1093</ele>
<time>2014-09-28T16:55:25Z</time>
</trkpt>
<trkpt lat="42.87059454954798" lon="-2.1128472129718125">
<ele>1093</ele>
<time>2014-09-28T16:55:27Z</time>
</trkpt>
<trkpt lat="42.87061187235656" lon="-2.1128184372866254">
<ele>1093</ele>
<time>2014-09-28T16:55:29Z</time>
</trkpt>
<trkpt lat="42.870620113974894" lon="-2.1127925109277923">
<ele>1092</ele>
<time>2014-09-28T16:55:31Z</time>
</trkpt>
<trkpt lat="42.870635755716485" lon="-2.1127637111186255">
<ele>1092</ele>
<time>2014-09-28T16:55:32Z</time>
</trkpt>
<trkpt lat="42.870653459527865" lon="-2.112728234501344">
<ele>1091</ele>
<time>2014-09-28T16:55:34Z</time>
</trkpt>
<trkpt lat="42.870667171393805" lon="-2.112701789339217">
<ele>1091</ele>
<time>2014-09-28T16:55:36Z</time>
</trkpt>
<trkpt lat="42.87068686572623" lon="-2.112658196171072">
<ele>1090</ele>
<time>2014-09-28T16:55:38Z</time>
</trkpt>
<trkpt lat="42.87069843839792" lon="-2.112629065678076">
<ele>1090</ele>
<time>2014-09-28T16:55:40Z</time>
</trkpt>
<trkpt lat="42.87071581780621" lon="-2.1125992751963167">
<ele>1090</ele>
<time>2014-09-28T16:55:42Z</time>
</trkpt>
<trkpt lat="42.87073474378208" lon="-2.112572607607063">
<ele>1089</ele>
<time>2014-09-28T16:55:44Z</time>
</trkpt>
<trkpt lat="42.870746064249595" lon="-2.1125490809330425">
<ele>1089</ele>
<time>2014-09-28T16:55:46Z</time>
</trkpt>
<trkpt lat="42.87075841167883" lon="-2.112514802700521">
<ele>1089</ele>
<time>2014-09-28T16:55:48Z</time>
</trkpt>
<trkpt lat="42.87077168920102" lon="-2.1124885666957978">
<ele>1088</ele>
<time>2014-09-28T16:55:50Z</time>
</trkpt>
<trkpt lat="42.87078738022841" lon="-2.112473572474034">
<ele>1088</ele>
<time>2014-09-28T16:55:52Z</time>
</trkpt>
<trkpt lat="42.87079846877717" lon="-2.1124642989123923">
<ele>1088</ele>
<time>2014-09-28T16:55:54Z</time>
</trkpt>
<trkpt lat="42.87079802941041" lon="-2.1124665297672274">
<ele>1088</ele>
<time>2014-09-28T16:55:56Z</time>
</trkpt>
<trkpt lat="42.87079689504151" lon="-2.112471286143673">
<ele>1088</ele>
<time>2014-09-28T16:55:58Z</time>
</trkpt>
<trkpt lat="42.870811053034664" lon="-2.1124731721644">
<ele>1088</ele>
<time>2014-09-28T16:56:00Z</time>
</trkpt>
<trkpt lat="42.87082834866486" lon="-2.112437598790248">
<ele>1087</ele>
<time>2014-09-28T16:56:02Z</time>
</trkpt>
<trkpt lat="42.870846310721184" lon="-2.1123956361196914">
<ele>1087</ele>
<time>2014-09-28T16:56:04Z</time>
</trkpt>
<trkpt lat="42.87085848357954" lon="-2.112389067007847">
<ele>1087</ele>
<time>2014-09-28T16:56:06Z</time>
</trkpt>
<trkpt lat="42.870860303953755" lon="-2.1123945443103604">
<ele>1087</ele>
<time>2014-09-28T16:56:08Z</time>
</trkpt>
<trkpt lat="42.870858338256774" lon="-2.112397478607406">
<ele>1087</ele>
<time>2014-09-28T16:56:10Z</time>
</trkpt>
<trkpt lat="42.87086084019105" lon="-2.1123934437481293">
<ele>1087</ele>
<time>2014-09-28T16:56:12Z</time>
</trkpt>
<trkpt lat="42.870867798820164" lon="-2.112365264424236">
<ele>1087</ele>
<time>2014-09-28T16:56:14Z</time>
</trkpt>
<trkpt lat="42.87087495940988" lon="-2.112341487289843">
<ele>1086</ele>
<time>2014-09-28T16:56:16Z</time>
</trkpt>
<trkpt lat="42.870875856059016" lon="-2.11234163706468">
<ele>1086</ele>
<time>2014-09-28T16:56:18Z</time>
</trkpt>
<trkpt lat="42.870878805079336" lon="-2.1123432843380416">
<ele>1086</ele>
<time>2014-09-28T16:56:20Z</time>
</trkpt>
<trkpt lat="42.870892346166556" lon="-2.112318285579798">
<ele>1086</ele>
<time>2014-09-28T16:56:22Z</time>
</trkpt>
<trkpt lat="42.87090502946656" lon="-2.1122887996686153">
<ele>1086</ele>
<time>2014-09-28T16:56:24Z</time>
</trkpt>
<trkpt lat="42.870923070103316" lon="-2.112254911056467">
<ele>1086</ele>
<time>2014-09-28T16:56:26Z</time>
</trkpt>
<trkpt lat="42.8709330043514" lon="-2.11222359444745">
<ele>1085</ele>
<time>2014-09-28T16:56:28Z</time>
</trkpt>
<trkpt lat="42.87093930473506" lon="-2.112190291469903">
<ele>1085</ele>
<time>2014-09-28T16:56:30Z</time>
</trkpt>
<trkpt lat="42.87093983913666" lon="-2.112194474757091">
<ele>1085</ele>
<time>2014-09-28T16:56:32Z</time>
</trkpt>
<trkpt lat="42.870943263272316" lon="-2.112195304487889">
<ele>1084</ele>
<time>2014-09-28T16:56:34Z</time>
</trkpt>
<trkpt lat="42.87096409429384" lon="-2.112166093024634">
<ele>1084</ele>
<time>2014-09-28T16:56:36Z</time>
</trkpt>
<trkpt lat="42.870970796415286" lon="-2.112155418015131">
<ele>1084</ele>
<time>2014-09-28T16:56:38Z</time>
</trkpt>
<trkpt lat="42.870986967098176" lon="-2.112132800740843">
<ele>1084</ele>
<time>2014-09-28T16:56:40Z</time>
</trkpt>
<trkpt lat="42.87100714699452" lon="-2.112101933254858">
<ele>1083</ele>
<time>2014-09-28T16:56:42Z</time>
</trkpt>
<trkpt lat="42.87102205900993" lon="-2.1120791707602935">
<ele>1083</ele>
<time>2014-09-28T16:56:44Z</time>
</trkpt>
<trkpt lat="42.871043320788196" lon="-2.1120488992723434">
<ele>1083</ele>
<time>2014-09-28T16:56:46Z</time>
</trkpt>
<trkpt lat="42.871054837493276" lon="-2.1120339359497815">
<ele>1082</ele>
<time>2014-09-28T16:56:48Z</time>
</trkpt>
<trkpt lat="42.87106748223986" lon="-2.1120056709589767">
<ele>1082</ele>
<time>2014-09-28T16:56:50Z</time>
</trkpt>
<trkpt lat="42.8710767172278" lon="-2.1119759192718637">
<ele>1082</ele>
<time>2014-09-28T16:56:52Z</time>
</trkpt>
<trkpt lat="42.87108566443046" lon="-2.1119458549905907">
<ele>1082</ele>
<time>2014-09-28T16:56:54Z</time>
</trkpt>
<trkpt lat="42.87109548268956" lon="-2.1119167547016606">
<ele>1081</ele>
<time>2014-09-28T16:56:56Z</time>
</trkpt>
<trkpt lat="42.871114063557364" lon="-2.1118869517971968">
<ele>1081</ele>
<time>2014-09-28T16:56:58Z</time>
</trkpt>
<trkpt lat="42.87112407958597" lon="-2.1118597986256202">
<ele>1081</ele>
<time>2014-09-28T16:57:00Z</time>
</trkpt>
<trkpt lat="42.871140786102686" lon="-2.1118397831616793">
<ele>1080</ele>
<time>2014-09-28T16:57:02Z</time>
</trkpt>
<trkpt lat="42.87115979070044" lon="-2.1118188410433727">
<ele>1080</ele>
<time>2014-09-28T16:57:04Z</time>
</trkpt>
<trkpt lat="42.871176034500216" lon="-2.1117970551802117">
<ele>1080</ele>
<time>2014-09-28T16:57:06Z</time>
</trkpt>
<trkpt lat="42.871191434029" lon="-2.111774463966215">
<ele>1080</ele>
<time>2014-09-28T16:57:08Z</time>
</trkpt>
<trkpt lat="42.871208916734304" lon="-2.111757691188968">
<ele>1079</ele>
<time>2014-09-28T16:57:10Z</time>
</trkpt>
<trkpt lat="42.87122227708297" lon="-2.111729669254601">
<ele>1079</ele>
<time>2014-09-28T16:57:12Z</time>
</trkpt>
<trkpt lat="42.87124059435969" lon="-2.1116956288971713">
<ele>1079</ele>
<time>2014-09-28T16:57:14Z</time>
</trkpt>
<trkpt lat="42.87124959275383" lon="-2.111662810613336">
<ele>1079</ele>
<time>2014-09-28T16:57:16Z</time>
</trkpt>
<trkpt lat="42.87125890731665" lon="-2.111631750615417">
<ele>1078</ele>
<time>2014-09-28T16:57:18Z</time>
</trkpt>
<trkpt lat="42.8712711302926" lon="-2.111598716891189">
<ele>1078</ele>
<time>2014-09-28T16:57:20Z</time>
</trkpt>
<trkpt lat="42.87128583157222" lon="-2.111576169545225">
<ele>1078</ele>
<time>2014-09-28T16:57:22Z</time>
</trkpt>
<trkpt lat="42.87129793172869" lon="-2.111567299318459">
<ele>1078</ele>
<time>2014-09-28T16:57:24Z</time>
</trkpt>
<trkpt lat="42.87130282601253" lon="-2.1115628376501467">
<ele>1078</ele>
<time>2014-09-28T16:57:26Z</time>
</trkpt>
<trkpt lat="42.87130913764385" lon="-2.111563949445743">
<ele>1078</ele>
<time>2014-09-28T16:57:28Z</time>
</trkpt>
<trkpt lat="42.87131328079406" lon="-2.1115675303754564">
<ele>1078</ele>
<time>2014-09-28T16:57:30Z</time>
</trkpt>
<trkpt lat="42.87132023194019" lon="-2.1115722310171505">
<ele>1078</ele>
<time>2014-09-28T16:57:32Z</time>
</trkpt>
<trkpt lat="42.87133029932077" lon="-2.111575479962856">
<ele>1078</ele>
<time>2014-09-28T16:57:34Z</time>
</trkpt>
<trkpt lat="42.87134384815852" lon="-2.111578460430589">
<ele>1078</ele>
<time>2014-09-28T16:57:36Z</time>
</trkpt>
<trkpt lat="42.87134453791031" lon="-2.1115848743763745">
<ele>1078</ele>
<time>2014-09-28T16:57:38Z</time>
</trkpt>
<trkpt lat="42.87134323471493" lon="-2.1115860961022324">
<ele>1078</ele>
<time>2014-09-28T16:57:40Z</time>
</trkpt>
<trkpt lat="42.871339259103486" lon="-2.111590527285906">
<ele>1078</ele>
<time>2014-09-28T16:57:42Z</time>
</trkpt>
<trkpt lat="42.87133503623009" lon="-2.111584788716824">
<ele>1078</ele>
<time>2014-09-28T16:57:44Z</time>
</trkpt>
<trkpt lat="42.871329604030805" lon="-2.1115762265311746">
<ele>1078</ele>
<time>2014-09-28T16:57:46Z</time>
</trkpt>
<trkpt lat="42.87132419139241" lon="-2.111566800069984">
<ele>1078</ele>
<time>2014-09-28T16:57:48Z</time>
</trkpt>
<trkpt lat="42.871327568822984" lon="-2.111566139584128">
<ele>1078</ele>
<time>2014-09-28T16:57:50Z</time>
</trkpt>
<trkpt lat="42.87134686699917" lon="-2.111578884786798">
<ele>1078</ele>
<time>2014-09-28T16:57:52Z</time>
</trkpt>
<trkpt lat="42.871361624915835" lon="-2.1115910965298728">
<ele>1077</ele>
<time>2014-09-28T16:57:54Z</time>
</trkpt>
<trkpt lat="42.871379509499576" lon="-2.1115968968939955">
<ele>1077</ele>
<time>2014-09-28T16:57:56Z</time>
</trkpt>
<trkpt lat="42.87139518086164" lon="-2.1115998176443855">
<ele>1077</ele>
<time>2014-09-28T16:57:58Z</time>
</trkpt>
<trkpt lat="42.8714143118404" lon="-2.1115862754686776">
<ele>1077</ele>
<time>2014-09-28T16:58:00Z</time>
</trkpt>
<trkpt lat="42.87144569803463" lon="-2.111566695498773">
<ele>1076</ele>
<time>2014-09-28T16:58:02Z</time>
</trkpt>
<trkpt lat="42.87146342424949" lon="-2.1115524237826913">
<ele>1076</ele>
<time>2014-09-28T16:58:04Z</time>
</trkpt>
<trkpt lat="42.87148034093952" lon="-2.1115421248193647">
<ele>1076</ele>
<time>2014-09-28T16:58:06Z</time>
</trkpt>
<trkpt lat="42.87149524509013" lon="-2.1115257610823264">
<ele>1076</ele>
<time>2014-09-28T16:58:08Z</time>
</trkpt>
<trkpt lat="42.871501378244695" lon="-2.111504939619218">
<ele>1076</ele>
<time>2014-09-28T16:58:10Z</time>
</trkpt>
<trkpt lat="42.871508509394545" lon="-2.111481001566155">
<ele>1075</ele>
<time>2014-09-28T16:58:12Z</time>
</trkpt>
<trkpt lat="42.87151967890943" lon="-2.111452208500298">
<ele>1075</ele>
<time>2014-09-28T16:58:14Z</time>
</trkpt>
<trkpt lat="42.87153181435612" lon="-2.111433442670738">
<ele>1074</ele>
<time>2014-09-28T16:58:16Z</time>
</trkpt>
<trkpt lat="42.87154302408461" lon="-2.1114109081254844">
<ele>1074</ele>
<time>2014-09-28T16:58:18Z</time>
</trkpt>
<trkpt lat="42.87155159684554" lon="-2.1113780383503356">
<ele>1074</ele>
<time>2014-09-28T16:58:20Z</time>
</trkpt>
<trkpt lat="42.871556984218245" lon="-2.1113536631220233">
<ele>1073</ele>
<time>2014-09-28T16:58:22Z</time>
</trkpt>
<trkpt lat="42.87156276001512" lon="-2.111328062052888">
<ele>1073</ele>
<time>2014-09-28T16:58:24Z</time>
</trkpt>
<trkpt lat="42.87157286607801" lon="-2.1113052683876026">
<ele>1073</ele>
<time>2014-09-28T16:58:26Z</time>
</trkpt>
<trkpt lat="42.871579790944956" lon="-2.1112852707561323">
<ele>1072</ele>
<time>2014-09-28T16:58:28Z</time>
</trkpt>
<trkpt lat="42.87158184016684" lon="-2.1112688142022527">
<ele>1072</ele>
<time>2014-09-28T16:58:30Z</time>
</trkpt>
<trkpt lat="42.87158440482957" lon="-2.1112477561441767">
<ele>1072</ele>
<time>2014-09-28T16:58:32Z</time>
</trkpt>
<trkpt lat="42.871591306255965" lon="-2.111221933245922">
<ele>1072</ele>
<time>2014-09-28T16:58:34Z</time>
</trkpt>
<trkpt lat="42.87159469737543" lon="-2.111200268760345">
<ele>1071</ele>
<time>2014-09-28T16:58:36Z</time>
</trkpt>
<trkpt lat="42.871608286154284" lon="-2.1111751298536405">
<ele>1071</ele>
<time>2014-09-28T16:58:38Z</time>
</trkpt>
<trkpt lat="42.87162665810307" lon="-2.111151050643959">
<ele>1071</ele>
<time>2014-09-28T16:58:40Z</time>
</trkpt>
<trkpt lat="42.871644206926455" lon="-2.1111212404230315">
<ele>1070</ele>
<time>2014-09-28T16:58:42Z</time>
</trkpt>
<trkpt lat="42.87165899844579" lon="-2.1110946386264215">
<ele>1070</ele>
<time>2014-09-28T16:58:44Z</time>
</trkpt>
<trkpt lat="42.871677806853505" lon="-2.1110718330710774">
<ele>1070</ele>
<time>2014-09-28T16:58:46Z</time>
</trkpt>
<trkpt lat="42.8717038279307" lon="-2.111042740669876">
<ele>1070</ele>
<time>2014-09-28T16:58:48Z</time>
</trkpt>
<trkpt lat="42.871715853987254" lon="-2.1110266060481586">
<ele>1069</ele>
<time>2014-09-28T16:58:50Z</time>
</trkpt>
<trkpt lat="42.87172077476567" lon="-2.1110008742184263">
<ele>1069</ele>
<time>2014-09-28T16:58:52Z</time>
</trkpt>
<trkpt lat="42.871719808912424" lon="-2.1109800310948073">
<ele>1069</ele>
<time>2014-09-28T16:58:54Z</time>
</trkpt>
<trkpt lat="42.8717174193686" lon="-2.110952202000851">
<ele>1068</ele>
<time>2014-09-28T16:58:56Z</time>
</trkpt>
<trkpt lat="42.87171230012959" lon="-2.1109300895562577">
<ele>1068</ele>
<time>2014-09-28T16:58:58Z</time>
</trkpt>
<trkpt lat="42.871714676179245" lon="-2.1109125939390054">
<ele>1068</ele>
<time>2014-09-28T16:59:00Z</time>
</trkpt>
<trkpt lat="42.87172233614947" lon="-2.110897302309383">
<ele>1067</ele>
<time>2014-09-28T16:59:02Z</time>
</trkpt>
<trkpt lat="42.871729444601286" lon="-2.110881702792297">
<ele>1067</ele>
<time>2014-09-28T16:59:04Z</time>
</trkpt>
<trkpt lat="42.871738459961605" lon="-2.1108661030259372">
<ele>1067</ele>
<time>2014-09-28T16:59:06Z</time>
</trkpt>
<trkpt lat="42.87174744815664" lon="-2.1108535253167924">
<ele>1067</ele>
<time>2014-09-28T16:59:08Z</time>
</trkpt>
<trkpt lat="42.871753389286056" lon="-2.110850604839159">
<ele>1066</ele>
<time>2014-09-28T16:59:10Z</time>
</trkpt>
<trkpt lat="42.871767690149674" lon="-2.110842878846226">
<ele>1066</ele>
<time>2014-09-28T16:59:12Z</time>
</trkpt>
<trkpt lat="42.8717852788717" lon="-2.110836345221609">
<ele>1066</ele>
<time>2014-09-28T16:59:14Z</time>
</trkpt>
<trkpt lat="42.87180344015636" lon="-2.1108295401602013">
<ele>1066</ele>
<time>2014-09-28T16:59:16Z</time>
</trkpt>
<trkpt lat="42.87180397863752" lon="-2.110829617454363">
<ele>1065</ele>
<time>2014-09-28T16:59:18Z</time>
</trkpt>
<trkpt lat="42.87180375599806" lon="-2.1108303223702247">
<ele>1065</ele>
<time>2014-09-28T16:59:20Z</time>
</trkpt>
<trkpt lat="42.871811595902386" lon="-2.110837813276624">
<ele>1065</ele>
<time>2014-09-28T16:59:22Z</time>
</trkpt>
<trkpt lat="42.871821221201074" lon="-2.1108517952994323">
<ele>1065</ele>
<time>2014-09-28T16:59:24Z</time>
</trkpt>
<trkpt lat="42.87180639699782" lon="-2.110885486870126">
<ele>1064</ele>
<time>2014-09-28T16:59:26Z</time>
</trkpt>
<trkpt lat="42.871802741109185" lon="-2.110917133177274">
<ele>1064</ele>
<time>2014-09-28T16:59:28Z</time>
</trkpt>
<trkpt lat="42.87181155943898" lon="-2.1109314371565078">
<ele>1064</ele>
<time>2014-09-28T16:59:30Z</time>
</trkpt>
<trkpt lat="42.871820559330985" lon="-2.110953208738687">
<ele>1064</ele>
<time>2014-09-28T16:59:32Z</time>
</trkpt>
<trkpt lat="42.87182827689932" lon="-2.110970026110529">
<ele>1064</ele>
<time>2014-09-28T16:59:34Z</time>
</trkpt>
<trkpt lat="42.871827135862844" lon="-2.110975576890409">
<ele>1064</ele>
<time>2014-09-28T16:59:36Z</time>
</trkpt>
<trkpt lat="42.87181769152525" lon="-2.110994289222508">
<ele>1063</ele>
<time>2014-09-28T16:59:38Z</time>
</trkpt>
<trkpt lat="42.87180571809213" lon="-2.111027117549519">
<ele>1063</ele>
<time>2014-09-28T16:59:40Z</time>
</trkpt>
<trkpt lat="42.87180773037035" lon="-2.1110400278124035">
<ele>1062</ele>
<time>2014-09-28T16:59:42Z</time>
</trkpt>
<trkpt lat="42.87181596912633" lon="-2.111045256001765">
<ele>1062</ele>
<time>2014-09-28T16:59:44Z</time>
</trkpt>
<trkpt lat="42.8718164998028" lon="-2.1110326474448735">
<ele>1062</ele>
<time>2014-09-28T16:59:46Z</time>
</trkpt>
<trkpt lat="42.87183201871669" lon="-2.111012962108223">
<ele>1061</ele>
<time>2014-09-28T16:59:48Z</time>
</trkpt>
<trkpt lat="42.87185846209348" lon="-2.1109838396951788">
<ele>1061</ele>
<time>2014-09-28T16:59:50Z</time>
</trkpt>
<trkpt lat="42.87187232278439" lon="-2.1109677524886403">
<ele>1061</ele>
<time>2014-09-28T16:59:52Z</time>
</trkpt>
<trkpt lat="42.8718800734196" lon="-2.1109605338714004">
<ele>1060</ele>
<time>2014-09-28T16:59:54Z</time>
</trkpt>
<trkpt lat="42.87189067055054" lon="-2.110952034615691">
<ele>1060</ele>
<time>2014-09-28T16:59:56Z</time>
</trkpt>
<trkpt lat="42.87190751752618" lon="-2.1109470523200695">
<ele>1060</ele>
<time>2014-09-28T16:59:58Z</time>
</trkpt>
<trkpt lat="42.87191704938708" lon="-2.1109382599436572">
<ele>1060</ele>
<time>2014-09-28T17:00:00Z</time>
</trkpt>
<trkpt lat="42.871924726099834" lon="-2.11093193027212">
<ele>1059</ele>
<time>2014-09-28T17:00:02Z</time>
</trkpt>
<trkpt lat="42.87192831860599" lon="-2.1109233301588572">
<ele>1059</ele>
<time>2014-09-28T17:00:04Z</time>
</trkpt>
<trkpt lat="42.87193918910272" lon="-2.1109177068516094">
<ele>1059</ele>
<time>2014-09-28T17:00:06Z</time>
</trkpt>
<trkpt lat="42.87195694635191" lon="-2.1109128094114453">
<ele>1059</ele>
<time>2014-09-28T17:00:08Z</time>
</trkpt>
<trkpt lat="42.871976668952136" lon="-2.1108883551344615">
<ele>1058</ele>
<time>2014-09-28T17:00:10Z</time>
</trkpt>
<trkpt lat="42.871980598525276" lon="-2.110886494077476">
<ele>1058</ele>
<time>2014-09-28T17:00:12Z</time>
</trkpt>
<trkpt lat="42.871984717114245" lon="-2.1108843626036817">
<ele>1058</ele>
<time>2014-09-28T17:00:14Z</time>
</trkpt>
<trkpt lat="42.87200043569533" lon="-2.1108825677369736">
<ele>1058</ele>
<time>2014-09-28T17:00:16Z</time>
</trkpt>
<trkpt lat="42.872016891133" lon="-2.110880998805592">
<ele>1058</ele>
<time>2014-09-28T17:00:18Z</time>
</trkpt>
<trkpt lat="42.87202432959249" lon="-2.1108859361515497">
<ele>1057</ele>
<time>2014-09-28T17:00:20Z</time>
</trkpt>
<trkpt lat="42.87203578995498" lon="-2.1108737469047822">
<ele>1057</ele>
<time>2014-09-28T17:00:22Z</time>
</trkpt>
<trkpt lat="42.87205248430698" lon="-2.1108562699821496">
<ele>1056</ele>
<time>2014-09-28T17:00:24Z</time>
</trkpt>
<trkpt lat="42.87206244747789" lon="-2.110839215739792">
<ele>1056</ele>
<time>2014-09-28T17:00:26Z</time>
</trkpt>
<trkpt lat="42.87207450519531" lon="-2.1108199015363396">
<ele>1055</ele>
<time>2014-09-28T17:00:28Z</time>
</trkpt>
<trkpt lat="42.87208868058038" lon="-2.1108034004922844">
<ele>1055</ele>
<time>2014-09-28T17:00:30Z</time>
</trkpt>
<trkpt lat="42.872106655651095" lon="-2.1107922237587435">
<ele>1055</ele>
<time>2014-09-28T17:00:32Z</time>
</trkpt>
<trkpt lat="42.8721392221084" lon="-2.1107813286999506">
<ele>1054</ele>
<time>2014-09-28T17:00:34Z</time>
</trkpt>
<trkpt lat="42.87215349149655" lon="-2.1107729223000065">
<ele>1053</ele>
<time>2014-09-28T17:00:36Z</time>
</trkpt>
<trkpt lat="42.87216932607934" lon="-2.1107694237332923">
<ele>1053</ele>
<time>2014-09-28T17:00:38Z</time>
</trkpt>
<trkpt lat="42.87217904063976" lon="-2.11076315645838">
<ele>1052</ele>
<time>2014-09-28T17:00:40Z</time>
</trkpt>
<trkpt lat="42.872188714329404" lon="-2.110757369594439">
<ele>1052</ele>
<time>2014-09-28T17:00:42Z</time>
</trkpt>
<trkpt lat="42.872202036502394" lon="-2.1107527970142623">
<ele>1051</ele>
<time>2014-09-28T17:00:44Z</time>
</trkpt>
<trkpt lat="42.87222050071988" lon="-2.1107517881462363">
<ele>1051</ele>
<time>2014-09-28T17:00:46Z</time>
</trkpt>
<trkpt lat="42.87223142177413" lon="-2.1107597461881733">
<ele>1050</ele>
<time>2014-09-28T17:00:48Z</time>
</trkpt>
<trkpt lat="42.87223239097757" lon="-2.110758238774591">
<ele>1050</ele>
<time>2014-09-28T17:00:50Z</time>
</trkpt>
<trkpt lat="42.872234447732644" lon="-2.1107605949541353">
<ele>1050</ele>
<time>2014-09-28T17:00:52Z</time>
</trkpt>
<trkpt lat="42.87223727404368" lon="-2.1107586595243686">
<ele>1050</ele>
<time>2014-09-28T17:00:54Z</time>
</trkpt>
<trkpt lat="42.8722498874132" lon="-2.1107414705094527">
<ele>1049</ele>
<time>2014-09-28T17:00:56Z</time>
</trkpt>
<trkpt lat="42.87226407228466" lon="-2.1106828402167848">
<ele>1049</ele>
<time>2014-09-28T17:00:58Z</time>
</trkpt>
<trkpt lat="42.87228690752641" lon="-2.110615069430461">
<ele>1048</ele>
<time>2014-09-28T17:01:00Z</time>
</trkpt>
<trkpt lat="42.87230325178146" lon="-2.1105795611174454">
<ele>1047</ele>
<time>2014-09-28T17:01:02Z</time>
</trkpt>
<trkpt lat="42.872329379830845" lon="-2.110550769994946">
<ele>1047</ele>
<time>2014-09-28T17:01:04Z</time>
</trkpt>
<trkpt lat="42.87235702190068" lon="-2.110526508073882">
<ele>1046</ele>
<time>2014-09-28T17:01:06Z</time>
</trkpt>
<trkpt lat="42.87237824000165" lon="-2.1105085830627432">
<ele>1046</ele>
<time>2014-09-28T17:01:08Z</time>
</trkpt>
<trkpt lat="42.87239984007819" lon="-2.1104936725421584">
<ele>1045</ele>
<time>2014-09-28T17:01:10Z</time>
</trkpt>
<trkpt lat="42.87241562815343" lon="-2.110487099915822">
<ele>1045</ele>
<time>2014-09-28T17:01:12Z</time>
</trkpt>
<trkpt lat="42.8724243069083" lon="-2.110476687606428">
<ele>1044</ele>
<time>2014-09-28T17:01:14Z</time>
</trkpt>
<trkpt lat="42.87243222842977" lon="-2.1104666266246204">
<ele>1044</ele>
<time>2014-09-28T17:01:16Z</time>
</trkpt>
<trkpt lat="42.87244253250654" lon="-2.11045504104044">
<ele>1043</ele>
<time>2014-09-28T17:01:18Z</time>
</trkpt>
<trkpt lat="42.872457059275085" lon="-2.11043744324715">
<ele>1043</ele>
<time>2014-09-28T17:01:20Z</time>
</trkpt>
<trkpt lat="42.87248049363559" lon="-2.1104132428052798">
<ele>1042</ele>
<time>2014-09-28T17:01:22Z</time>
</trkpt>
<trkpt lat="42.87250137265417" lon="-2.1103947644357097">
<ele>1042</ele>
<time>2014-09-28T17:01:24Z</time>
</trkpt>
<trkpt lat="42.87252169333904" lon="-2.1103798820688087">
<ele>1041</ele>
<time>2014-09-28T17:01:26Z</time>
</trkpt>
<trkpt lat="42.872549264140815" lon="-2.1103819725727804">
<ele>1041</ele>
<time>2014-09-28T17:01:28Z</time>
</trkpt>
<trkpt lat="42.87257083342277" lon="-2.11040195009416">
<ele>1040</ele>
<time>2014-09-28T17:01:30Z</time>
</trkpt>
<trkpt lat="42.872582352236584" lon="-2.1104096594393433">
<ele>1040</ele>
<time>2014-09-28T17:01:32Z</time>
</trkpt>
<trkpt lat="42.872638024468756" lon="-2.1104052385919623">
<ele>1040</ele>
<time>2014-09-28T17:01:34Z</time>
</trkpt>
<trkpt lat="42.87265816578157" lon="-2.110388605398054">
<ele>1039</ele>
<time>2014-09-28T17:01:36Z</time>
</trkpt>
<trkpt lat="42.87266968666474" lon="-2.110380821857284">
<ele>1039</ele>
<time>2014-09-28T17:01:38Z</time>
</trkpt>
<trkpt lat="42.87268031997546" lon="-2.1103719565446584">
<ele>1038</ele>
<time>2014-09-28T17:01:40Z</time>
</trkpt>
<trkpt lat="42.87269467016535" lon="-2.110359496497235">
<ele>1037</ele>
<time>2014-09-28T17:01:42Z</time>
</trkpt>
<trkpt lat="42.87270081895724" lon="-2.1103433262563387">
<ele>1037</ele>
<time>2014-09-28T17:01:44Z</time>
</trkpt>
<trkpt lat="42.87270682442603" lon="-2.1103296988295144">
<ele>1036</ele>
<time>2014-09-28T17:01:46Z</time>
</trkpt>
<trkpt lat="42.87270843981896" lon="-2.1103212964025806">
<ele>1035</ele>
<time>2014-09-28T17:01:48Z</time>
</trkpt>
<trkpt lat="42.87271913876504" lon="-2.110316654882713">
<ele>1035</ele>
<time>2014-09-28T17:01:50Z</time>
</trkpt>
<trkpt lat="42.87273892256893" lon="-2.110308889260989">
<ele>1034</ele>
<time>2014-09-28T17:01:52Z</time>
</trkpt>
<trkpt lat="42.87275374508073" lon="-2.1102902087071196">
<ele>1034</ele>
<time>2014-09-28T17:01:54Z</time>
</trkpt>
<trkpt lat="42.872773428320144" lon="-2.1102746539244133">
<ele>1033</ele>
<time>2014-09-28T17:01:56Z</time>
</trkpt>
<trkpt lat="42.87279356780571" lon="-2.1102592955785733">
<ele>1032</ele>
<time>2014-09-28T17:01:58Z</time>
</trkpt>
<trkpt lat="42.87282262106759" lon="-2.110250754659277">
<ele>1032</ele>
<time>2014-09-28T17:02:00Z</time>
</trkpt>
<trkpt lat="42.87284854317207" lon="-2.110262877072944">
<ele>1031</ele>
<time>2014-09-28T17:02:02Z</time>
</trkpt>
<trkpt lat="42.872871070502676" lon="-2.1102734356864623">
<ele>1030</ele>
<time>2014-09-28T17:02:04Z</time>
</trkpt>
<trkpt lat="42.872883649748196" lon="-2.1102967622503073">
<ele>1029</ele>
<time>2014-09-28T17:02:06Z</time>
</trkpt>
<trkpt lat="42.87288962770798" lon="-2.110319856821278">
<ele>1029</ele>
<time>2014-09-28T17:02:08Z</time>
</trkpt>
<trkpt lat="42.8728912155379" lon="-2.110348624940164">
<ele>1028</ele>
<time>2014-09-28T17:02:10Z</time>
</trkpt>
<trkpt lat="42.8728967095208" lon="-2.110386621485039">
<ele>1028</ele>
<time>2014-09-28T17:02:12Z</time>
</trkpt>
<trkpt lat="42.87289599315326" lon="-2.1104195012631415">
<ele>1027</ele>
<time>2014-09-28T17:02:14Z</time>
</trkpt>
<trkpt lat="42.87290232866007" lon="-2.1104473773975614">
<ele>1027</ele>
<time>2014-09-28T17:02:16Z</time>
</trkpt>
<trkpt lat="42.872907973406186" lon="-2.110477781051262">
<ele>1027</ele>
<time>2014-09-28T17:02:18Z</time>
</trkpt>
<trkpt lat="42.87290952906351" lon="-2.110521618447617">
<ele>1027</ele>
<time>2014-09-28T17:02:20Z</time>
</trkpt>
<trkpt lat="42.87290919215093" lon="-2.1105635383709838">
<ele>1026</ele>
<time>2014-09-28T17:02:22Z</time>
</trkpt>
<trkpt lat="42.87290838594987" lon="-2.1105803880632177">
<ele>1026</ele>
<time>2014-09-28T17:02:24Z</time>
</trkpt>
<trkpt lat="42.87290328448232" lon="-2.110601879655348">
<ele>1026</ele>
<time>2014-09-28T17:02:26Z</time>
</trkpt>
<trkpt lat="42.872896113384286" lon="-2.1106151460802733">
<ele>1026</ele>
<time>2014-09-28T17:02:28Z</time>
</trkpt>
<trkpt lat="42.872892467792184" lon="-2.1106329509552837">
<ele>1025</ele>
<time>2014-09-28T17:02:30Z</time>
</trkpt>
<trkpt lat="42.872890402812494" lon="-2.1106555168230603">
<ele>1025</ele>
<time>2014-09-28T17:02:32Z</time>
</trkpt>
<trkpt lat="42.87289695629832" lon="-2.110692643161021">
<ele>1025</ele>
<time>2014-09-28T17:02:34Z</time>
</trkpt>
<trkpt lat="42.87289858173814" lon="-2.110712996204249">
<ele>1024</ele>
<time>2014-09-28T17:02:36Z</time>
</trkpt>
<trkpt lat="42.87290228873423" lon="-2.1107526953992486">
<ele>1024</ele>
<time>2014-09-28T17:02:38Z</time>
</trkpt>
<trkpt lat="42.87290367069655" lon="-2.1107909215550222">
<ele>1024</ele>
<time>2014-09-28T17:02:40Z</time>
</trkpt>
<trkpt lat="42.87290293577964" lon="-2.1108321319943677">
<ele>1023</ele>
<time>2014-09-28T17:02:42Z</time>
</trkpt>
<trkpt lat="42.87290644948948" lon="-2.110881401251571">
<ele>1023</ele>
<time>2014-09-28T17:02:44Z</time>
</trkpt>
<trkpt lat="42.87291023863171" lon="-2.1109069085290146">
<ele>1023</ele>
<time>2014-09-28T17:02:46Z</time>
</trkpt>
<trkpt lat="42.87290528682303" lon="-2.1109342538101736">
<ele>1023</ele>
<time>2014-09-28T17:02:48Z</time>
</trkpt>
<trkpt lat="42.87290131066386" lon="-2.1109582835859197">
<ele>1023</ele>
<time>2014-09-28T17:02:50Z</time>
</trkpt>
<trkpt lat="42.87289525644754" lon="-2.1109737825818717">
<ele>1023</ele>
<time>2014-09-28T17:02:52Z</time>
</trkpt>
<trkpt lat="42.8728800606725" lon="-2.111000811606167">
<ele>1023</ele>
<time>2014-09-28T17:02:54Z</time>
</trkpt>
<trkpt lat="42.872861228851725" lon="-2.111047451891712">
<ele>1023</ele>
<time>2014-09-28T17:02:56Z</time>
</trkpt>
<trkpt lat="42.87285380532937" lon="-2.1110804390853515">
<ele>1023</ele>
<time>2014-09-28T17:02:58Z</time>
</trkpt>
<trkpt lat="42.872846174588034" lon="-2.1111057228943784">
<ele>1023</ele>
<time>2014-09-28T17:03:00Z</time>
</trkpt>
<trkpt lat="42.87283622608055" lon="-2.1111247582651393">
<ele>1023</ele>
<time>2014-09-28T17:03:02Z</time>
</trkpt>
<trkpt lat="42.872826278724126" lon="-2.1111425980869227">
<ele>1022</ele>
<time>2014-09-28T17:03:04Z</time>
</trkpt>
<trkpt lat="42.87281750421726" lon="-2.1111552149263315">
<ele>1022</ele>
<time>2014-09-28T17:03:06Z</time>
</trkpt>
<trkpt lat="42.872815948802646" lon="-2.1111616329430682">
<ele>1022</ele>
<time>2014-09-28T17:03:08Z</time>
</trkpt>
<trkpt lat="42.872812846810014" lon="-2.111184296310592">
<ele>1022</ele>
<time>2014-09-28T17:03:10Z</time>
</trkpt>
<trkpt lat="42.87281081772422" lon="-2.111217806698326">
<ele>1022</ele>
<time>2014-09-28T17:03:12Z</time>
</trkpt>
<trkpt lat="42.87280928258188" lon="-2.1112327192410123">
<ele>1021</ele>
<time>2014-09-28T17:03:14Z</time>
</trkpt>
<trkpt lat="42.872797088645456" lon="-2.1112421262787264">
<ele>1021</ele>
<time>2014-09-28T17:03:16Z</time>
</trkpt>
<trkpt lat="42.87278089769411" lon="-2.1112517517087386">
<ele>1020</ele>
<time>2014-09-28T17:03:18Z</time>
</trkpt>
<trkpt lat="42.87277544617483" lon="-2.1112543607439993">
<ele>1020</ele>
<time>2014-09-28T17:03:20Z</time>
</trkpt>
<trkpt lat="42.87277561016491" lon="-2.1112620608060086">
<ele>1020</ele>
<time>2014-09-28T17:03:22Z</time>
</trkpt>
<trkpt lat="42.872765779260575" lon="-2.1112815630741406">
<ele>1019</ele>
<time>2014-09-28T17:03:24Z</time>
</trkpt>
<trkpt lat="42.87275767206257" lon="-2.111302439118565">
<ele>1019</ele>
<time>2014-09-28T17:03:26Z</time>
</trkpt>
<trkpt lat="42.872752540577046" lon="-2.111318673668918">
<ele>1019</ele>
<time>2014-09-28T17:03:28Z</time>
</trkpt>
<trkpt lat="42.87274638077644" lon="-2.1113342733305887">
<ele>1018</ele>
<time>2014-09-28T17:03:30Z</time>
</trkpt>
<trkpt lat="42.87274330155849" lon="-2.111359215521155">
<ele>1018</ele>
<time>2014-09-28T17:03:32Z</time>
</trkpt>
<trkpt lat="42.87274261084684" lon="-2.11138813621868">
<ele>1018</ele>
<time>2014-09-28T17:03:34Z</time>
</trkpt>
<trkpt lat="42.87274067049402" lon="-2.1114114291293387">
<ele>1017</ele>
<time>2014-09-28T17:03:36Z</time>
</trkpt>
<trkpt lat="42.87273702979555" lon="-2.1114391893512763">
<ele>1017</ele>
<time>2014-09-28T17:03:38Z</time>
</trkpt>
<trkpt lat="42.87273028494965" lon="-2.1114641449966163">
<ele>1016</ele>
<time>2014-09-28T17:03:40Z</time>
</trkpt>
<trkpt lat="42.87272054735313" lon="-2.11149248747788">
<ele>1016</ele>
<time>2014-09-28T17:03:42Z</time>
</trkpt>
<trkpt lat="42.872717499595076" lon="-2.111518095023247">
<ele>1016</ele>
<time>2014-09-28T17:03:44Z</time>
</trkpt>
<trkpt lat="42.87272298427113" lon="-2.1115471666984056">
<ele>1016</ele>
<time>2014-09-28T17:03:46Z</time>
</trkpt>
<trkpt lat="42.872729635924024" lon="-2.111569400388673">
<ele>1015</ele>
<time>2014-09-28T17:03:48Z</time>
</trkpt>
<trkpt lat="42.87272768708359" lon="-2.1115958063869">
<ele>1015</ele>
<time>2014-09-28T17:03:50Z</time>
</trkpt>
<trkpt lat="42.872721043560404" lon="-2.1116309970422416">
<ele>1015</ele>
<time>2014-09-28T17:03:52Z</time>
</trkpt>
<trkpt lat="42.87272251003469" lon="-2.111652178221049">
<ele>1014</ele>
<time>2014-09-28T17:03:54Z</time>
</trkpt>
<trkpt lat="42.87271746456495" lon="-2.1116699708312403">
<ele>1014</ele>
<time>2014-09-28T17:03:56Z</time>
</trkpt>
<trkpt lat="42.87271535735208" lon="-2.111691879426707">
<ele>1014</ele>
<time>2014-09-28T17:03:58Z</time>
</trkpt>
<trkpt lat="42.872712773925784" lon="-2.111714084264989">
<ele>1014</ele>
<time>2014-09-28T17:04:00Z</time>
</trkpt>
<trkpt lat="42.87271487731945" lon="-2.1117288759480815">
<ele>1013</ele>
<time>2014-09-28T17:04:02Z</time>
</trkpt>
<trkpt lat="42.872717685046545" lon="-2.1117532468960767">
<ele>1013</ele>
<time>2014-09-28T17:04:04Z</time>
</trkpt>
<trkpt lat="42.872711898440976" lon="-2.1117759489120034">
<ele>1012</ele>
<time>2014-09-28T17:04:06Z</time>
</trkpt>
<trkpt lat="42.872695674472396" lon="-2.1118048821577586">
<ele>1012</ele>
<time>2014-09-28T17:04:08Z</time>
</trkpt>
<trkpt lat="42.87269802069342" lon="-2.111821085287838">
<ele>1012</ele>
<time>2014-09-28T17:04:10Z</time>
</trkpt>
<trkpt lat="42.872699071384" lon="-2.1118382157502085">
<ele>1011</ele>
<time>2014-09-28T17:04:12Z</time>
</trkpt>
<trkpt lat="42.872700997780754" lon="-2.111858263714678">
<ele>1010</ele>
<time>2014-09-28T17:04:14Z</time>
</trkpt>
<trkpt lat="42.8726953623712" lon="-2.111878128887243">
<ele>1010</ele>
<time>2014-09-28T17:04:16Z</time>
</trkpt>
<trkpt lat="42.872696567524514" lon="-2.111901228659313">
<ele>1009</ele>
<time>2014-09-28T17:04:18Z</time>
</trkpt>
<trkpt lat="42.87270453030014" lon="-2.111926097444483">
<ele>1009</ele>
<time>2014-09-28T17:04:20Z</time>
</trkpt>
<trkpt lat="42.872707614520266" lon="-2.1119567855228527">
<ele>1009</ele>
<time>2014-09-28T17:04:22Z</time>
</trkpt>
<trkpt lat="42.872699248390916" lon="-2.11199331287782">
<ele>1009</ele>
<time>2014-09-28T17:04:24Z</time>
</trkpt>
<trkpt lat="42.87270069711358" lon="-2.11203658377393">
<ele>1008</ele>
<time>2014-09-28T17:04:26Z</time>
</trkpt>
<trkpt lat="42.87270610392838" lon="-2.112104162109345">
<ele>1008</ele>
<time>2014-09-28T17:04:28Z</time>
</trkpt>
<trkpt lat="42.872701836475066" lon="-2.1121411933824246">
<ele>1008</ele>
<time>2014-09-28T17:04:30Z</time>
</trkpt>
<trkpt lat="42.87270607734148" lon="-2.1121623724663317">
<ele>1007</ele>
<time>2014-09-28T17:04:32Z</time>
</trkpt>
<trkpt lat="42.87270991675628" lon="-2.1121750542094047">
<ele>1007</ele>
<time>2014-09-28T17:04:34Z</time>
</trkpt>
<trkpt lat="42.87271281224222" lon="-2.1121946977318475">
<ele>1007</ele>
<time>2014-09-28T17:04:36Z</time>
</trkpt>
<trkpt lat="42.872716794768955" lon="-2.1122194861122034">
<ele>1006</ele>
<time>2014-09-28T17:04:38Z</time>
</trkpt>
<trkpt lat="42.87271990087335" lon="-2.112241258777995">
<ele>1006</ele>
<time>2014-09-28T17:04:40Z</time>
</trkpt>
<trkpt lat="42.872728185709825" lon="-2.112271598960867">
<ele>1006</ele>
<time>2014-09-28T17:04:42Z</time>
</trkpt>
<trkpt lat="42.872736884286674" lon="-2.1122958092086264">
<ele>1005</ele>
<time>2014-09-28T17:04:44Z</time>
</trkpt>
<trkpt lat="42.8727530149054" lon="-2.1123189413253898">
<ele>1005</ele>
<time>2014-09-28T17:04:46Z</time>
</trkpt>
<trkpt lat="42.87278287181957" lon="-2.1123496951169596">
<ele>1005</ele>
<time>2014-09-28T17:04:48Z</time>
</trkpt>
<trkpt lat="42.87281678796507" lon="-2.1123742193568376">
<ele>1005</ele>
<time>2014-09-28T17:04:50Z</time>
</trkpt>
<trkpt lat="42.872814418614766" lon="-2.1123821797202673">
<ele>1005</ele>
<time>2014-09-28T17:04:52Z</time>
</trkpt>
<trkpt lat="42.87282044235036" lon="-2.1123990243817787">
<ele>1005</ele>
<time>2014-09-28T17:04:54Z</time>
</trkpt>
<trkpt lat="42.872824669192305" lon="-2.112423217710351">
<ele>1004</ele>
<time>2014-09-28T17:04:56Z</time>
</trkpt>
<trkpt lat="42.87282991936786" lon="-2.1124374392383736">
<ele>1004</ele>
<time>2014-09-28T17:04:58Z</time>
</trkpt>
<trkpt lat="42.87283197144032" lon="-2.1124516940568796">
<ele>1004</ele>
<time>2014-09-28T17:05:00Z</time>
</trkpt>
<trkpt lat="42.87283122906253" lon="-2.1124746105561236">
<ele>1003</ele>
<time>2014-09-28T17:05:02Z</time>
</trkpt>
<trkpt lat="42.872836326196484" lon="-2.1125043935179995">
<ele>1003</ele>
<time>2014-09-28T17:05:04Z</time>
</trkpt>
<trkpt lat="42.87283651365745" lon="-2.112537461845987">
<ele>1002</ele>
<time>2014-09-28T17:05:06Z</time>
</trkpt>
<trkpt lat="42.872835444924874" lon="-2.112566040146751">
<ele>1002</ele>
<time>2014-09-28T17:05:08Z</time>
</trkpt>
<trkpt lat="42.872840554226016" lon="-2.1126080485667216">
<ele>1002</ele>
<time>2014-09-28T17:05:10Z</time>
</trkpt>
<trkpt lat="42.87285063479766" lon="-2.112637007941719">
<ele>1001</ele>
<time>2014-09-28T17:05:12Z</time>
</trkpt>
<trkpt lat="42.872854900367834" lon="-2.1126679107330006">
<ele>1001</ele>
<time>2014-09-28T17:05:14Z</time>
</trkpt>
<trkpt lat="42.872854846395725" lon="-2.1126865922225058">
<ele>1001</ele>
<time>2014-09-28T17:05:16Z</time>
</trkpt>
<trkpt lat="42.87286147990773" lon="-2.112715695118812">
<ele>1000</ele>
<time>2014-09-28T17:05:18Z</time>
</trkpt>
<trkpt lat="42.87287491556307" lon="-2.112747367604205">
<ele>1000</ele>
<time>2014-09-28T17:05:20Z</time>
</trkpt>
<trkpt lat="42.87287714433369" lon="-2.112757022398727">
<ele>1000</ele>
<time>2014-09-28T17:05:22Z</time>
</trkpt>
<trkpt lat="42.87288848275995" lon="-2.1127706828196726">
<ele>999</ele>
<time>2014-09-28T17:05:24Z</time>
</trkpt>
<trkpt lat="42.87289697128871" lon="-2.1127958854576754">
<ele>999</ele>
<time>2014-09-28T17:05:26Z</time>
</trkpt>
<trkpt lat="42.872907337345474" lon="-2.112832845131172">
<ele>999</ele>
<time>2014-09-28T17:05:28Z</time>
</trkpt>
<trkpt lat="42.87291317681897" lon="-2.112862817178361">
<ele>999</ele>
<time>2014-09-28T17:05:30Z</time>
</trkpt>
<trkpt lat="42.87291839908935" lon="-2.1128906712254283">
<ele>998</ele>
<time>2014-09-28T17:05:32Z</time>
</trkpt>
<trkpt lat="42.87291966423583" lon="-2.112924733976535">
<ele>998</ele>
<time>2014-09-28T17:05:34Z</time>
</trkpt>
<trkpt lat="42.872927246307846" lon="-2.1129600878580588">
<ele>998</ele>
<time>2014-09-28T17:05:36Z</time>
</trkpt>
<trkpt lat="42.872928123927316" lon="-2.113001132637002">
<ele>997</ele>
<time>2014-09-28T17:05:38Z</time>
</trkpt>
<trkpt lat="42.87292960627548" lon="-2.1130366899606168">
<ele>997</ele>
<time>2014-09-28T17:05:40Z</time>
</trkpt>
<trkpt lat="42.872926109101414" lon="-2.1130763683423015">
<ele>996</ele>
<time>2014-09-28T17:05:42Z</time>
</trkpt>
<trkpt lat="42.872930478927906" lon="-2.11309666060388">
<ele>996</ele>
<time>2014-09-28T17:05:44Z</time>
</trkpt>
<trkpt lat="42.872934095935335" lon="-2.1131123747862093">
<ele>995</ele>
<time>2014-09-28T17:05:46Z</time>
</trkpt>
<trkpt lat="42.872938481325534" lon="-2.1131391883519828">
<ele>995</ele>
<time>2014-09-28T17:05:48Z</time>
</trkpt>
<trkpt lat="42.872948572494" lon="-2.1131679831452646">
<ele>995</ele>
<time>2014-09-28T17:05:50Z</time>
</trkpt>
<trkpt lat="42.87295535564276" lon="-2.113199921484914">
<ele>994</ele>
<time>2014-09-28T17:05:52Z</time>
</trkpt>
<trkpt lat="42.87295330936705" lon="-2.1132133834809568">
<ele>994</ele>
<time>2014-09-28T17:05:54Z</time>
</trkpt>
<trkpt lat="42.87295789638783" lon="-2.1132169129454357">
<ele>994</ele>
<time>2014-09-28T17:05:56Z</time>
</trkpt>
<trkpt lat="42.87295414158869" lon="-2.113218642811096">
<ele>994</ele>
<time>2014-09-28T17:05:58Z</time>
</trkpt>
<trkpt lat="42.87294895061589" lon="-2.113219233383162">
<ele>994</ele>
<time>2014-09-28T17:06:00Z</time>
</trkpt>
<trkpt lat="42.872947851938896" lon="-2.1132205887564828">
<ele>994</ele>
<time>2014-09-28T17:06:02Z</time>
</trkpt>
<trkpt lat="42.8729463731592" lon="-2.113219982602227">
<ele>994</ele>
<time>2014-09-28T17:06:04Z</time>
</trkpt>
<trkpt lat="42.872946835504784" lon="-2.113221859972749">
<ele>994</ele>
<time>2014-09-28T17:06:06Z</time>
</trkpt>
<trkpt lat="42.872949985028825" lon="-2.113226035062491">
<ele>993</ele>
<time>2014-09-28T17:06:08Z</time>
</trkpt>
<trkpt lat="42.87294725837249" lon="-2.113229124228103">
<ele>993</ele>
<time>2014-09-28T17:06:10Z</time>
</trkpt>
<trkpt lat="42.872942519875615" lon="-2.113236592860679">
<ele>993</ele>
<time>2014-09-28T17:06:12Z</time>
</trkpt>
<trkpt lat="42.87294314615499" lon="-2.1132417915599047">
<ele>993</ele>
<time>2014-09-28T17:06:14Z</time>
</trkpt>
<trkpt lat="42.872942008065436" lon="-2.1132488896572728">
<ele>993</ele>
<time>2014-09-28T17:06:16Z</time>
</trkpt>
<trkpt lat="42.87293884408403" lon="-2.11325466710548">
<ele>993</ele>
<time>2014-09-28T17:06:18Z</time>
</trkpt>
<trkpt lat="42.872938485951394" lon="-2.1132543478758503">
<ele>993</ele>
<time>2014-09-28T17:06:20Z</time>
</trkpt>
<trkpt lat="42.872938382315056" lon="-2.113256319356351">
<ele>993</ele>
<time>2014-09-28T17:06:22Z</time>
</trkpt>
<trkpt lat="42.872939327742486" lon="-2.113257681715069">
<ele>993</ele>
<time>2014-09-28T17:06:24Z</time>
</trkpt>
<trkpt lat="42.872945712229395" lon="-2.1132627106892685">
<ele>993</ele>
<time>2014-09-28T17:06:26Z</time>
</trkpt>
<trkpt lat="42.87295805034433" lon="-2.1132695479115826">
<ele>993</ele>
<time>2014-09-28T17:06:28Z</time>
</trkpt>
<trkpt lat="42.872973361191285" lon="-2.1132886676912954">
<ele>992</ele>
<time>2014-09-28T17:06:30Z</time>
</trkpt>
<trkpt lat="42.87298066494239" lon="-2.1132977177094454">
<ele>992</ele>
<time>2014-09-28T17:06:32Z</time>
</trkpt>
<trkpt lat="42.87299855335572" lon="-2.1133259407028087">
<ele>991</ele>
<time>2014-09-28T17:06:34Z</time>
</trkpt>
<trkpt lat="42.8730211781871" lon="-2.1133666164123253">
<ele>991</ele>
<time>2014-09-28T17:06:36Z</time>
</trkpt>
<trkpt lat="42.873027499412856" lon="-2.1133810806193987">
<ele>990</ele>
<time>2014-09-28T17:06:38Z</time>
</trkpt>
<trkpt lat="42.87303465433593" lon="-2.1134059329831723">
<ele>990</ele>
<time>2014-09-28T17:06:40Z</time>
</trkpt>
<trkpt lat="42.87304739936911" lon="-2.1134396073283024">
<ele>990</ele>
<time>2014-09-28T17:06:42Z</time>
</trkpt>
<trkpt lat="42.873062271349646" lon="-2.113469671237921">
<ele>989</ele>
<time>2014-09-28T17:06:44Z</time>
</trkpt>
<trkpt lat="42.87307162308134" lon="-2.1134881028891126">
<ele>989</ele>
<time>2014-09-28T17:06:46Z</time>
</trkpt>
<trkpt lat="42.873078515448405" lon="-2.1135016466180216">
<ele>988</ele>
<time>2014-09-28T17:06:48Z</time>
</trkpt>
<trkpt lat="42.87308839392576" lon="-2.1135186047097645">
<ele>988</ele>
<time>2014-09-28T17:06:50Z</time>
</trkpt>
<trkpt lat="42.87309641010856" lon="-2.113544504186802">
<ele>987</ele>
<time>2014-09-28T17:06:52Z</time>
</trkpt>
<trkpt lat="42.87310243625543" lon="-2.1135541568844647">
<ele>987</ele>
<time>2014-09-28T17:06:54Z</time>
</trkpt>
<trkpt lat="42.87310476726314" lon="-2.1135572809441316">
<ele>986</ele>
<time>2014-09-28T17:06:56Z</time>
</trkpt>
<trkpt lat="42.8731060902533" lon="-2.1135650457481034">
<ele>986</ele>
<time>2014-09-28T17:06:58Z</time>
</trkpt>
<trkpt lat="42.87311133290178" lon="-2.113580124599318">
<ele>985</ele>
<time>2014-09-28T17:07:00Z</time>
</trkpt>
<trkpt lat="42.87312096080547" lon="-2.1135930289037566">
<ele>985</ele>
<time>2014-09-28T17:07:02Z</time>
</trkpt>
<trkpt lat="42.87314069172768" lon="-2.1136169569758647">
<ele>985</ele>
<time>2014-09-28T17:07:04Z</time>
</trkpt>
<trkpt lat="42.8731597411782" lon="-2.1136329025644427">
<ele>985</ele>
<time>2014-09-28T17:07:06Z</time>
</trkpt>
<trkpt lat="42.87317830059033" lon="-2.113652359255654">
<ele>984</ele>
<time>2014-09-28T17:07:08Z</time>
</trkpt>
<trkpt lat="42.873199628965324" lon="-2.113676553759163">
<ele>984</ele>
<time>2014-09-28T17:07:10Z</time>
</trkpt>
<trkpt lat="42.87321903419584" lon="-2.1137024485557645">
<ele>984</ele>
<time>2014-09-28T17:07:12Z</time>
</trkpt>
<trkpt lat="42.87324681490597" lon="-2.11375164446294">
<ele>983</ele>
<time>2014-09-28T17:07:14Z</time>
</trkpt>
<trkpt lat="42.87325363440938" lon="-2.1137634792226074">
<ele>983</ele>
<time>2014-09-28T17:07:16Z</time>
</trkpt>
<trkpt lat="42.873266624382765" lon="-2.1137706313867755">
<ele>983</ele>
<time>2014-09-28T17:07:18Z</time>
</trkpt>
<trkpt lat="42.87327724610395" lon="-2.113789589542599">
<ele>982</ele>
<time>2014-09-28T17:07:20Z</time>
</trkpt>
<trkpt lat="42.873287097626026" lon="-2.113804058311971">
<ele>982</ele>
<time>2014-09-28T17:07:22Z</time>
</trkpt>
<trkpt lat="42.873296317484034" lon="-2.113823130458449">
<ele>981</ele>
<time>2014-09-28T17:07:24Z</time>
</trkpt>
<trkpt lat="42.87329746165265" lon="-2.1138301612972064">
<ele>981</ele>
<time>2014-09-28T17:07:26Z</time>
</trkpt>
<trkpt lat="42.87330159550518" lon="-2.1138406667965053">
<ele>980</ele>
<time>2014-09-28T17:07:28Z</time>
</trkpt>
<trkpt lat="42.873309359478775" lon="-2.113849388313566">
<ele>980</ele>
<time>2014-09-28T17:07:30Z</time>
</trkpt>
<trkpt lat="42.873322667375746" lon="-2.1138559597961772">
<ele>979</ele>
<time>2014-09-28T17:07:32Z</time>
</trkpt>
<trkpt lat="42.87334470736594" lon="-2.1138666714177825">
<ele>979</ele>
<time>2014-09-28T17:07:34Z</time>
</trkpt>
<trkpt lat="42.87337577429399" lon="-2.1139124408712218">
<ele>979</ele>
<time>2014-09-28T17:07:36Z</time>
</trkpt>
<trkpt lat="42.87340562099151" lon="-2.113950888450441">
<ele>978</ele>
<time>2014-09-28T17:07:38Z</time>
</trkpt>
<trkpt lat="42.87343148482506" lon="-2.113996834775294">
<ele>978</ele>
<time>2014-09-28T17:07:40Z</time>
</trkpt>
<trkpt lat="42.873437275482026" lon="-2.1140343351802815">
<ele>978</ele>
<time>2014-09-28T17:07:42Z</time>
</trkpt>
<trkpt lat="42.87344701750023" lon="-2.1140622974819276">
<ele>977</ele>
<time>2014-09-28T17:07:44Z</time>
</trkpt>
<trkpt lat="42.87345826505154" lon="-2.114087530254574">
<ele>977</ele>
<time>2014-09-28T17:07:46Z</time>
</trkpt>
<trkpt lat="42.873469266538066" lon="-2.1140959702716002">
<ele>976</ele>
<time>2014-09-28T17:07:48Z</time>
</trkpt>
<trkpt lat="42.87348573612095" lon="-2.1141109316727267">
<ele>976</ele>
<time>2014-09-28T17:07:50Z</time>
</trkpt>
<trkpt lat="42.873502485084494" lon="-2.1141317755580835">
<ele>975</ele>
<time>2014-09-28T17:07:52Z</time>
</trkpt>
<trkpt lat="42.87351869218928" lon="-2.114152497403753">
<ele>975</ele>
<time>2014-09-28T17:07:54Z</time>
</trkpt>
<trkpt lat="42.873532674914976" lon="-2.1141690053319775">
<ele>975</ele>
<time>2014-09-28T17:07:56Z</time>
</trkpt>
<trkpt lat="42.87356035739186" lon="-2.114192801199967">
<ele>974</ele>
<time>2014-09-28T17:07:58Z</time>
</trkpt>
<trkpt lat="42.87359055993734" lon="-2.1142234720032387">
<ele>974</ele>
<time>2014-09-28T17:08:00Z</time>
</trkpt>
<trkpt lat="42.87360365024265" lon="-2.1142389372823196">
<ele>974</ele>
<time>2014-09-28T17:08:02Z</time>
</trkpt>
<trkpt lat="42.87361826565934" lon="-2.1142523612057262">
<ele>973</ele>
<time>2014-09-28T17:08:04Z</time>
</trkpt>
<trkpt lat="42.87363370431144" lon="-2.1142726012296262">
<ele>973</ele>
<time>2014-09-28T17:08:06Z</time>
</trkpt>
<trkpt lat="42.8736454835517" lon="-2.1142875554801566">
<ele>972</ele>
<time>2014-09-28T17:08:08Z</time>
</trkpt>
<trkpt lat="42.87366088732467" lon="-2.1143068346725378">
<ele>972</ele>
<time>2014-09-28T17:08:10Z</time>
</trkpt>
<trkpt lat="42.87369314965835" lon="-2.1143381757112025">
<ele>971</ele>
<time>2014-09-28T17:08:12Z</time>
</trkpt>
<trkpt lat="42.873716912839086" lon="-2.1143650938248815">
<ele>971</ele>
<time>2014-09-28T17:08:14Z</time>
</trkpt>
<trkpt lat="42.87374188441819" lon="-2.114392475138951">
<ele>971</ele>
<time>2014-09-28T17:08:16Z</time>
</trkpt>
<trkpt lat="42.87376349356939" lon="-2.1144008414619337">
<ele>970</ele>
<time>2014-09-28T17:08:18Z</time>
</trkpt>
<trkpt lat="42.87377903642375" lon="-2.1144148081117193">
<ele>970</ele>
<time>2014-09-28T17:08:20Z</time>
</trkpt>
<trkpt lat="42.873787444058344" lon="-2.1144240128826093">
<ele>969</ele>
<time>2014-09-28T17:08:22Z</time>
</trkpt>
<trkpt lat="42.873796860078244" lon="-2.114435726337746">
<ele>969</ele>
<time>2014-09-28T17:08:24Z</time>
</trkpt>
<trkpt lat="42.873805340174805" lon="-2.1144515354761566">
<ele>968</ele>
<time>2014-09-28T17:08:26Z</time>
</trkpt>
<trkpt lat="42.873812156484284" lon="-2.1144692726024243">
<ele>968</ele>
<time>2014-09-28T17:08:28Z</time>
</trkpt>
<trkpt lat="42.873825474298236" lon="-2.1144827575058898">
<ele>967</ele>
<time>2014-09-28T17:08:30Z</time>
</trkpt>
<trkpt lat="42.873860632675445" lon="-2.114513582147253">
<ele>967</ele>
<time>2014-09-28T17:08:32Z</time>
</trkpt>
<trkpt lat="42.873888630170164" lon="-2.1145380045075903">
<ele>967</ele>
<time>2014-09-28T17:08:34Z</time>
</trkpt>
<trkpt lat="42.87391739166719" lon="-2.1145541079726415">
<ele>966</ele>
<time>2014-09-28T17:08:36Z</time>
</trkpt>
<trkpt lat="42.87394492550539" lon="-2.1145793126954913">
<ele>966</ele>
<time>2014-09-28T17:08:38Z</time>
</trkpt>
<trkpt lat="42.87396573578268" lon="-2.1146131902499055">
<ele>966</ele>
<time>2014-09-28T17:08:40Z</time>
</trkpt>
<trkpt lat="42.87398424601909" lon="-2.1146484045518363">
<ele>966</ele>
<time>2014-09-28T17:08:42Z</time>
</trkpt>
<trkpt lat="42.87401010949345" lon="-2.1146767666755713">
<ele>966</ele>
<time>2014-09-28T17:08:44Z</time>
</trkpt>
<trkpt lat="42.874047243985636" lon="-2.1147066208185135">
<ele>966</ele>
<time>2014-09-28T17:08:46Z</time>
</trkpt>
<trkpt lat="42.87407641665857" lon="-2.114718599567304">
<ele>966</ele>
<time>2014-09-28T17:08:48Z</time>
</trkpt>
<trkpt lat="42.874102035899746" lon="-2.1147217906828057">
<ele>966</ele>
<time>2014-09-28T17:08:50Z</time>
</trkpt>
<trkpt lat="42.874135943632474" lon="-2.1147264203845246">
<ele>966</ele>
<time>2014-09-28T17:08:52Z</time>
</trkpt>
<trkpt lat="42.87416275554061" lon="-2.1147356532396278">
<ele>966</ele>
<time>2014-09-28T17:08:54Z</time>
</trkpt>
<trkpt lat="42.874193357124724" lon="-2.114768892134668">
<ele>966</ele>
<time>2014-09-28T17:08:56Z</time>
</trkpt>
<trkpt lat="42.87420844964041" lon="-2.1147967765845204">
<ele>965</ele>
<time>2014-09-28T17:08:58Z</time>
</trkpt>
<trkpt lat="42.8742162055512" lon="-2.1148143312904346">
<ele>965</ele>
<time>2014-09-28T17:09:00Z</time>
</trkpt>
<trkpt lat="42.87422633495433" lon="-2.1148285517248393">
<ele>965</ele>
<time>2014-09-28T17:09:02Z</time>
</trkpt>
<trkpt lat="42.87424181723446" lon="-2.1148425421834447">
<ele>965</ele>
<time>2014-09-28T17:09:04Z</time>
</trkpt>
<trkpt lat="42.874252422724844" lon="-2.114858002599459">
<ele>964</ele>
<time>2014-09-28T17:09:06Z</time>
</trkpt>
<trkpt lat="42.874257567076754" lon="-2.1148733715158996">
<ele>964</ele>
<time>2014-09-28T17:09:08Z</time>
</trkpt>
<trkpt lat="42.87425982191634" lon="-2.1148894411443475">
<ele>964</ele>
<time>2014-09-28T17:09:10Z</time>
</trkpt>
<trkpt lat="42.8742639513478" lon="-2.1149107627900827">
<ele>963</ele>
<time>2014-09-28T17:09:12Z</time>
</trkpt>
<trkpt lat="42.87427144171377" lon="-2.1149302124727596">
<ele>963</ele>
<time>2014-09-28T17:09:14Z</time>
</trkpt>
<trkpt lat="42.874275943394316" lon="-2.114933843080121">
<ele>962</ele>
<time>2014-09-28T17:09:16Z</time>
</trkpt>
<trkpt lat="42.874279054634975" lon="-2.1149375707859788">
<ele>962</ele>
<time>2014-09-28T17:09:18Z</time>
</trkpt>
<trkpt lat="42.874278274543926" lon="-2.1149446989089933">
<ele>962</ele>
<time>2014-09-28T17:09:20Z</time>
</trkpt>
<trkpt lat="42.874277302523154" lon="-2.114943782514159">
<ele>962</ele>
<time>2014-09-28T17:09:22Z</time>
</trkpt>
<trkpt lat="42.87427582674528" lon="-2.1149404409218557">
<ele>962</ele>
<time>2014-09-28T17:09:24Z</time>
</trkpt>
<trkpt lat="42.87427642363869" lon="-2.1149417254528355">
<ele>962</ele>
<time>2014-09-28T17:09:26Z</time>
</trkpt>
<trkpt lat="42.874276472032506" lon="-2.114943028120049">
<ele>961</ele>
<time>2014-09-28T17:09:28Z</time>
</trkpt>
<trkpt lat="42.87427580859768" lon="-2.11494366090773">
<ele>961</ele>
<time>2014-09-28T17:09:30Z</time>
</trkpt>
<trkpt lat="42.874277548303986" lon="-2.11494562309805">
<ele>961</ele>
<time>2014-09-28T17:09:32Z</time>
</trkpt>
<trkpt lat="42.8742786443986" lon="-2.11495689325175">
<ele>961</ele>
<time>2014-09-28T17:09:34Z</time>
</trkpt>
<trkpt lat="42.87429031869616" lon="-2.114969997737131">
<ele>961</ele>
<time>2014-09-28T17:09:36Z</time>
</trkpt>
<trkpt lat="42.87430843674485" lon="-2.114978986709484">
<ele>960</ele>
<time>2014-09-28T17:09:38Z</time>
</trkpt>
<trkpt lat="42.87431304005428" lon="-2.1149820405785023">
<ele>960</ele>
<time>2014-09-28T17:09:40Z</time>
</trkpt>
<trkpt lat="42.874314448464105" lon="-2.114984046988576">
<ele>960</ele>
<time>2014-09-28T17:09:42Z</time>
</trkpt>
<trkpt lat="42.87432141224803" lon="-2.114999163539005">
<ele>960</ele>
<time>2014-09-28T17:09:44Z</time>
</trkpt>
<trkpt lat="42.87432998508366" lon="-2.115003060403589">
<ele>960</ele>
<time>2014-09-28T17:09:46Z</time>
</trkpt>
<trkpt lat="42.87434050549274" lon="-2.11502130158344">
<ele>960</ele>
<time>2014-09-28T17:09:48Z</time>
</trkpt>
<trkpt lat="42.87435056696652" lon="-2.1150379425032315">
<ele>959</ele>
<time>2014-09-28T17:09:50Z</time>
</trkpt>
<trkpt lat="42.87436753626316" lon="-2.115067579214917">
<ele>959</ele>
<time>2014-09-28T17:09:52Z</time>
</trkpt>
<trkpt lat="42.874390719841664" lon="-2.115093464244612">
<ele>959</ele>
<time>2014-09-28T17:09:54Z</time>
</trkpt>
<trkpt lat="42.87441245992709" lon="-2.1151147456732176">
<ele>958</ele>
<time>2014-09-28T17:09:56Z</time>
</trkpt>
<trkpt lat="42.87443373336631" lon="-2.1151333618940797">
<ele>958</ele>
<time>2014-09-28T17:09:58Z</time>
</trkpt>
<trkpt lat="42.87445709261197" lon="-2.115148921680326">
<ele>958</ele>
<time>2014-09-28T17:10:00Z</time>
</trkpt>
<trkpt lat="42.87448067989388" lon="-2.115170373361232">
<ele>958</ele>
<time>2014-09-28T17:10:02Z</time>
</trkpt>
<trkpt lat="42.87450008428181" lon="-2.1151913675291683">
<ele>958</ele>
<time>2014-09-28T17:10:04Z</time>
</trkpt>
<trkpt lat="42.87451113250622" lon="-2.115210435774495">
<ele>958</ele>
<time>2014-09-28T17:10:06Z</time>
</trkpt>
<trkpt lat="42.874520518958235" lon="-2.1152293941500595">
<ele>957</ele>
<time>2014-09-28T17:10:08Z</time>
</trkpt>
<trkpt lat="42.87453580250171" lon="-2.1152614781578114">
<ele>957</ele>
<time>2014-09-28T17:10:10Z</time>
</trkpt>
<trkpt lat="42.87454798917704" lon="-2.115279886600783">
<ele>956</ele>
<time>2014-09-28T17:10:12Z</time>
</trkpt>
<trkpt lat="42.874570983735616" lon="-2.1152980630350715">
<ele>956</ele>
<time>2014-09-28T17:10:14Z</time>
</trkpt>
<trkpt lat="42.87458822208221" lon="-2.115305523971726">
<ele>956</ele>
<time>2014-09-28T17:10:16Z</time>
</trkpt>
<trkpt lat="42.87460372505327" lon="-2.1153129620035136">
<ele>955</ele>
<time>2014-09-28T17:10:18Z</time>
</trkpt>
<trkpt lat="42.874618088185834" lon="-2.1153213512755">
<ele>955</ele>
<time>2014-09-28T17:10:20Z</time>
</trkpt>
<trkpt lat="42.87463754538764" lon="-2.1153330083245288">
<ele>955</ele>
<time>2014-09-28T17:10:22Z</time>
</trkpt>
<trkpt lat="42.874653780241225" lon="-2.115345895562036">
<ele>954</ele>
<time>2014-09-28T17:10:24Z</time>
</trkpt>
<trkpt lat="42.87467071320997" lon="-2.11536595848972">
<ele>954</ele>
<time>2014-09-28T17:10:26Z</time>
</trkpt>
<trkpt lat="42.87469151106729" lon="-2.1153936674337572">
<ele>954</ele>
<time>2014-09-28T17:10:28Z</time>
</trkpt>
<trkpt lat="42.874703328720045" lon="-2.115403843564814">
<ele>954</ele>
<time>2014-09-28T17:10:30Z</time>
</trkpt>
<trkpt lat="42.87472223029465" lon="-2.1154207105014873">
<ele>953</ele>
<time>2014-09-28T17:10:32Z</time>
</trkpt>
<trkpt lat="42.874736379851555" lon="-2.115437768901456">
<ele>953</ele>
<time>2014-09-28T17:10:34Z</time>
</trkpt>
<trkpt lat="42.874756886874486" lon="-2.115468543264261">
<ele>953</ele>
<time>2014-09-28T17:10:36Z</time>
</trkpt>
<trkpt lat="42.874770077339726" lon="-2.115507122126556">
<ele>953</ele>
<time>2014-09-28T17:10:38Z</time>
</trkpt>
<trkpt lat="42.874778746222994" lon="-2.1155231822941007">
<ele>952</ele>
<time>2014-09-28T17:10:40Z</time>
</trkpt>
<trkpt lat="42.87478209698195" lon="-2.115527474645353">
<ele>952</ele>
<time>2014-09-28T17:10:42Z</time>
</trkpt>
<trkpt lat="42.87478572984968" lon="-2.115533411393682">
<ele>951</ele>
<time>2014-09-28T17:10:44Z</time>
</trkpt>
<trkpt lat="42.87479311931447" lon="-2.1155468747111175">
<ele>951</ele>
<time>2014-09-28T17:10:46Z</time>
</trkpt>
<trkpt lat="42.8748023094576" lon="-2.115579685475488">
<ele>950</ele>
<time>2014-09-28T17:10:48Z</time>
</trkpt>
<trkpt lat="42.874819348484856" lon="-2.1156040048441453">
<ele>950</ele>
<time>2014-09-28T17:10:50Z</time>
</trkpt>
<trkpt lat="42.87481174301891" lon="-2.115618555674432">
<ele>950</ele>
<time>2014-09-28T17:10:52Z</time>
</trkpt>
<trkpt lat="42.874814082797954" lon="-2.115624704327481">
<ele>949</ele>
<time>2014-09-28T17:10:54Z</time>
</trkpt>
<trkpt lat="42.874805147462844" lon="-2.115644651972434">
<ele>949</ele>
<time>2014-09-28T17:10:56Z</time>
</trkpt>
<trkpt lat="42.8748047148722" lon="-2.1156770162962286">
<ele>948</ele>
<time>2014-09-28T17:10:58Z</time>
</trkpt>
<trkpt lat="42.874812480223746" lon="-2.1156947528789543">
<ele>948</ele>
<time>2014-09-28T17:11:00Z</time>
</trkpt>
<trkpt lat="42.87482602421516" lon="-2.115704833427977">
<ele>947</ele>
<time>2014-09-28T17:11:02Z</time>
</trkpt>
<trkpt lat="42.87483473359615" lon="-2.115709690964057">
<ele>947</ele>
<time>2014-09-28T17:11:04Z</time>
</trkpt>
<trkpt lat="42.87483877937824" lon="-2.115712341644029">
<ele>946</ele>
<time>2014-09-28T17:11:06Z</time>
</trkpt>
<trkpt lat="42.87484024984405" lon="-2.115716218960475">
<ele>946</ele>
<time>2014-09-28T17:11:08Z</time>
</trkpt>
<trkpt lat="42.874844539727796" lon="-2.1157222735524748">
<ele>946</ele>
<time>2014-09-28T17:11:10Z</time>
</trkpt>
<trkpt lat="42.87485630574568" lon="-2.115747121802794">
<ele>945</ele>
<time>2014-09-28T17:11:12Z</time>
</trkpt>
<trkpt lat="42.874868318384" lon="-2.1157771621986163">
<ele>945</ele>
<time>2014-09-28T17:11:14Z</time>
</trkpt>
<trkpt lat="42.874868536194015" lon="-2.11578427974223">
<ele>945</ele>
<time>2014-09-28T17:11:16Z</time>
</trkpt>
<trkpt lat="42.874866480966546" lon="-2.115794597667659">
<ele>945</ele>
<time>2014-09-28T17:11:18Z</time>
</trkpt>
<trkpt lat="42.874850243410584" lon="-2.1158145544126765">
<ele>945</ele>
<time>2014-09-28T17:11:20Z</time>
</trkpt>
<trkpt lat="42.87485983374111" lon="-2.115839965462812">
<ele>944</ele>
<time>2014-09-28T17:11:22Z</time>
</trkpt>
<trkpt lat="42.87487943355822" lon="-2.1158593813892477">
<ele>944</ele>
<time>2014-09-28T17:11:24Z</time>
</trkpt>
<trkpt lat="42.8748887157054" lon="-2.115885167121653">
<ele>944</ele>
<time>2014-09-28T17:11:26Z</time>
</trkpt>
<trkpt lat="42.8748978714645" lon="-2.1159367523452732">
<ele>944</ele>
<time>2014-09-28T17:11:28Z</time>
</trkpt>
<trkpt lat="42.87491519258517" lon="-2.1159685956971823">
<ele>944</ele>
<time>2014-09-28T17:11:30Z</time>
</trkpt>
<trkpt lat="42.87493372772005" lon="-2.115985484869259">
<ele>944</ele>
<time>2014-09-28T17:11:32Z</time>
</trkpt>
<trkpt lat="42.874950072829115" lon="-2.116011613826361">
<ele>943</ele>
<time>2014-09-28T17:11:34Z</time>
</trkpt>
<trkpt lat="42.87495461427085" lon="-2.116033772151178">
<ele>942</ele>
<time>2014-09-28T17:11:36Z</time>
</trkpt>
<trkpt lat="42.874963563401764" lon="-2.116053899587978">
<ele>942</ele>
<time>2014-09-28T17:11:38Z</time>
</trkpt>
<trkpt lat="42.87496760229694" lon="-2.1160681442450904">
<ele>942</ele>
<time>2014-09-28T17:11:40Z</time>
</trkpt>
<trkpt lat="42.87497082742538" lon="-2.116085109582892">
<ele>942</ele>
<time>2014-09-28T17:11:42Z</time>
</trkpt>
<trkpt lat="42.87497844307071" lon="-2.1160989627732474">
<ele>941</ele>
<time>2014-09-28T17:11:44Z</time>
</trkpt>
<trkpt lat="42.874982386632574" lon="-2.116104329585634">
<ele>941</ele>
<time>2014-09-28T17:11:46Z</time>
</trkpt>
<trkpt lat="42.87498638051992" lon="-2.1161167247603796">
<ele>941</ele>
<time>2014-09-28T17:11:48Z</time>
</trkpt>
<trkpt lat="42.87499413470645" lon="-2.116132345658729">
<ele>940</ele>
<time>2014-09-28T17:11:50Z</time>
</trkpt>
<trkpt lat="42.87500115737319" lon="-2.1161473209459114">
<ele>940</ele>
<time>2014-09-28T17:11:52Z</time>
</trkpt>
<trkpt lat="42.875008840484675" lon="-2.116153991768691">
<ele>940</ele>
<time>2014-09-28T17:11:54Z</time>
</trkpt>
<trkpt lat="42.87501108774495" lon="-2.1161652812847556">
<ele>939</ele>
<time>2014-09-28T17:11:56Z</time>
</trkpt>
<trkpt lat="42.87501216958879" lon="-2.1161893171769677">
<ele>939</ele>
<time>2014-09-28T17:11:58Z</time>
</trkpt>
<trkpt lat="42.875018712955715" lon="-2.11621417251949">
<ele>939</ele>
<time>2014-09-28T17:12:00Z</time>
</trkpt>
<trkpt lat="42.87502650057648" lon="-2.116235101201788">
<ele>938</ele>
<time>2014-09-28T17:12:02Z</time>
</trkpt>
<trkpt lat="42.87503066180025" lon="-2.116242204162012">
<ele>938</ele>
<time>2014-09-28T17:12:04Z</time>
</trkpt>
<trkpt lat="42.875031768181564" lon="-2.1162638818808257">
<ele>938</ele>
<time>2014-09-28T17:12:06Z</time>
</trkpt>
<trkpt lat="42.875029791513064" lon="-2.116289032114328">
<ele>937</ele>
<time>2014-09-28T17:12:08Z</time>
</trkpt>
<trkpt lat="42.8750412565944" lon="-2.1162980737235273">
<ele>936</ele>
<time>2014-09-28T17:12:10Z</time>
</trkpt>
<trkpt lat="42.875045562079514" lon="-2.116307991321579">
<ele>936</ele>
<time>2014-09-28T17:12:12Z</time>
</trkpt>
<trkpt lat="42.87504661885154" lon="-2.116313297140776">
<ele>936</ele>
<time>2014-09-28T17:12:14Z</time>
</trkpt>
<trkpt lat="42.87504567215081" lon="-2.1163154696803286">
<ele>936</ele>
<time>2014-09-28T17:12:16Z</time>
</trkpt>
<trkpt lat="42.875038326313906" lon="-2.1163199359035816">
<ele>936</ele>
<time>2014-09-28T17:12:18Z</time>
</trkpt>
<trkpt lat="42.87503366731228" lon="-2.116332024253106">
<ele>935</ele>
<time>2014-09-28T17:12:20Z</time>
</trkpt>
<trkpt lat="42.875032829184484" lon="-2.1163305016775973">
<ele>935</ele>
<time>2014-09-28T17:12:22Z</time>
</trkpt>
<trkpt lat="42.87503209985478" lon="-2.116329595320066">
<ele>935</ele>
<time>2014-09-28T17:12:24Z</time>
</trkpt>
<trkpt lat="42.875027564366626" lon="-2.116330604025384">
<ele>935</ele>
<time>2014-09-28T17:12:26Z</time>
</trkpt>
<trkpt lat="42.87502525659184" lon="-2.116331574546061">
<ele>935</ele>
<time>2014-09-28T17:12:28Z</time>
</trkpt>
<trkpt lat="42.87502154381574" lon="-2.116334220456099">
<ele>935</ele>
<time>2014-09-28T17:12:30Z</time>
</trkpt>
<trkpt lat="42.87502454679571" lon="-2.1163403932895317">
<ele>935</ele>
<time>2014-09-28T17:12:32Z</time>
</trkpt>
<trkpt lat="42.87502186053235" lon="-2.116345786724168">
<ele>935</ele>
<time>2014-09-28T17:12:34Z</time>
</trkpt>
<trkpt lat="42.875018576474375" lon="-2.116353710354348">
<ele>935</ele>
<time>2014-09-28T17:12:36Z</time>
</trkpt>
<trkpt lat="42.87501969209183" lon="-2.1163618212496593">
<ele>934</ele>
<time>2014-09-28T17:12:38Z</time>
</trkpt>
<trkpt lat="42.875018200322664" lon="-2.1163850692781296">
<ele>932</ele>
<time>2014-09-28T17:12:40Z</time>
</trkpt>
<trkpt lat="42.875019037563796" lon="-2.116407068440167">
<ele>932</ele>
<time>2014-09-28T17:12:42Z</time>
</trkpt>
<trkpt lat="42.87501866551757" lon="-2.1164294437300106">
<ele>931</ele>
<time>2014-09-28T17:12:44Z</time>
</trkpt>
<trkpt lat="42.875023943805694" lon="-2.1164468312949145">
<ele>930</ele>
<time>2014-09-28T17:12:46Z</time>
</trkpt>
<trkpt lat="42.87503141411379" lon="-2.1164557173511054">
<ele>930</ele>
<time>2014-09-28T17:12:48Z</time>
</trkpt>
<trkpt lat="42.8750267062041" lon="-2.116471942490994">
<ele>930</ele>
<time>2014-09-28T17:12:50Z</time>
</trkpt>
<trkpt lat="42.875017356375096" lon="-2.1164825786394283">
<ele>929</ele>
<time>2014-09-28T17:12:52Z</time>
</trkpt>
<trkpt lat="42.875015446131954" lon="-2.1164985664741383">
<ele>929</ele>
<time>2014-09-28T17:12:54Z</time>
</trkpt>
<trkpt lat="42.87501673066792" lon="-2.1165114840908985">
<ele>929</ele>
<time>2014-09-28T17:12:56Z</time>
</trkpt>
<trkpt lat="42.87502247978167" lon="-2.116524646953838">
<ele>929</ele>
<time>2014-09-28T17:12:58Z</time>
</trkpt>
<trkpt lat="42.87501866795817" lon="-2.1165325679845313">
<ele>929</ele>
<time>2014-09-28T17:13:00Z</time>
</trkpt>
<trkpt lat="42.875010852669135" lon="-2.116540786847112">
<ele>928</ele>
<time>2014-09-28T17:13:02Z</time>
</trkpt>
<trkpt lat="42.87501804615302" lon="-2.116550518502747">
<ele>928</ele>
<time>2014-09-28T17:13:04Z</time>
</trkpt>
<trkpt lat="42.875021097568705" lon="-2.1165652110688242">
<ele>928</ele>
<time>2014-09-28T17:13:06Z</time>
</trkpt>
<trkpt lat="42.87501306994465" lon="-2.1165865838479077">
<ele>927</ele>
<time>2014-09-28T17:13:08Z</time>
</trkpt>
<trkpt lat="42.874984921983334" lon="-2.116671923189111">
<ele>927</ele>
<time>2014-09-28T17:13:10Z</time>
</trkpt>
<trkpt lat="42.874994035469975" lon="-2.116705220053949">
<ele>927</ele>
<time>2014-09-28T17:13:12Z</time>
</trkpt>
<trkpt lat="42.87500005077299" lon="-2.1167328812457846">
<ele>926</ele>
<time>2014-09-28T17:13:14Z</time>
</trkpt>
<trkpt lat="42.875003895810316" lon="-2.1167609463320147">
<ele>926</ele>
<time>2014-09-28T17:13:16Z</time>
</trkpt>
<trkpt lat="42.875003301327126" lon="-2.116787377113102">
<ele>926</ele>
<time>2014-09-28T17:13:18Z</time>
</trkpt>
<trkpt lat="42.87499593777082" lon="-2.1168459934014305">
<ele>925</ele>
<time>2014-09-28T17:13:20Z</time>
</trkpt>
<trkpt lat="42.87499903609858" lon="-2.1168822371766445">
<ele>925</ele>
<time>2014-09-28T17:13:22Z</time>
</trkpt>
<trkpt lat="42.87500093302214" lon="-2.1169084551999657">
<ele>925</ele>
<time>2014-09-28T17:13:24Z</time>
</trkpt>
<trkpt lat="42.87500303461648" lon="-2.1169325945286452">
<ele>925</ele>
<time>2014-09-28T17:13:26Z</time>
</trkpt>
<trkpt lat="42.87500014557251" lon="-2.116955143972363">
<ele>925</ele>
<time>2014-09-28T17:13:28Z</time>
</trkpt>
<trkpt lat="42.875000446151255" lon="-2.116988129130674">
<ele>924</ele>
<time>2014-09-28T17:13:30Z</time>
</trkpt>
<trkpt lat="42.875009403799275" lon="-2.117018874994967">
<ele>924</ele>
<time>2014-09-28T17:13:32Z</time>
</trkpt>
<trkpt lat="42.87501762834383" lon="-2.1170415033362153">
<ele>924</ele>
<time>2014-09-28T17:13:34Z</time>
</trkpt>
<trkpt lat="42.87502442210476" lon="-2.1170635456007054">
<ele>923</ele>
<time>2014-09-28T17:13:36Z</time>
</trkpt>
<trkpt lat="42.87503627911071" lon="-2.117100588158763">
<ele>923</ele>
<time>2014-09-28T17:13:38Z</time>
</trkpt>
<trkpt lat="42.87504315532138" lon="-2.1171347066027684">
<ele>923</ele>
<time>2014-09-28T17:13:40Z</time>
</trkpt>
<trkpt lat="42.875039748372735" lon="-2.1171355796951614">
<ele>922</ele>
<time>2014-09-28T17:13:42Z</time>
</trkpt>
<trkpt lat="42.875039454498584" lon="-2.1171331453635975">
<ele>922</ele>
<time>2014-09-28T17:13:44Z</time>
</trkpt>
<trkpt lat="42.875038758419265" lon="-2.117128932296986">
<ele>922</ele>
<time>2014-09-28T17:13:46Z</time>
</trkpt>
<trkpt lat="42.87504064486241" lon="-2.1171293409550285">
<ele>922</ele>
<time>2014-09-28T17:13:48Z</time>
</trkpt>
<trkpt lat="42.87504200970321" lon="-2.117139593061024">
<ele>923</ele>
<time>2014-09-28T17:13:50Z</time>
</trkpt>
<trkpt lat="42.87505106959952" lon="-2.117166257936186">
<ele>923</ele>
<time>2014-09-28T17:13:52Z</time>
</trkpt>
<trkpt lat="42.87505496604959" lon="-2.1172157572538195">
<ele>923</ele>
<time>2014-09-28T17:13:54Z</time>
</trkpt>
<trkpt lat="42.875057476117206" lon="-2.117270404254463">
<ele>922</ele>
<time>2014-09-28T17:13:56Z</time>
</trkpt>
<trkpt lat="42.87505594372698" lon="-2.1172958049205626">
<ele>922</ele>
<time>2014-09-28T17:13:58Z</time>
</trkpt>
<trkpt lat="42.87505878363334" lon="-2.1173176977762207">
<ele>922</ele>
<time>2014-09-28T17:14:00Z</time>
</trkpt>
<trkpt lat="42.875060747072745" lon="-2.1173471164868722">
<ele>922</ele>
<time>2014-09-28T17:14:02Z</time>
</trkpt>
<trkpt lat="42.87506329487145" lon="-2.117382301420101">
<ele>921</ele>
<time>2014-09-28T17:14:04Z</time>
</trkpt>
<trkpt lat="42.87505999984454" lon="-2.1174185106278185">
<ele>921</ele>
<time>2014-09-28T17:14:06Z</time>
</trkpt>
<trkpt lat="42.875065240718385" lon="-2.117447150312732">
<ele>920</ele>
<time>2014-09-28T17:14:08Z</time>
</trkpt>
<trkpt lat="42.875070618689826" lon="-2.1174649277424678">
<ele>920</ele>
<time>2014-09-28T17:14:10Z</time>
</trkpt>
<trkpt lat="42.87507842239804" lon="-2.1174843666331786">
<ele>919</ele>
<time>2014-09-28T17:14:12Z</time>
</trkpt>
<trkpt lat="42.87509638753561" lon="-2.1175248446945223">
<ele>918</ele>
<time>2014-09-28T17:14:14Z</time>
</trkpt>
<trkpt lat="42.87511498725581" lon="-2.1175768242279074">
<ele>918</ele>
<time>2014-09-28T17:14:16Z</time>
</trkpt>
<trkpt lat="42.87512843236029" lon="-2.1176241265308815">
<ele>917</ele>
<time>2014-09-28T17:14:18Z</time>
</trkpt>
<trkpt lat="42.87514229081517" lon="-2.117656430584332">
<ele>917</ele>
<time>2014-09-28T17:14:20Z</time>
</trkpt>
<trkpt lat="42.87514185022519" lon="-2.117682874574733">
<ele>916</ele>
<time>2014-09-28T17:14:22Z</time>
</trkpt>
<trkpt lat="42.87514791382947" lon="-2.11770658195559">
<ele>916</ele>
<time>2014-09-28T17:14:24Z</time>
</trkpt>
<trkpt lat="42.87517311654642" lon="-2.1177517512885062">
<ele>915</ele>
<time>2014-09-28T17:14:26Z</time>
</trkpt>
<trkpt lat="42.87518292805453" lon="-2.1177927220606465">
<ele>915</ele>
<time>2014-09-28T17:14:28Z</time>
</trkpt>
<trkpt lat="42.875184100783386" lon="-2.1178380009213216">
<ele>914</ele>
<time>2014-09-28T17:14:30Z</time>
</trkpt>
<trkpt lat="42.87519912172222" lon="-2.117883756132967">
<ele>913</ele>
<time>2014-09-28T17:14:32Z</time>
</trkpt>
<trkpt lat="42.875217300044156" lon="-2.11793167649402">
<ele>913</ele>
<time>2014-09-28T17:14:34Z</time>
</trkpt>
<trkpt lat="42.87521929987338" lon="-2.117973851153312">
<ele>912</ele>
<time>2014-09-28T17:14:36Z</time>
</trkpt>
<trkpt lat="42.87521716314163" lon="-2.1179836627486774">
<ele>912</ele>
<time>2014-09-28T17:14:38Z</time>
</trkpt>
<trkpt lat="42.87521744379428" lon="-2.117981372410031">
<ele>911</ele>
<time>2014-09-28T17:14:40Z</time>
</trkpt>
<trkpt lat="42.87521815415276" lon="-2.118001953489815">
<ele>910</ele>
<time>2014-09-28T17:14:42Z</time>
</trkpt>
<trkpt lat="42.8752220995586" lon="-2.118031691062513">
<ele>909</ele>
<time>2014-09-28T17:14:44Z</time>
</trkpt>
<trkpt lat="42.87523452001399" lon="-2.1180686808370903">
<ele>909</ele>
<time>2014-09-28T17:14:46Z</time>
</trkpt>
<trkpt lat="42.87524666251011" lon="-2.1181009072773733">
<ele>908</ele>
<time>2014-09-28T17:14:48Z</time>
</trkpt>
<trkpt lat="42.87525346427244" lon="-2.1181410547176664">
<ele>907</ele>
<time>2014-09-28T17:14:50Z</time>
</trkpt>
<trkpt lat="42.87525831376423" lon="-2.118165675564357">
<ele>907</ele>
<time>2014-09-28T17:14:52Z</time>
</trkpt>
<trkpt lat="42.87526787219966" lon="-2.118197499466204">
<ele>906</ele>
<time>2014-09-28T17:14:54Z</time>
</trkpt>
<trkpt lat="42.87526717120823" lon="-2.118240461292176">
<ele>906</ele>
<time>2014-09-28T17:14:56Z</time>
</trkpt>
<trkpt lat="42.875271732351976" lon="-2.118275302436365">
<ele>905</ele>
<time>2014-09-28T17:14:58Z</time>
</trkpt>
<trkpt lat="42.87527475766387" lon="-2.118333022006307">
<ele>905</ele>
<time>2014-09-28T17:15:00Z</time>
</trkpt>
<trkpt lat="42.87524881107156" lon="-2.1183934431480864">
<ele>904</ele>
<time>2014-09-28T17:15:02Z</time>
</trkpt>
<trkpt lat="42.87523585438613" lon="-2.1183979890660654">
<ele>904</ele>
<time>2014-09-28T17:15:04Z</time>
</trkpt>
<trkpt lat="42.875230725593994" lon="-2.1184227554370336">
<ele>903</ele>
<time>2014-09-28T17:15:06Z</time>
</trkpt>
<trkpt lat="42.87523286305912" lon="-2.118457075006744">
<ele>903</ele>
<time>2014-09-28T17:15:08Z</time>
</trkpt>
<trkpt lat="42.87522936055808" lon="-2.1185064603433">
<ele>903</ele>
<time>2014-09-28T17:15:10Z</time>
</trkpt>
<trkpt lat="42.87523004293665" lon="-2.11854820979174">
<ele>902</ele>
<time>2014-09-28T17:15:12Z</time>
</trkpt>
<trkpt lat="42.87522449994208" lon="-2.1185760703708936">
<ele>902</ele>
<time>2014-09-28T17:15:14Z</time>
</trkpt>
<trkpt lat="42.87521868553267" lon="-2.1185970097057467">
<ele>902</ele>
<time>2014-09-28T17:15:16Z</time>
</trkpt>
<trkpt lat="42.875212605978106" lon="-2.118636909816968">
<ele>902</ele>
<time>2014-09-28T17:15:18Z</time>
</trkpt>
<trkpt lat="42.875210648127435" lon="-2.1186704544362347">
<ele>901</ele>
<time>2014-09-28T17:15:20Z</time>
</trkpt>
<trkpt lat="42.87522077978177" lon="-2.1187059302958695">
<ele>901</ele>
<time>2014-09-28T17:15:22Z</time>
</trkpt>
<trkpt lat="42.875226285537536" lon="-2.1187319204499624">
<ele>900</ele>
<time>2014-09-28T17:15:24Z</time>
</trkpt>
<trkpt lat="42.87523076724773" lon="-2.118773823293982">
<ele>900</ele>
<time>2014-09-28T17:15:26Z</time>
</trkpt>
<trkpt lat="42.87523860042908" lon="-2.1187993396817535">
<ele>900</ele>
<time>2014-09-28T17:15:28Z</time>
</trkpt>
<trkpt lat="42.87525478350155" lon="-2.1188130255547186">
<ele>899</ele>
<time>2014-09-28T17:15:30Z</time>
</trkpt>
<trkpt lat="42.87525644113842" lon="-2.1188116319514463">
<ele>899</ele>
<time>2014-09-28T17:15:32Z</time>
</trkpt>
<trkpt lat="42.875247937676384" lon="-2.118862237095968">
<ele>899</ele>
<time>2014-09-28T17:15:34Z</time>
</trkpt>
<trkpt lat="42.87523603757966" lon="-2.118910412565322">
<ele>898</ele>
<time>2014-09-28T17:15:36Z</time>
</trkpt>
<trkpt lat="42.875230508008805" lon="-2.1189591501065905">
<ele>898</ele>
<time>2014-09-28T17:15:38Z</time>
</trkpt>
<trkpt lat="42.87522370795817" lon="-2.11900230385037">
<ele>898</ele>
<time>2014-09-28T17:15:40Z</time>
</trkpt>
<trkpt lat="42.87521826335136" lon="-2.1190337374504655">
<ele>898</ele>
<time>2014-09-28T17:15:42Z</time>
</trkpt>
<trkpt lat="42.87522327224879" lon="-2.119068087882227">
<ele>897</ele>
<time>2014-09-28T17:15:44Z</time>
</trkpt>
<trkpt lat="42.875233713647134" lon="-2.1191140874990224">
<ele>897</ele>
<time>2014-09-28T17:15:46Z</time>
</trkpt>
<trkpt lat="42.875250019247055" lon="-2.1191524445837766">
<ele>897</ele>
<time>2014-09-28T17:15:48Z</time>
</trkpt>
<trkpt lat="42.875251588689736" lon="-2.119173073957425">
<ele>896</ele>
<time>2014-09-28T17:15:50Z</time>
</trkpt>
<trkpt lat="42.875250463155" lon="-2.119190063750041">
<ele>896</ele>
<time>2014-09-28T17:15:52Z</time>
</trkpt>
<trkpt lat="42.87525810156512" lon="-2.1192274165128384">
<ele>896</ele>
<time>2014-09-28T17:15:54Z</time>
</trkpt>
<trkpt lat="42.87524831930035" lon="-2.1192658427748188">
<ele>895</ele>
<time>2014-09-28T17:15:56Z</time>
</trkpt>
<trkpt lat="42.87523424738784" lon="-2.1193063118869837">
<ele>895</ele>
<time>2014-09-28T17:15:58Z</time>
</trkpt>
<trkpt lat="42.87523993644092" lon="-2.119332213953388">
<ele>895</ele>
<time>2014-09-28T17:16:00Z</time>
</trkpt>
<trkpt lat="42.87524500298787" lon="-2.119372758036376">
<ele>894</ele>
<time>2014-09-28T17:16:02Z</time>
</trkpt>
<trkpt lat="42.87524196156993" lon="-2.1194035121222727">
<ele>894</ele>
<time>2014-09-28T17:16:04Z</time>
</trkpt>
<trkpt lat="42.8752376059283" lon="-2.1194275827775857">
<ele>894</ele>
<time>2014-09-28T17:16:06Z</time>
</trkpt>
<trkpt lat="42.87522631333613" lon="-2.1194741452784136">
<ele>894</ele>
<time>2014-09-28T17:16:08Z</time>
</trkpt>
<trkpt lat="42.875214900326434" lon="-2.119510266121566">
<ele>894</ele>
<time>2014-09-28T17:16:10Z</time>
</trkpt>
<trkpt lat="42.87518840859156" lon="-2.119558577178169">
<ele>894</ele>
<time>2014-09-28T17:16:12Z</time>
</trkpt>
<trkpt lat="42.875192915495" lon="-2.119590179756099">
<ele>893</ele>
<time>2014-09-28T17:16:14Z</time>
</trkpt>
<trkpt lat="42.87520338992511" lon="-2.1196210722683113">
<ele>893</ele>
<time>2014-09-28T17:16:16Z</time>
</trkpt>
<trkpt lat="42.87521163630935" lon="-2.1196519042134345">
<ele>893</ele>
<time>2014-09-28T17:16:18Z</time>
</trkpt>
<trkpt lat="42.875214211899994" lon="-2.1196869783558507">
<ele>893</ele>
<time>2014-09-28T17:16:20Z</time>
</trkpt>
<trkpt lat="42.875213829357335" lon="-2.1197107207347186">
<ele>892</ele>
<time>2014-09-28T17:16:22Z</time>
</trkpt>
<trkpt lat="42.875210714129096" lon="-2.1197367743637057">
<ele>892</ele>
<time>2014-09-28T17:16:24Z</time>
</trkpt>
<trkpt lat="42.875208348179456" lon="-2.119749129413595">
<ele>892</ele>
<time>2014-09-28T17:16:26Z</time>
</trkpt>
<trkpt lat="42.875204370561995" lon="-2.119763438890427">
<ele>892</ele>
<time>2014-09-28T17:16:28Z</time>
</trkpt>
<trkpt lat="42.8752047426044" lon="-2.1197762339779813">
<ele>892</ele>
<time>2014-09-28T17:16:30Z</time>
</trkpt>
<trkpt lat="42.875202725307396" lon="-2.1198011133920063">
<ele>891</ele>
<time>2014-09-28T17:16:32Z</time>
</trkpt>
<trkpt lat="42.87520570593018" lon="-2.1198348004803296">
<ele>891</ele>
<time>2014-09-28T17:16:34Z</time>
</trkpt>
<trkpt lat="42.875215039760576" lon="-2.119850664218954">
<ele>890</ele>
<time>2014-09-28T17:16:36Z</time>
</trkpt>
<trkpt lat="42.87522307557042" lon="-2.119867442175317">
<ele>890</ele>
<time>2014-09-28T17:16:38Z</time>
</trkpt>
<trkpt lat="42.875228013135306" lon="-2.1198856971059987">
<ele>890</ele>
<time>2014-09-28T17:16:40Z</time>
</trkpt>
<trkpt lat="42.87523389904914" lon="-2.1199093330578602">
<ele>890</ele>
<time>2014-09-28T17:16:42Z</time>
</trkpt>
<trkpt lat="42.87524066976887" lon="-2.11991794725871">
<ele>889</ele>
<time>2014-09-28T17:16:44Z</time>
</trkpt>
<trkpt lat="42.87525147335218" lon="-2.119919781845071">
<ele>889</ele>
<time>2014-09-28T17:16:46Z</time>
</trkpt>
<trkpt lat="42.875263508991" lon="-2.1199367954904753">
<ele>889</ele>
<time>2014-09-28T17:16:48Z</time>
</trkpt>
<trkpt lat="42.87527472011131" lon="-2.119960624912537">
<ele>888</ele>
<time>2014-09-28T17:16:50Z</time>
</trkpt>
<trkpt lat="42.875289959219586" lon="-2.1199849265615827">
<ele>888</ele>
<time>2014-09-28T17:16:52Z</time>
</trkpt>
<trkpt lat="42.87529830175428" lon="-2.120013590078208">
<ele>888</ele>
<time>2014-09-28T17:16:54Z</time>
</trkpt>
<trkpt lat="42.87530561196284" lon="-2.1200356871294175">
<ele>888</ele>
<time>2014-09-28T17:16:56Z</time>
</trkpt>
<trkpt lat="42.8753103809172" lon="-2.1200496446437174">
<ele>887</ele>
<time>2014-09-28T17:16:58Z</time>
</trkpt>
<trkpt lat="42.87531684969554" lon="-2.1200621567478057">
<ele>887</ele>
<time>2014-09-28T17:17:00Z</time>
</trkpt>
<trkpt lat="42.87532782210981" lon="-2.1200843309741724">
<ele>887</ele>
<time>2014-09-28T17:17:02Z</time>
</trkpt>
<trkpt lat="42.875339306096805" lon="-2.1200909260184724">
<ele>886</ele>
<time>2014-09-28T17:17:04Z</time>
</trkpt>
<trkpt lat="42.8753526587377" lon="-2.120105095274094">
<ele>886</ele>
<time>2014-09-28T17:17:06Z</time>
</trkpt>
<trkpt lat="42.875365474488284" lon="-2.120118046063425">
<ele>885</ele>
<time>2014-09-28T17:17:08Z</time>
</trkpt>
<trkpt lat="42.875382819896565" lon="-2.120140281235203">
<ele>885</ele>
<time>2014-09-28T17:17:10Z</time>
</trkpt>
<trkpt lat="42.87539124612185" lon="-2.120147902112399">
<ele>885</ele>
<time>2014-09-28T17:17:12Z</time>
</trkpt>
<trkpt lat="42.875387543877586" lon="-2.1201445390848104">
<ele>885</ele>
<time>2014-09-28T17:17:14Z</time>
</trkpt>
<trkpt lat="42.87538534887204" lon="-2.1201426918543613">
<ele>885</ele>
<time>2014-09-28T17:17:16Z</time>
</trkpt>
<trkpt lat="42.87538790613586" lon="-2.1201462778523057">
<ele>884</ele>
<time>2014-09-28T17:17:18Z</time>
</trkpt>
<trkpt lat="42.87538982750392" lon="-2.1201478369856015">
<ele>884</ele>
<time>2014-09-28T17:17:20Z</time>
</trkpt>
<trkpt lat="42.87539414629389" lon="-2.120158954690627">
<ele>884</ele>
<time>2014-09-28T17:17:22Z</time>
</trkpt>
<trkpt lat="42.87539971629447" lon="-2.12016964956484">
<ele>884</ele>
<time>2014-09-28T17:17:24Z</time>
</trkpt>
<trkpt lat="42.87540431975503" lon="-2.120172441785806">
<ele>884</ele>
<time>2014-09-28T17:17:26Z</time>
</trkpt>
<trkpt lat="42.875408539545305" lon="-2.1201930674235707">
<ele>883</ele>
<time>2014-09-28T17:17:28Z</time>
</trkpt>
<trkpt lat="42.8754085104789" lon="-2.1202078289738107">
<ele>883</ele>
<time>2014-09-28T17:17:30Z</time>
</trkpt>
<trkpt lat="42.87541539732681" lon="-2.120217000695052">
<ele>883</ele>
<time>2014-09-28T17:17:32Z</time>
</trkpt>
<trkpt lat="42.875417106506056" lon="-2.1202181130542503">
<ele>883</ele>
<time>2014-09-28T17:17:34Z</time>
</trkpt>
<trkpt lat="42.87541862245617" lon="-2.120226635484974">
<ele>882</ele>
<time>2014-09-28T17:17:36Z</time>
</trkpt>
<trkpt lat="42.875424774203246" lon="-2.1202401950900955">
<ele>882</ele>
<time>2014-09-28T17:17:38Z</time>
</trkpt>
<trkpt lat="42.87543681535203" lon="-2.120259886376353">
<ele>881</ele>
<time>2014-09-28T17:17:40Z</time>
</trkpt>
<trkpt lat="42.875453031423156" lon="-2.1202794995690195">
<ele>881</ele>
<time>2014-09-28T17:17:42Z</time>
</trkpt>
<trkpt lat="42.87546855510021" lon="-2.1203024984538974">
<ele>880</ele>
<time>2014-09-28T17:17:44Z</time>
</trkpt>
<trkpt lat="42.8754855799876" lon="-2.1203150962203874">
<ele>880</ele>
<time>2014-09-28T17:17:46Z</time>
</trkpt>
<trkpt lat="42.87549786378129" lon="-2.1203269215999896">
<ele>879</ele>
<time>2014-09-28T17:17:48Z</time>
</trkpt>
<trkpt lat="42.875513252161454" lon="-2.1203612719469764">
<ele>879</ele>
<time>2014-09-28T17:17:50Z</time>
</trkpt>
<trkpt lat="42.87553072087828" lon="-2.1204099404039276">
<ele>879</ele>
<time>2014-09-28T17:17:52Z</time>
</trkpt>
<trkpt lat="42.875548734692785" lon="-2.120449567510646">
<ele>878</ele>
<time>2014-09-28T17:17:54Z</time>
</trkpt>
<trkpt lat="42.87555355052833" lon="-2.1204632857395067">
<ele>878</ele>
<time>2014-09-28T17:17:56Z</time>
</trkpt>
<trkpt lat="42.87557267466911" lon="-2.120495265325926">
<ele>878</ele>
<time>2014-09-28T17:17:58Z</time>
</trkpt>
<trkpt lat="42.87557776217436" lon="-2.1205309043497733">
<ele>877</ele>
<time>2014-09-28T17:18:00Z</time>
</trkpt>
<trkpt lat="42.87558177260918" lon="-2.120574552424662">
<ele>877</ele>
<time>2014-09-28T17:18:02Z</time>
</trkpt>
<trkpt lat="42.87558933131689" lon="-2.1205831455732413">
<ele>877</ele>
<time>2014-09-28T17:18:04Z</time>
</trkpt>
<trkpt lat="42.87559484754662" lon="-2.120582474991923">
<ele>876</ele>
<time>2014-09-28T17:18:06Z</time>
</trkpt>
<trkpt lat="42.875599660260754" lon="-2.12058265839808">
<ele>876</ele>
<time>2014-09-28T17:18:08Z</time>
</trkpt>
<trkpt lat="42.8755947891816" lon="-2.1205865314706704">
<ele>876</ele>
<time>2014-09-28T17:18:10Z</time>
</trkpt>
<trkpt lat="42.875590214152645" lon="-2.120592431692011">
<ele>875</ele>
<time>2014-09-28T17:18:12Z</time>
</trkpt>
<trkpt lat="42.87559136068187" lon="-2.1205869824018633">
<ele>875</ele>
<time>2014-09-28T17:18:14Z</time>
</trkpt>
<trkpt lat="42.87559276882777" lon="-2.120573032891721">
<ele>875</ele>
<time>2014-09-28T17:18:16Z</time>
</trkpt>
<trkpt lat="42.875599853641155" lon="-2.1205570997794267">
<ele>874</ele>
<time>2014-09-28T17:18:18Z</time>
</trkpt>
<trkpt lat="42.87560864758978" lon="-2.1205430920983135">
<ele>873</ele>
<time>2014-09-28T17:18:20Z</time>
</trkpt>
<trkpt lat="42.87561382739576" lon="-2.12051338605154">
<ele>872</ele>
<time>2014-09-28T17:18:22Z</time>
</trkpt>
<trkpt lat="42.875618667415615" lon="-2.120494182057898">
<ele>872</ele>
<time>2014-09-28T17:18:24Z</time>
</trkpt>
<trkpt lat="42.87562596984586" lon="-2.1204831132583877">
<ele>871</ele>
<time>2014-09-28T17:18:26Z</time>
</trkpt>
<trkpt lat="42.875636124473715" lon="-2.1204723936151244">
<ele>870</ele>
<time>2014-09-28T17:18:28Z</time>
</trkpt>
<trkpt lat="42.87563812343385" lon="-2.1204460612392073">
<ele>869</ele>
<time>2014-09-28T17:18:30Z</time>
</trkpt>
<trkpt lat="42.8756346877519" lon="-2.120420151069471">
<ele>868</ele>
<time>2014-09-28T17:18:32Z</time>
</trkpt>
<trkpt lat="42.87563295904721" lon="-2.1203985836996755">
<ele>867</ele>
<time>2014-09-28T17:18:34Z</time>
</trkpt>
<trkpt lat="42.87563004668081" lon="-2.120371529133701">
<ele>867</ele>
<time>2014-09-28T17:18:36Z</time>
</trkpt>
<trkpt lat="42.87563168951893" lon="-2.1203396824347025">
<ele>866</ele>
<time>2014-09-28T17:18:38Z</time>
</trkpt>
<trkpt lat="42.875638816234016" lon="-2.120297241342092">
<ele>866</ele>
<time>2014-09-28T17:18:40Z</time>
</trkpt>
<trkpt lat="42.87565511555005" lon="-2.1202395033018546">
<ele>865</ele>
<time>2014-09-28T17:18:42Z</time>
</trkpt>
<trkpt lat="42.87568186716804" lon="-2.1202058022995134">
<ele>864</ele>
<time>2014-09-28T17:18:44Z</time>
</trkpt>
<trkpt lat="42.87569184787159" lon="-2.1202027148452687">
<ele>863</ele>
<time>2014-09-28T17:18:46Z</time>
</trkpt>
<trkpt lat="42.875695284524355" lon="-2.1202022708518022">
<ele>863</ele>
<time>2014-09-28T17:18:48Z</time>
</trkpt>
<trkpt lat="42.87569324505742" lon="-2.1201990221072085">
<ele>862</ele>
<time>2014-09-28T17:18:50Z</time>
</trkpt>
<trkpt lat="42.87569209712737" lon="-2.1201990271497526">
<ele>862</ele>
<time>2014-09-28T17:18:52Z</time>
</trkpt>
<trkpt lat="42.87569007504029" lon="-2.120196065619811">
<ele>862</ele>
<time>2014-09-28T17:18:54Z</time>
</trkpt>
<trkpt lat="42.87568374269406" lon="-2.1201965381561845">
<ele>861</ele>
<time>2014-09-28T17:18:56Z</time>
</trkpt>
<trkpt lat="42.87568018150714" lon="-2.120195797470034">
<ele>861</ele>
<time>2014-09-28T17:18:58Z</time>
</trkpt>
<trkpt lat="42.875679945579286" lon="-2.1201901088242323">
<ele>861</ele>
<time>2014-09-28T17:19:00Z</time>
</trkpt>
<trkpt lat="42.875678858592" lon="-2.1201860428840544">
<ele>861</ele>
<time>2014-09-28T17:19:02Z</time>
</trkpt>
<trkpt lat="42.87567488437472" lon="-2.120184179039145">
<ele>861</ele>
<time>2014-09-28T17:19:04Z</time>
</trkpt>
<trkpt lat="42.87566711073632" lon="-2.1201857644392064">
<ele>861</ele>
<time>2014-09-28T17:19:06Z</time>
</trkpt>
<trkpt lat="42.87567012508428" lon="-2.1201910875963685">
<ele>859</ele>
<time>2014-09-28T17:19:08Z</time>
</trkpt>
<trkpt lat="42.87567676831855" lon="-2.1202114558516296">
<ele>858</ele>
<time>2014-09-28T17:19:10Z</time>
</trkpt>
<trkpt lat="42.87569081253925" lon="-2.1202252483431527">
<ele>857</ele>
<time>2014-09-28T17:19:12Z</time>
</trkpt>
<trkpt lat="42.87571898595877" lon="-2.1202727042071774">
<ele>856</ele>
<time>2014-09-28T17:19:14Z</time>
</trkpt>
<trkpt lat="42.87572870151525" lon="-2.1203101765192467">
<ele>856</ele>
<time>2014-09-28T17:19:16Z</time>
</trkpt>
<trkpt lat="42.87573777148992" lon="-2.1203545197297498">
<ele>855</ele>
<time>2014-09-28T17:19:18Z</time>
</trkpt>
<trkpt lat="42.875742506806" lon="-2.120388733517744">
<ele>855</ele>
<time>2014-09-28T17:19:20Z</time>
</trkpt>
<trkpt lat="42.87574324047049" lon="-2.1204319023452767">
<ele>854</ele>
<time>2014-09-28T17:19:22Z</time>
</trkpt>
<trkpt lat="42.87574027850295" lon="-2.120473989473354">
<ele>854</ele>
<time>2014-09-28T17:19:24Z</time>
</trkpt>
<trkpt lat="42.875748323018" lon="-2.1205147263880075">
<ele>853</ele>
<time>2014-09-28T17:19:26Z</time>
</trkpt>
<trkpt lat="42.875767189321344" lon="-2.120557957268418">
<ele>853</ele>
<time>2014-09-28T17:19:28Z</time>
</trkpt>
<trkpt lat="42.875787204277636" lon="-2.1205846232579906">
<ele>852</ele>
<time>2014-09-28T17:19:30Z</time>
</trkpt>
<trkpt lat="42.87579820948702" lon="-2.1206127692450103">
<ele>852</ele>
<time>2014-09-28T17:19:32Z</time>
</trkpt>
<trkpt lat="42.87580191855036" lon="-2.120631132827007">
<ele>851</ele>
<time>2014-09-28T17:19:34Z</time>
</trkpt>
<trkpt lat="42.87579997723838" lon="-2.120646066315503">
<ele>851</ele>
<time>2014-09-28T17:19:36Z</time>
</trkpt>
<trkpt lat="42.87579710995547" lon="-2.1206678272260495">
<ele>851</ele>
<time>2014-09-28T17:19:38Z</time>
</trkpt>
<trkpt lat="42.87579695054055" lon="-2.1206850790242546">
<ele>850</ele>
<time>2014-09-28T17:19:40Z</time>
</trkpt>
<trkpt lat="42.87579815130507" lon="-2.1207107655676407">
<ele>850</ele>
<time>2014-09-28T17:19:42Z</time>
</trkpt>
<trkpt lat="42.875800347735506" lon="-2.1207324486460517">
<ele>850</ele>
<time>2014-09-28T17:19:44Z</time>
</trkpt>
<trkpt lat="42.87579986328256" lon="-2.1207415438505546">
<ele>850</ele>
<time>2014-09-28T17:19:46Z</time>
</trkpt>
<trkpt lat="42.875802374170306" lon="-2.120742518522478">
<ele>850</ele>
<time>2014-09-28T17:19:48Z</time>
</trkpt>
<trkpt lat="42.87579990418307" lon="-2.1207500669804893">
<ele>850</ele>
<time>2014-09-28T17:19:50Z</time>
</trkpt>
<trkpt lat="42.8757863620977" lon="-2.1208110188934657">
<ele>849</ele>
<time>2014-09-28T17:19:52Z</time>
</trkpt>
<trkpt lat="42.87577818351854" lon="-2.120864726003615">
<ele>849</ele>
<time>2014-09-28T17:19:54Z</time>
</trkpt>
<trkpt lat="42.87577039394704" lon="-2.1209311641445914">
<ele>849</ele>
<time>2014-09-28T17:19:56Z</time>
</trkpt>
<trkpt lat="42.87577518189162" lon="-2.120976358683967">
<ele>849</ele>
<time>2014-09-28T17:19:58Z</time>
</trkpt>
<trkpt lat="42.8757877287467" lon="-2.1210193075477086">
<ele>848</ele>
<time>2014-09-28T17:20:00Z</time>
</trkpt>
<trkpt lat="42.875803043448514" lon="-2.1210272638200647">
<ele>848</ele>
<time>2014-09-28T17:20:02Z</time>
</trkpt>
<trkpt lat="42.8758177714154" lon="-2.121015491710859">
<ele>848</ele>
<time>2014-09-28T17:20:04Z</time>
</trkpt>
<trkpt lat="42.875832856855425" lon="-2.1209999355769162">
<ele>848</ele>
<time>2014-09-28T17:20:06Z</time>
</trkpt>
<trkpt lat="42.87585134143196" lon="-2.1209618279000453">
<ele>847</ele>
<time>2014-09-28T17:20:08Z</time>
</trkpt>
<trkpt lat="42.87585422674686" lon="-2.1209186571035645">
<ele>847</ele>
<time>2014-09-28T17:20:10Z</time>
</trkpt>
<trkpt lat="42.875861083841194" lon="-2.1208965555183563">
<ele>847</ele>
<time>2014-09-28T17:20:12Z</time>
</trkpt>
<trkpt lat="42.875891279432764" lon="-2.120855181994455">
<ele>846</ele>
<time>2014-09-28T17:20:14Z</time>
</trkpt>
<trkpt lat="42.87590332051231" lon="-2.120835127516102">
<ele>846</ele>
<time>2014-09-28T17:20:16Z</time>
</trkpt>
<trkpt lat="42.87591802566116" lon="-2.1208141063492567">
<ele>845</ele>
<time>2014-09-28T17:20:18Z</time>
</trkpt>
<trkpt lat="42.87592778445395" lon="-2.1207841029197843">
<ele>845</ele>
<time>2014-09-28T17:20:20Z</time>
</trkpt>
<trkpt lat="42.87594325862803" lon="-2.1207703554614317">
<ele>844</ele>
<time>2014-09-28T17:20:22Z</time>
</trkpt>
<trkpt lat="42.875971408534895" lon="-2.120749534094166">
<ele>844</ele>
<time>2014-09-28T17:20:24Z</time>
</trkpt>
<trkpt lat="42.87599328483009" lon="-2.1207205052407883">
<ele>843</ele>
<time>2014-09-28T17:20:26Z</time>
</trkpt>
<trkpt lat="42.87601166007504" lon="-2.12070179281005">
<ele>843</ele>
<time>2014-09-28T17:20:28Z</time>
</trkpt>
<trkpt lat="42.876008878326914" lon="-2.120649473363855">
<ele>842</ele>
<time>2014-09-28T17:20:30Z</time>
</trkpt>
<trkpt lat="42.87602835984553" lon="-2.1206327397440785">
<ele>842</ele>
<time>2014-09-28T17:20:32Z</time>
</trkpt>
<trkpt lat="42.87605458055552" lon="-2.1206115752404973">
<ele>841</ele>
<time>2014-09-28T17:20:34Z</time>
</trkpt>
<trkpt lat="42.87609434503127" lon="-2.1205822478515346">
<ele>841</ele>
<time>2014-09-28T17:20:36Z</time>
</trkpt>
<trkpt lat="42.87611621555582" lon="-2.1205706344833866">
<ele>840</ele>
<time>2014-09-28T17:20:38Z</time>
</trkpt>
<trkpt lat="42.876132540587655" lon="-2.120558797827859">
<ele>839</ele>
<time>2014-09-28T17:20:40Z</time>
</trkpt>
<trkpt lat="42.87614590532656" lon="-2.120556120935426">
<ele>839</ele>
<time>2014-09-28T17:20:42Z</time>
</trkpt>
<trkpt lat="42.87615560273449" lon="-2.1205434485086316">
<ele>838</ele>
<time>2014-09-28T17:20:44Z</time>
</trkpt>
<trkpt lat="42.87617003907941" lon="-2.1205185936204005">
<ele>837</ele>
<time>2014-09-28T17:20:46Z</time>
</trkpt>
<trkpt lat="42.87619055884048" lon="-2.1204807592457184">
<ele>836</ele>
<time>2014-09-28T17:20:48Z</time>
</trkpt>
<trkpt lat="42.876213858416044" lon="-2.1204508619713214">
<ele>835</ele>
<time>2014-09-28T17:20:50Z</time>
</trkpt>
<trkpt lat="42.87622818314029" lon="-2.1204634646069045">
<ele>834</ele>
<time>2014-09-28T17:20:52Z</time>
</trkpt>
<trkpt lat="42.87624779858367" lon="-2.1204987741839276">
<ele>833</ele>
<time>2014-09-28T17:20:54Z</time>
</trkpt>
<trkpt lat="42.876256859145315" lon="-2.1205276202062366">
<ele>832</ele>
<time>2014-09-28T17:20:56Z</time>
</trkpt>
<trkpt lat="42.87625609351851" lon="-2.1205321416803957">
<ele>832</ele>
<time>2014-09-28T17:20:58Z</time>
</trkpt>
<trkpt lat="42.876256133241576" lon="-2.120532093930143">
<ele>832</ele>
<time>2014-09-28T17:21:00Z</time>
</trkpt>
<trkpt lat="42.87625562924892" lon="-2.120532935273632">
<ele>832</ele>
<time>2014-09-28T17:21:02Z</time>
</trkpt>
<trkpt lat="42.87625467826514" lon="-2.1205342830688">
<ele>832</ele>
<time>2014-09-28T17:21:04Z</time>
</trkpt>
<trkpt lat="42.87625792282938" lon="-2.12053611269143">
<ele>831</ele>
<time>2014-09-28T17:21:06Z</time>
</trkpt>
<trkpt lat="42.87626489171679" lon="-2.1205413022408455">
<ele>831</ele>
<time>2014-09-28T17:21:08Z</time>
</trkpt>
<trkpt lat="42.876271250618615" lon="-2.1205490764729418">
<ele>831</ele>
<time>2014-09-28T17:21:10Z</time>
</trkpt>
<trkpt lat="42.87627543629158" lon="-2.1205640366984824">
<ele>831</ele>
<time>2014-09-28T17:21:12Z</time>
</trkpt>
<trkpt lat="42.8762765513717" lon="-2.120575020675423">
<ele>831</ele>
<time>2014-09-28T17:21:14Z</time>
</trkpt>
<trkpt lat="42.876286018121135" lon="-2.120578272099537">
<ele>831</ele>
<time>2014-09-28T17:21:16Z</time>
</trkpt>
<trkpt lat="42.87629902439063" lon="-2.120575675183611">
<ele>831</ele>
<time>2014-09-28T17:21:18Z</time>
</trkpt>
<trkpt lat="42.87631007555015" lon="-2.1205767704027654">
<ele>831</ele>
<time>2014-09-28T17:21:20Z</time>
</trkpt>
<trkpt lat="42.87631544891335" lon="-2.1205712935755425">
<ele>831</ele>
<time>2014-09-28T17:21:22Z</time>
</trkpt>
<trkpt lat="42.876323646037854" lon="-2.120569590355657">
<ele>831</ele>
<time>2014-09-28T17:21:24Z</time>
</trkpt>
<trkpt lat="42.87632962063031" lon="-2.1205735691507286">
<ele>831</ele>
<time>2014-09-28T17:21:26Z</time>
</trkpt>
<trkpt lat="42.87633207014366" lon="-2.120580793948621">
<ele>832</ele>
<time>2014-09-28T17:21:28Z</time>
</trkpt>
<trkpt lat="42.87633274816143" lon="-2.1205877048136816">
<ele>832</ele>
<time>2014-09-28T17:21:30Z</time>
</trkpt>
<trkpt lat="42.87633332319611" lon="-2.120587564553666">
<ele>832</ele>
<time>2014-09-28T17:21:32Z</time>
</trkpt>
<trkpt lat="42.87633679287895" lon="-2.1205818557509812">
<ele>832</ele>
<time>2014-09-28T17:21:34Z</time>
</trkpt>
<trkpt lat="42.87633700235115" lon="-2.120578470835007">
<ele>832</ele>
<time>2014-09-28T17:21:36Z</time>
</trkpt>
<trkpt lat="42.87633746420538" lon="-2.120576634450402">
<ele>832</ele>
<time>2014-09-28T17:21:38Z</time>
</trkpt>
<trkpt lat="42.87633833936069" lon="-2.1205763551561416">
<ele>832</ele>
<time>2014-09-28T17:21:40Z</time>
</trkpt>
<trkpt lat="42.87633922473171" lon="-2.1205782136102966">
<ele>832</ele>
<time>2014-09-28T17:21:42Z</time>
</trkpt>
<trkpt lat="42.87634080093943" lon="-2.1205804695572126">
<ele>832</ele>
<time>2014-09-28T17:21:44Z</time>
</trkpt>
<trkpt lat="42.87634095228517" lon="-2.1205813127690827">
<ele>832</ele>
<time>2014-09-28T17:21:46Z</time>
</trkpt>
<trkpt lat="42.8763412644134" lon="-2.120578851403417">
<ele>832</ele>
<time>2014-09-28T17:21:48Z</time>
</trkpt>
<trkpt lat="42.876341973640905" lon="-2.1205760635989273">
<ele>832</ele>
<time>2014-09-28T17:21:50Z</time>
</trkpt>
<trkpt lat="42.87635164111734" lon="-2.1205683052870583">
<ele>833</ele>
<time>2014-09-28T17:21:52Z</time>
</trkpt>
<trkpt lat="42.876352166157325" lon="-2.120557773919158">
<ele>833</ele>
<time>2014-09-28T17:21:54Z</time>
</trkpt>
<trkpt lat="42.87635715023611" lon="-2.120544955942584">
<ele>833</ele>
<time>2014-09-28T17:21:56Z</time>
</trkpt>
<trkpt lat="42.876363546734986" lon="-2.120539856412419">
<ele>833</ele>
<time>2014-09-28T17:21:58Z</time>
</trkpt>
<trkpt lat="42.87636750214448" lon="-2.1205329824046175">
<ele>833</ele>
<time>2014-09-28T17:22:00Z</time>
</trkpt>
<trkpt lat="42.87637564752341" lon="-2.1205298809335447">
<ele>833</ele>
<time>2014-09-28T17:22:02Z</time>
</trkpt>
<trkpt lat="42.876381282415245" lon="-2.1205257350951014">
<ele>833</ele>
<time>2014-09-28T17:22:04Z</time>
</trkpt>
<trkpt lat="42.87638900068369" lon="-2.1205144798915527">
<ele>833</ele>
<time>2014-09-28T17:22:06Z</time>
</trkpt>
<trkpt lat="42.87640092790341" lon="-2.1205078567284033">
<ele>833</ele>
<time>2014-09-28T17:22:08Z</time>
</trkpt>
<trkpt lat="42.876406780874085" lon="-2.1205017545867877">
<ele>834</ele>
<time>2014-09-28T17:22:10Z</time>
</trkpt>
<trkpt lat="42.87640806297783" lon="-2.1204952201605693">
<ele>834</ele>
<time>2014-09-28T17:22:13Z</time>
</trkpt>
<trkpt lat="42.87640089082232" lon="-2.1204799504865806">
<ele>834</ele>
<time>2014-09-28T17:22:15Z</time>
</trkpt>
<trkpt lat="42.876396784712995" lon="-2.1204724265622925">
<ele>834</ele>
<time>2014-09-28T17:22:17Z</time>
</trkpt>
<trkpt lat="42.87639859443861" lon="-2.1204770237053308">
<ele>835</ele>
<time>2014-09-28T17:22:19Z</time>
</trkpt>
<trkpt lat="42.87640177346705" lon="-2.1204871932229277">
<ele>836</ele>
<time>2014-09-28T17:22:21Z</time>
</trkpt>
<trkpt lat="42.87640487965851" lon="-2.1205061087027666">
<ele>836</ele>
<time>2014-09-28T17:22:23Z</time>
</trkpt>
<trkpt lat="42.87640907951603" lon="-2.1205303927132437">
<ele>836</ele>
<time>2014-09-28T17:22:25Z</time>
</trkpt>
<trkpt lat="42.876410936625206" lon="-2.120554278495852">
<ele>837</ele>
<time>2014-09-28T17:22:27Z</time>
</trkpt>
<trkpt lat="42.8764165603548" lon="-2.1205813216059957">
<ele>837</ele>
<time>2014-09-28T17:22:29Z</time>
</trkpt>
<trkpt lat="42.87641652092873" lon="-2.120613362198446">
<ele>837</ele>
<time>2014-09-28T17:22:31Z</time>
</trkpt>
<trkpt lat="42.87641948946733" lon="-2.1206494667245326">
<ele>837</ele>
<time>2014-09-28T17:22:33Z</time>
</trkpt>
<trkpt lat="42.87641040217592" lon="-2.1207198148615665">
<ele>836</ele>
<time>2014-09-28T17:22:35Z</time>
</trkpt>
<trkpt lat="42.876405198331064" lon="-2.120749159967346">
<ele>835</ele>
<time>2014-09-28T17:22:37Z</time>
</trkpt>
<trkpt lat="42.87639688672428" lon="-2.1207681767371374">
<ele>835</ele>
<time>2014-09-28T17:22:39Z</time>
</trkpt>
<trkpt lat="42.876391998038805" lon="-2.1207764744072843">
<ele>835</ele>
<time>2014-09-28T17:22:41Z</time>
</trkpt>
<trkpt lat="42.876388002441196" lon="-2.1207951199283133">
<ele>834</ele>
<time>2014-09-28T17:22:43Z</time>
</trkpt>
<trkpt lat="42.87639342315849" lon="-2.120806614445485">
<ele>833</ele>
<time>2014-09-28T17:22:45Z</time>
</trkpt>
<trkpt lat="42.87641298557794" lon="-2.1208541160179966">
<ele>833</ele>
<time>2014-09-28T17:22:47Z</time>
</trkpt>
<trkpt lat="42.876423354372434" lon="-2.1209041008115124">
<ele>832</ele>
<time>2014-09-28T17:22:49Z</time>
</trkpt>
<trkpt lat="42.876436517745745" lon="-2.1209488159156944">
<ele>831</ele>
<time>2014-09-28T17:22:51Z</time>
</trkpt>
<trkpt lat="42.87644485727556" lon="-2.1210076248533154">
<ele>830</ele>
<time>2014-09-28T17:22:53Z</time>
</trkpt>
<trkpt lat="42.876461924773594" lon="-2.1210549085455597">
<ele>830</ele>
<time>2014-09-28T17:22:55Z</time>
</trkpt>
<trkpt lat="42.87647438226026" lon="-2.1210941362248423">
<ele>829</ele>
<time>2014-09-28T17:22:57Z</time>
</trkpt>
<trkpt lat="42.87648226036935" lon="-2.1211181332722395">
<ele>829</ele>
<time>2014-09-28T17:22:59Z</time>
</trkpt>
<trkpt lat="42.8764972795872" lon="-2.1211489055255353">
<ele>828</ele>
<time>2014-09-28T17:23:01Z</time>
</trkpt>
<trkpt lat="42.87651207143635" lon="-2.1211768246455875">
<ele>827</ele>
<time>2014-09-28T17:23:03Z</time>
</trkpt>
<trkpt lat="42.87652502839028" lon="-2.121196326738257">
<ele>827</ele>
<time>2014-09-28T17:23:05Z</time>
</trkpt>
<trkpt lat="42.87653499106699" lon="-2.1212410995482336">
<ele>826</ele>
<time>2014-09-28T17:23:07Z</time>
</trkpt>
<trkpt lat="42.876541104458035" lon="-2.121266425597549">
<ele>826</ele>
<time>2014-09-28T17:23:09Z</time>
</trkpt>
<trkpt lat="42.87654301348813" lon="-2.1212786848186727">
<ele>825</ele>
<time>2014-09-28T17:23:11Z</time>
</trkpt>
<trkpt lat="42.87654254982832" lon="-2.1213046638299975">
<ele>825</ele>
<time>2014-09-28T17:23:13Z</time>
</trkpt>
<trkpt lat="42.87655248487785" lon="-2.1213322390031646">
<ele>824</ele>
<time>2014-09-28T17:23:15Z</time>
</trkpt>
<trkpt lat="42.87656146011727" lon="-2.121356003254206">
<ele>823</ele>
<time>2014-09-28T17:23:17Z</time>
</trkpt>
<trkpt lat="42.87655978864502" lon="-2.1213664587943084">
<ele>823</ele>
<time>2014-09-28T17:23:19Z</time>
</trkpt>
<trkpt lat="42.876562317970134" lon="-2.1213806239305675">
<ele>822</ele>
<time>2014-09-28T17:23:21Z</time>
</trkpt>
<trkpt lat="42.87655856693958" lon="-2.1213914160220626">
<ele>821</ele>
<time>2014-09-28T17:23:23Z</time>
</trkpt>
<trkpt lat="42.87654303267392" lon="-2.1213736370415885">
<ele>820</ele>
<time>2014-09-28T17:23:25Z</time>
</trkpt>
<trkpt lat="42.87653208258766" lon="-2.1213689526220056">
<ele>819</ele>
<time>2014-09-28T17:23:27Z</time>
</trkpt>
<trkpt lat="42.87653725611025" lon="-2.1213719566804614">
<ele>819</ele>
<time>2014-09-28T17:23:29Z</time>
</trkpt>
<trkpt lat="42.87655491328661" lon="-2.121382349466267">
<ele>818</ele>
<time>2014-09-28T17:23:31Z</time>
</trkpt>
<trkpt lat="42.876581313799115" lon="-2.121391654084745">
<ele>817</ele>
<time>2014-09-28T17:23:33Z</time>
</trkpt>
<trkpt lat="42.87660398445583" lon="-2.121421518464506">
<ele>817</ele>
<time>2014-09-28T17:23:35Z</time>
</trkpt>
<trkpt lat="42.8766118774836" lon="-2.1214413302808133">
<ele>816</ele>
<time>2014-09-28T17:23:37Z</time>
</trkpt>
<trkpt lat="42.87663947890205" lon="-2.1214726582781034">
<ele>816</ele>
<time>2014-09-28T17:23:39Z</time>
</trkpt>
<trkpt lat="42.876664312083484" lon="-2.121521297853974">
<ele>815</ele>
<time>2014-09-28T17:23:41Z</time>
</trkpt>
<trkpt lat="42.87667672241884" lon="-2.1215579773799536">
<ele>815</ele>
<time>2014-09-28T17:23:43Z</time>
</trkpt>
<trkpt lat="42.87668790009419" lon="-2.1215741793449165">
<ele>815</ele>
<time>2014-09-28T17:23:45Z</time>
</trkpt>
<trkpt lat="42.87670111751831" lon="-2.121596296526943">
<ele>814</ele>
<time>2014-09-28T17:23:47Z</time>
</trkpt>
<trkpt lat="42.87671472213663" lon="-2.1216214126352946">
<ele>814</ele>
<time>2014-09-28T17:23:49Z</time>
</trkpt>
<trkpt lat="42.87673043689454" lon="-2.1216339443419727">
<ele>814</ele>
<time>2014-09-28T17:23:51Z</time>
</trkpt>
<trkpt lat="42.876746646773746" lon="-2.121648492981176">
<ele>813</ele>
<time>2014-09-28T17:23:53Z</time>
</trkpt>
<trkpt lat="42.876770435866696" lon="-2.1216684205967966">
<ele>813</ele>
<time>2014-09-28T17:23:55Z</time>
</trkpt>
<trkpt lat="42.87679703302973" lon="-2.121721447161061">
<ele>813</ele>
<time>2014-09-28T17:23:57Z</time>
</trkpt>
<trkpt lat="42.876807330643565" lon="-2.1217434929721164">
<ele>812</ele>
<time>2014-09-28T17:23:59Z</time>
</trkpt>
<trkpt lat="42.87681125186328" lon="-2.121745077877125">
<ele>812</ele>
<time>2014-09-28T17:24:01Z</time>
</trkpt>
<trkpt lat="42.876839961683864" lon="-2.121778609770478">
<ele>812</ele>
<time>2014-09-28T17:24:03Z</time>
</trkpt>
<trkpt lat="42.87685067318937" lon="-2.121783800153428">
<ele>811</ele>
<time>2014-09-28T17:24:05Z</time>
</trkpt>
<trkpt lat="42.876853060258725" lon="-2.1217844837791016">
<ele>811</ele>
<time>2014-09-28T17:24:07Z</time>
</trkpt>
<trkpt lat="42.87686392513817" lon="-2.1217968320455713">
<ele>811</ele>
<time>2014-09-28T17:24:09Z</time>
</trkpt>
<trkpt lat="42.87687828534946" lon="-2.121821515742635">
<ele>810</ele>
<time>2014-09-28T17:24:11Z</time>
</trkpt>
<trkpt lat="42.876900226392195" lon="-2.1218597668548655">
<ele>810</ele>
<time>2014-09-28T17:24:13Z</time>
</trkpt>
<trkpt lat="42.87691998209988" lon="-2.121911545791567">
<ele>810</ele>
<time>2014-09-28T17:24:15Z</time>
</trkpt>
<trkpt lat="42.87693142646874" lon="-2.121928023985537">
<ele>809</ele>
<time>2014-09-28T17:24:17Z</time>
</trkpt>
<trkpt lat="42.8769458836759" lon="-2.1219488939596145">
<ele>808</ele>
<time>2014-09-28T17:24:19Z</time>
</trkpt>
<trkpt lat="42.876962466893445" lon="-2.1219771075465674">
<ele>808</ele>
<time>2014-09-28T17:24:21Z</time>
</trkpt>
<trkpt lat="42.87698003683558" lon="-2.1220087534841516">
<ele>807</ele>
<time>2014-09-28T17:24:23Z</time>
</trkpt>
<trkpt lat="42.87700476783623" lon="-2.1220540461111934">
<ele>806</ele>
<time>2014-09-28T17:24:25Z</time>
</trkpt>
<trkpt lat="42.877024943221265" lon="-2.1220934763918873">
<ele>806</ele>
<time>2014-09-28T17:24:27Z</time>
</trkpt>
<trkpt lat="42.87703694480772" lon="-2.1221189241304104">
<ele>805</ele>
<time>2014-09-28T17:24:29Z</time>
</trkpt>
<trkpt lat="42.87705793652956" lon="-2.1221343115449307">
<ele>804</ele>
<time>2014-09-28T17:24:31Z</time>
</trkpt>
<trkpt lat="42.87707963595576" lon="-2.122145763792516">
<ele>803</ele>
<time>2014-09-28T17:24:33Z</time>
</trkpt>
<trkpt lat="42.87710814568356" lon="-2.1221536864179393">
<ele>803</ele>
<time>2014-09-28T17:24:35Z</time>
</trkpt>
<trkpt lat="42.87713825303431" lon="-2.1221667150809873">
<ele>802</ele>
<time>2014-09-28T17:24:37Z</time>
</trkpt>
<trkpt lat="42.877172289917546" lon="-2.122189683763278">
<ele>801</ele>
<time>2014-09-28T17:24:39Z</time>
</trkpt>
<trkpt lat="42.87719845317282" lon="-2.1222102265017666">
<ele>801</ele>
<time>2014-09-28T17:24:41Z</time>
</trkpt>
<trkpt lat="42.87721425362051" lon="-2.1222285318095158">
<ele>800</ele>
<time>2014-09-28T17:24:43Z</time>
</trkpt>
<trkpt lat="42.87723019959664" lon="-2.1222393383799263">
<ele>800</ele>
<time>2014-09-28T17:24:45Z</time>
</trkpt>
<trkpt lat="42.8772435644323" lon="-2.122268918614363">
<ele>800</ele>
<time>2014-09-28T17:24:47Z</time>
</trkpt>
<trkpt lat="42.877267017375665" lon="-2.122310685504878">
<ele>799</ele>
<time>2014-09-28T17:24:49Z</time>
</trkpt>
<trkpt lat="42.877268340020265" lon="-2.122339113014071">
<ele>798</ele>
<time>2014-09-28T17:24:51Z</time>
</trkpt>
<trkpt lat="42.87727819224829" lon="-2.122370725480391">
<ele>798</ele>
<time>2014-09-28T17:24:53Z</time>
</trkpt>
<trkpt lat="42.87729104728406" lon="-2.1223996263280194">
<ele>797</ele>
<time>2014-09-28T17:24:55Z</time>
</trkpt>
<trkpt lat="42.877298960448655" lon="-2.1224370248099373">
<ele>796</ele>
<time>2014-09-28T17:24:57Z</time>
</trkpt>
<trkpt lat="42.87730837266941" lon="-2.1224975396901242">
<ele>796</ele>
<time>2014-09-28T17:24:59Z</time>
</trkpt>
<trkpt lat="42.877325428792226" lon="-2.1225250252839665">
<ele>795</ele>
<time>2014-09-28T17:25:01Z</time>
</trkpt>
<trkpt lat="42.877356105441045" lon="-2.1225565142377323">
<ele>795</ele>
<time>2014-09-28T17:25:03Z</time>
</trkpt>
<trkpt lat="42.877389502812946" lon="-2.122590001590376">
<ele>794</ele>
<time>2014-09-28T17:25:05Z</time>
</trkpt>
<trkpt lat="42.87741284274581" lon="-2.1226202344414484">
<ele>794</ele>
<time>2014-09-28T17:25:07Z</time>
</trkpt>
<trkpt lat="42.87742372913045" lon="-2.122644260316838">
<ele>793</ele>
<time>2014-09-28T17:25:09Z</time>
</trkpt>
<trkpt lat="42.8774404071343" lon="-2.1226568970071646">
<ele>793</ele>
<time>2014-09-28T17:25:11Z</time>
</trkpt>
<trkpt lat="42.87745950451745" lon="-2.1226647939397165">
<ele>792</ele>
<time>2014-09-28T17:25:13Z</time>
</trkpt>
<trkpt lat="42.8774799166213" lon="-2.1226814671303664">
<ele>791</ele>
<time>2014-09-28T17:25:15Z</time>
</trkpt>
<trkpt lat="42.877505516591434" lon="-2.1227078924767824">
<ele>791</ele>
<time>2014-09-28T17:25:17Z</time>
</trkpt>
<trkpt lat="42.87752186358721" lon="-2.1227393539228916">
<ele>790</ele>
<time>2014-09-28T17:25:19Z</time>
</trkpt>
<trkpt lat="42.87752771751557" lon="-2.122817007726415">
<ele>790</ele>
<time>2014-09-28T17:25:21Z</time>
</trkpt>
<trkpt lat="42.87753498546171" lon="-2.1228760341002038">
<ele>789</ele>
<time>2014-09-28T17:25:23Z</time>
</trkpt>
<trkpt lat="42.877541200435026" lon="-2.122930734754074">
<ele>789</ele>
<time>2014-09-28T17:25:25Z</time>
</trkpt>
<trkpt lat="42.877541679984404" lon="-2.1229645264588357">
<ele>788</ele>
<time>2014-09-28T17:25:27Z</time>
</trkpt>
<trkpt lat="42.877550851352424" lon="-2.1229819281174853">
<ele>787</ele>
<time>2014-09-28T17:25:29Z</time>
</trkpt>
<trkpt lat="42.87755998404892" lon="-2.122985017989171">
<ele>787</ele>
<time>2014-09-28T17:25:31Z</time>
</trkpt>
<trkpt lat="42.877571596742655" lon="-2.1230047584664127">
<ele>786</ele>
<time>2014-09-28T17:25:33Z</time>
</trkpt>
<trkpt lat="42.87759541364429" lon="-2.123032298613455">
<ele>786</ele>
<time>2014-09-28T17:25:35Z</time>
</trkpt>
<trkpt lat="42.87762326045184" lon="-2.1230581661546664">
<ele>785</ele>
<time>2014-09-28T17:25:37Z</time>
</trkpt>
<trkpt lat="42.8776571792256" lon="-2.1230896945911066">
<ele>785</ele>
<time>2014-09-28T17:25:39Z</time>
</trkpt>
<trkpt lat="42.87768515254969" lon="-2.1231292494753147">
<ele>784</ele>
<time>2014-09-28T17:25:41Z</time>
</trkpt>
<trkpt lat="42.87769598738578" lon="-2.1231449959041915">
<ele>784</ele>
<time>2014-09-28T17:25:43Z</time>
</trkpt>
<trkpt lat="42.87771626005936" lon="-2.1231680949488134">
<ele>784</ele>
<time>2014-09-28T17:25:45Z</time>
</trkpt>
<trkpt lat="42.877740162886475" lon="-2.1231873205922596">
<ele>783</ele>
<time>2014-09-28T17:25:47Z</time>
</trkpt>
<trkpt lat="42.8777598961052" lon="-2.123202663520586">
<ele>783</ele>
<time>2014-09-28T17:25:49Z</time>
</trkpt>
<trkpt lat="42.8777703597135" lon="-2.1232044312927547">
<ele>782</ele>
<time>2014-09-28T17:25:51Z</time>
</trkpt>
<trkpt lat="42.87778472301308" lon="-2.1232207897883426">
<ele>781</ele>
<time>2014-09-28T17:25:53Z</time>
</trkpt>
<trkpt lat="42.8778069719041" lon="-2.123245013714129">
<ele>781</ele>
<time>2014-09-28T17:25:55Z</time>
</trkpt>
<trkpt lat="42.87782423100531" lon="-2.123260813462371">
<ele>780</ele>
<time>2014-09-28T17:25:57Z</time>
</trkpt>
<trkpt lat="42.877852302961706" lon="-2.1232907948789945">
<ele>780</ele>
<time>2014-09-28T17:25:59Z</time>
</trkpt>
<trkpt lat="42.877870157297615" lon="-2.123310540132341">
<ele>779</ele>
<time>2014-09-28T17:26:01Z</time>
</trkpt>
<trkpt lat="42.87789241965837" lon="-2.1233237057031222">
<ele>779</ele>
<time>2014-09-28T17:26:03Z</time>
</trkpt>
<trkpt lat="42.877914647620536" lon="-2.1233264542551544">
<ele>778</ele>
<time>2014-09-28T17:26:05Z</time>
</trkpt>
<trkpt lat="42.877939202097686" lon="-2.1233323965804267">
<ele>777</ele>
<time>2014-09-28T17:26:07Z</time>
</trkpt>
<trkpt lat="42.877960355850924" lon="-2.12334107312047">
<ele>777</ele>
<time>2014-09-28T17:26:09Z</time>
</trkpt>
<trkpt lat="42.877972771551704" lon="-2.1233369842624947">
<ele>776</ele>
<time>2014-09-28T17:26:11Z</time>
</trkpt>
<trkpt lat="42.877987242008366" lon="-2.123338416288767">
<ele>776</ele>
<time>2014-09-28T17:26:13Z</time>
</trkpt>
<trkpt lat="42.87800267440224" lon="-2.1233395336325005">
<ele>775</ele>
<time>2014-09-28T17:26:15Z</time>
</trkpt>
<trkpt lat="42.87802079616133" lon="-2.1233442126342643">
<ele>774</ele>
<time>2014-09-28T17:26:17Z</time>
</trkpt>
<trkpt lat="42.878062527015416" lon="-2.1233591655979502">
<ele>774</ele>
<time>2014-09-28T17:26:19Z</time>
</trkpt>
<trkpt lat="42.87809586673976" lon="-2.1233595359396054">
<ele>773</ele>
<time>2014-09-28T17:26:21Z</time>
</trkpt>
<trkpt lat="42.878131435421864" lon="-2.123349568017764">
<ele>773</ele>
<time>2014-09-28T17:26:23Z</time>
</trkpt>
<trkpt lat="42.87815587302693" lon="-2.123343217170909">
<ele>772</ele>
<time>2014-09-28T17:26:25Z</time>
</trkpt>
<trkpt lat="42.8781713339346" lon="-2.123365119037513">
<ele>772</ele>
<time>2014-09-28T17:26:27Z</time>
</trkpt>
<trkpt lat="42.87819918409954" lon="-2.123426071950318">
<ele>771</ele>
<time>2014-09-28T17:26:29Z</time>
</trkpt>
<trkpt lat="42.87823262377899" lon="-2.1234568189254794">
<ele>771</ele>
<time>2014-09-28T17:26:31Z</time>
</trkpt>
<trkpt lat="42.87824144642354" lon="-2.123466289826029">
<ele>770</ele>
<time>2014-09-28T17:26:33Z</time>
</trkpt>
<trkpt lat="42.8782521009653" lon="-2.1234725239178593">
<ele>770</ele>
<time>2014-09-28T17:26:35Z</time>
</trkpt>
<trkpt lat="42.878255196542824" lon="-2.1234697581465385">
<ele>769</ele>
<time>2014-09-28T17:26:37Z</time>
</trkpt>
<trkpt lat="42.878259378495144" lon="-2.123457614891804">
<ele>768</ele>
<time>2014-09-28T17:26:39Z</time>
</trkpt>
<trkpt lat="42.8782655079505" lon="-2.12342291575266">
<ele>767</ele>
<time>2014-09-28T17:26:41Z</time>
</trkpt>
<trkpt lat="42.87826653657063" lon="-2.1233952350341565">
<ele>766</ele>
<time>2014-09-28T17:26:43Z</time>
</trkpt>
<trkpt lat="42.8782585428291" lon="-2.1233597460704594">
<ele>766</ele>
<time>2014-09-28T17:26:45Z</time>
</trkpt>
<trkpt lat="42.878246698013996" lon="-2.1233476009594727">
<ele>765</ele>
<time>2014-09-28T17:26:47Z</time>
</trkpt>
<trkpt lat="42.878230738115704" lon="-2.1233254358954277">
<ele>765</ele>
<time>2014-09-28T17:26:49Z</time>
</trkpt>
<trkpt lat="42.87821727597773" lon="-2.1232848170082748">
<ele>764</ele>
<time>2014-09-28T17:26:51Z</time>
</trkpt>
<trkpt lat="42.8782062705933" lon="-2.1232377060767087">
<ele>764</ele>
<time>2014-09-28T17:26:53Z</time>
</trkpt>
<trkpt lat="42.87819315064797" lon="-2.123196791118921">
<ele>764</ele>
<time>2014-09-28T17:26:55Z</time>
</trkpt>
<trkpt lat="42.87819723691214" lon="-2.1231515792143485">
<ele>763</ele>
<time>2014-09-28T17:26:57Z</time>
</trkpt>
<trkpt lat="42.878208858397734" lon="-2.1231013447274973">
<ele>762</ele>
<time>2014-09-28T17:26:59Z</time>
</trkpt>
<trkpt lat="42.87822757819027" lon="-2.123052118974864">
<ele>762</ele>
<time>2014-09-28T17:27:01Z</time>
</trkpt>
<trkpt lat="42.878248876244186" lon="-2.1230120971589233">
<ele>761</ele>
<time>2014-09-28T17:27:03Z</time>
</trkpt>
<trkpt lat="42.878261882509236" lon="-2.122980657206656">
<ele>761</ele>
<time>2014-09-28T17:27:05Z</time>
</trkpt>
<trkpt lat="42.87827327503659" lon="-2.1229537606317086">
<ele>760</ele>
<time>2014-09-28T17:27:07Z</time>
</trkpt>
<trkpt lat="42.878283407565334" lon="-2.1229272294398376">
<ele>760</ele>
<time>2014-09-28T17:27:09Z</time>
</trkpt>
<trkpt lat="42.8782939650715" lon="-2.1229036358968023">
<ele>759</ele>
<time>2014-09-28T17:27:11Z</time>
</trkpt>
<trkpt lat="42.87830826108536" lon="-2.1228795907976887">
<ele>758</ele>
<time>2014-09-28T17:27:13Z</time>
</trkpt>
<trkpt lat="42.878322012856884" lon="-2.1228518325522994">
<ele>758</ele>
<time>2014-09-28T17:27:15Z</time>
</trkpt>
<trkpt lat="42.87834718682465" lon="-2.1228139441189176">
<ele>757</ele>
<time>2014-09-28T17:27:17Z</time>
</trkpt>
<trkpt lat="42.87836874109784" lon="-2.1227754883236964">
<ele>757</ele>
<time>2014-09-28T17:27:19Z</time>
</trkpt>
<trkpt lat="42.878381134942764" lon="-2.122737788753751">
<ele>756</ele>
<time>2014-09-28T17:27:21Z</time>
</trkpt>
<trkpt lat="42.878385326526946" lon="-2.122714413957833">
<ele>755</ele>
<time>2014-09-28T17:27:23Z</time>
</trkpt>
<trkpt lat="42.87837883870454" lon="-2.122653322608225">
<ele>755</ele>
<time>2014-09-28T17:27:25Z</time>
</trkpt>
<trkpt lat="42.8783793374147" lon="-2.1226214573534037">
<ele>754</ele>
<time>2014-09-28T17:27:27Z</time>
</trkpt>
<trkpt lat="42.878381872430985" lon="-2.1225905867186934">
<ele>754</ele>
<time>2014-09-28T17:27:29Z</time>
</trkpt>
<trkpt lat="42.878380059262696" lon="-2.122548793763376">
<ele>754</ele>
<time>2014-09-28T17:27:31Z</time>
</trkpt>
<trkpt lat="42.8783834890314" lon="-2.1225192609178554">
<ele>753</ele>
<time>2014-09-28T17:27:33Z</time>
</trkpt>
<trkpt lat="42.878391308369004" lon="-2.122484835912427">
<ele>753</ele>
<time>2014-09-28T17:27:35Z</time>
</trkpt>
<trkpt lat="42.87840004179408" lon="-2.122448758242678">
<ele>752</ele>
<time>2014-09-28T17:27:37Z</time>
</trkpt>
<trkpt lat="42.87840817793191" lon="-2.122398275538373">
<ele>752</ele>
<time>2014-09-28T17:27:39Z</time>
</trkpt>
<trkpt lat="42.87841594115081" lon="-2.122356296677777">
<ele>751</ele>
<time>2014-09-28T17:27:41Z</time>
</trkpt>
<trkpt lat="42.87840680836442" lon="-2.1222949690570267">
<ele>750</ele>
<time>2014-09-28T17:27:43Z</time>
</trkpt>
<trkpt lat="42.87840275802254" lon="-2.122225778753772">
<ele>750</ele>
<time>2014-09-28T17:27:45Z</time>
</trkpt>
<trkpt lat="42.878400119158215" lon="-2.1221944933028936">
<ele>749</ele>
<time>2014-09-28T17:27:47Z</time>
</trkpt>
<trkpt lat="42.87840546637011" lon="-2.1221533983593392">
<ele>749</ele>
<time>2014-09-28T17:27:49Z</time>
</trkpt>
<trkpt lat="42.878414013431964" lon="-2.122134810368939">
<ele>748</ele>
<time>2014-09-28T17:27:51Z</time>
</trkpt>
<trkpt lat="42.87841390336591" lon="-2.1221304987650202">
<ele>748</ele>
<time>2014-09-28T17:27:53Z</time>
</trkpt>
<trkpt lat="42.878410833093554" lon="-2.1221277882221083">
<ele>748</ele>
<time>2014-09-28T17:27:55Z</time>
</trkpt>
<trkpt lat="42.8783975042569" lon="-2.122101035627397">
<ele>748</ele>
<time>2014-09-28T17:27:57Z</time>
</trkpt>
<trkpt lat="42.878370609021104" lon="-2.122006119665538">
<ele>747</ele>
<time>2014-09-28T17:27:59Z</time>
</trkpt>
<trkpt lat="42.87837385528241" lon="-2.121928081872542">
<ele>747</ele>
<time>2014-09-28T17:28:01Z</time>
</trkpt>
<trkpt lat="42.8783865049881" lon="-2.121861293316107">
<ele>746</ele>
<time>2014-09-28T17:28:03Z</time>
</trkpt>
<trkpt lat="42.87840753394634" lon="-2.1218291687274107">
<ele>745</ele>
<time>2014-09-28T17:28:05Z</time>
</trkpt>
<trkpt lat="42.878428293568426" lon="-2.1218092337377503">
<ele>745</ele>
<time>2014-09-28T17:28:07Z</time>
</trkpt>
<trkpt lat="42.878447811401884" lon="-2.121798107793268">
<ele>744</ele>
<time>2014-09-28T17:28:09Z</time>
</trkpt>
<trkpt lat="42.878469859995455" lon="-2.1217983824684348">
<ele>743</ele>
<time>2014-09-28T17:28:11Z</time>
</trkpt>
<trkpt lat="42.878499094754105" lon="-2.121780650066614">
<ele>743</ele>
<time>2014-09-28T17:28:13Z</time>
</trkpt>
<trkpt lat="42.87850861220558" lon="-2.1217684305097544">
<ele>742</ele>
<time>2014-09-28T17:28:15Z</time>
</trkpt>
<trkpt lat="42.8785096293713" lon="-2.121767803656587">
<ele>742</ele>
<time>2014-09-28T17:28:17Z</time>
</trkpt>
<trkpt lat="42.878514151678836" lon="-2.121769608781871">
<ele>742</ele>
<time>2014-09-28T17:28:19Z</time>
</trkpt>
<trkpt lat="42.87852903041497" lon="-2.1217642040837124">
<ele>742</ele>
<time>2014-09-28T17:28:21Z</time>
</trkpt>
<trkpt lat="42.87856232220111" lon="-2.121746639504211">
<ele>741</ele>
<time>2014-09-28T17:28:23Z</time>
</trkpt>
<trkpt lat="42.87856319108857" lon="-2.1217200648792653">
<ele>741</ele>
<time>2014-09-28T17:28:25Z</time>
</trkpt>
<trkpt lat="42.87856485000181" lon="-2.12169050225301">
<ele>740</ele>
<time>2014-09-28T17:28:27Z</time>
</trkpt>
<trkpt lat="42.87856820347862" lon="-2.1216746431646256">
<ele>740</ele>
<time>2014-09-28T17:28:29Z</time>
</trkpt>
<trkpt lat="42.878579168342604" lon="-2.121641104495363">
<ele>739</ele>
<time>2014-09-28T17:28:31Z</time>
</trkpt>
<trkpt lat="42.87859664834604" lon="-2.1216072210256662">
<ele>739</ele>
<time>2014-09-28T17:28:33Z</time>
</trkpt>
<trkpt lat="42.87861123882599" lon="-2.1215789589814413">
<ele>738</ele>
<time>2014-09-28T17:28:35Z</time>
</trkpt>
<trkpt lat="42.8786408356348" lon="-2.1215641019390747">
<ele>737</ele>
<time>2014-09-28T17:28:37Z</time>
</trkpt>
<trkpt lat="42.87865773227039" lon="-2.1215266913110327">
<ele>736</ele>
<time>2014-09-28T17:28:39Z</time>
</trkpt>
<trkpt lat="42.8786744982902" lon="-2.1215068664010723">
<ele>736</ele>
<time>2014-09-28T17:28:41Z</time>
</trkpt>
<trkpt lat="42.87869715194488" lon="-2.121467662810673">
<ele>735</ele>
<time>2014-09-28T17:28:43Z</time>
</trkpt>
<trkpt lat="42.878721062103374" lon="-2.1214300986152805">
<ele>734</ele>
<time>2014-09-28T17:28:45Z</time>
</trkpt>
<trkpt lat="42.87874263815943" lon="-2.121376961652031">
<ele>733</ele>
<time>2014-09-28T17:28:47Z</time>
</trkpt>
<trkpt lat="42.87876022128552" lon="-2.121324800718101">
<ele>733</ele>
<time>2014-09-28T17:28:49Z</time>
</trkpt>
<trkpt lat="42.87877548657407" lon="-2.1212966227803087">
<ele>732</ele>
<time>2014-09-28T17:28:51Z</time>
</trkpt>
<trkpt lat="42.87879466747531" lon="-2.121276176360608">
<ele>732</ele>
<time>2014-09-28T17:28:53Z</time>
</trkpt>
<trkpt lat="42.878817023369486" lon="-2.121242611916201">
<ele>732</ele>
<time>2014-09-28T17:28:55Z</time>
</trkpt>
<trkpt lat="42.87882565336495" lon="-2.121242740633287">
<ele>731</ele>
<time>2014-09-28T17:28:57Z</time>
</trkpt>
<trkpt lat="42.87883153389789" lon="-2.1212285640965396">
<ele>731</ele>
<time>2014-09-28T17:28:59Z</time>
</trkpt>
<trkpt lat="42.87884373856488" lon="-2.1212022442447775">
<ele>730</ele>
<time>2014-09-28T17:29:01Z</time>
</trkpt>
<trkpt lat="42.87884885357257" lon="-2.12117144045179">
<ele>730</ele>
<time>2014-09-28T17:29:03Z</time>
</trkpt>
<trkpt lat="42.87887282794232" lon="-2.121122480547358">
<ele>729</ele>
<time>2014-09-28T17:29:05Z</time>
</trkpt>
<trkpt lat="42.878886882615575" lon="-2.121093565811663">
<ele>729</ele>
<time>2014-09-28T17:29:07Z</time>
</trkpt>
<trkpt lat="42.878901232784564" lon="-2.121066210840659">
<ele>728</ele>
<time>2014-09-28T17:29:09Z</time>
</trkpt>
<trkpt lat="42.87891827096075" lon="-2.1210355393749185">
<ele>727</ele>
<time>2014-09-28T17:29:11Z</time>
</trkpt>
<trkpt lat="42.878943807935734" lon="-2.121004866866205">
<ele>727</ele>
<time>2014-09-28T17:29:13Z</time>
</trkpt>
<trkpt lat="42.878985957555656" lon="-2.1209674656609767">
<ele>727</ele>
<time>2014-09-28T17:29:15Z</time>
</trkpt>
<trkpt lat="42.879007419259835" lon="-2.1209385891172357">
<ele>726</ele>
<time>2014-09-28T17:29:17Z</time>
</trkpt>
<trkpt lat="42.87902870801872" lon="-2.1209278559718268">
<ele>726</ele>
<time>2014-09-28T17:29:19Z</time>
</trkpt>
<trkpt lat="42.87905385023294" lon="-2.1209164686020805">
<ele>726</ele>
<time>2014-09-28T17:29:21Z</time>
</trkpt>
<trkpt lat="42.87906512308676" lon="-2.120905302464215">
<ele>725</ele>
<time>2014-09-28T17:29:23Z</time>
</trkpt>
<trkpt lat="42.87907177951058" lon="-2.12089606276849">
<ele>725</ele>
<time>2014-09-28T17:29:25Z</time>
</trkpt>
<trkpt lat="42.879087492820034" lon="-2.120882278173654">
<ele>725</ele>
<time>2014-09-28T17:29:27Z</time>
</trkpt>
<trkpt lat="42.87910123339647" lon="-2.120868274079849">
<ele>725</ele>
<time>2014-09-28T17:29:29Z</time>
</trkpt>
<trkpt lat="42.879117998117955" lon="-2.1208475579143857">
<ele>725</ele>
<time>2014-09-28T17:29:31Z</time>
</trkpt>
<trkpt lat="42.87914459049504" lon="-2.120824642495988">
<ele>724</ele>
<time>2014-09-28T17:29:33Z</time>
</trkpt>
<trkpt lat="42.87916874492368" lon="-2.120802994344273">
<ele>724</ele>
<time>2014-09-28T17:29:35Z</time>
</trkpt>
<trkpt lat="42.87918534810736" lon="-2.120790751234352">
<ele>723</ele>
<time>2014-09-28T17:29:37Z</time>
</trkpt>
<trkpt lat="42.879197943278534" lon="-2.1207740320589776">
<ele>723</ele>
<time>2014-09-28T17:29:39Z</time>
</trkpt>
<trkpt lat="42.87921778129533" lon="-2.1207488879941896">
<ele>722</ele>
<time>2014-09-28T17:29:41Z</time>
</trkpt>
<trkpt lat="42.879248070654526" lon="-2.120714170225041">
<ele>721</ele>
<time>2014-09-28T17:29:43Z</time>
</trkpt>
<trkpt lat="42.87926869055594" lon="-2.120690564571469">
<ele>721</ele>
<time>2014-09-28T17:29:45Z</time>
</trkpt>
<trkpt lat="42.87928849060661" lon="-2.12066692025872">
<ele>720</ele>
<time>2014-09-28T17:29:47Z</time>
</trkpt>
<trkpt lat="42.879314316929346" lon="-2.1206301877314155">
<ele>720</ele>
<time>2014-09-28T17:29:49Z</time>
</trkpt>
<trkpt lat="42.879344102469034" lon="-2.1205894738751723">
<ele>719</ele>
<time>2014-09-28T17:29:51Z</time>
</trkpt>
<trkpt lat="42.87935079817921" lon="-2.120561701346371">
<ele>719</ele>
<time>2014-09-28T17:29:53Z</time>
</trkpt>
<trkpt lat="42.879354803141155" lon="-2.120544022433544">
<ele>719</ele>
<time>2014-09-28T17:29:55Z</time>
</trkpt>
<trkpt lat="42.879353798459334" lon="-2.120539920230006">
<ele>719</ele>
<time>2014-09-28T17:29:57Z</time>
</trkpt>
<trkpt lat="42.879362214854005" lon="-2.1205166230261456">
<ele>719</ele>
<time>2014-09-28T17:29:59Z</time>
</trkpt>
<trkpt lat="42.879373615851954" lon="-2.120487561764061">
<ele>719</ele>
<time>2014-09-28T17:30:01Z</time>
</trkpt>
<trkpt lat="42.8793909761628" lon="-2.1204661965234526">
<ele>719</ele>
<time>2014-09-28T17:30:03Z</time>
</trkpt>
<trkpt lat="42.87940405525" lon="-2.1204422996343513">
<ele>719</ele>
<time>2014-09-28T17:30:05Z</time>
</trkpt>
<trkpt lat="42.87942177690053" lon="-2.1204178968939695">
<ele>719</ele>
<time>2014-09-28T17:30:07Z</time>
</trkpt>
<trkpt lat="42.87945273624793" lon="-2.1203608151779694">
<ele>719</ele>
<time>2014-09-28T17:30:09Z</time>
</trkpt>
<trkpt lat="42.87948424380415" lon="-2.1203250087599277">
<ele>718</ele>
<time>2014-09-28T17:30:11Z</time>
</trkpt>
<trkpt lat="42.879518922046294" lon="-2.1202949670976885">
<ele>718</ele>
<time>2014-09-28T17:30:13Z</time>
</trkpt>
<trkpt lat="42.879546997009555" lon="-2.120271248494773">
<ele>718</ele>
<time>2014-09-28T17:30:15Z</time>
</trkpt>
<trkpt lat="42.87956930568179" lon="-2.120260106808871">
<ele>717</ele>
<time>2014-09-28T17:30:17Z</time>
</trkpt>
<trkpt lat="42.879605063542954" lon="-2.120238607646835">
<ele>717</ele>
<time>2014-09-28T17:30:19Z</time>
</trkpt>
<trkpt lat="42.87963132649519" lon="-2.1202352563552433">
<ele>717</ele>
<time>2014-09-28T17:30:21Z</time>
</trkpt>
<trkpt lat="42.87965386596678" lon="-2.1202310461027407">
<ele>717</ele>
<time>2014-09-28T17:30:23Z</time>
</trkpt>
<trkpt lat="42.879672802445725" lon="-2.1202312890576094">
<ele>716</ele>
<time>2014-09-28T17:30:25Z</time>
</trkpt>
<trkpt lat="42.8796847596498" lon="-2.120231800754958">
<ele>716</ele>
<time>2014-09-28T17:30:27Z</time>
</trkpt>
<trkpt lat="42.87971696613669" lon="-2.1202147241957148">
<ele>716</ele>
<time>2014-09-28T17:30:29Z</time>
</trkpt>
<trkpt lat="42.87973613210537" lon="-2.120207006615974">
<ele>716</ele>
<time>2014-09-28T17:30:31Z</time>
</trkpt>
<trkpt lat="42.879754605039366" lon="-2.120207345281821">
<ele>716</ele>
<time>2014-09-28T17:30:33Z</time>
</trkpt>
<trkpt lat="42.87977802303175" lon="-2.1202010236399365">
<ele>715</ele>
<time>2014-09-28T17:30:35Z</time>
</trkpt>
<trkpt lat="42.87981399580028" lon="-2.120183287448255">
<ele>715</ele>
<time>2014-09-28T17:30:37Z</time>
</trkpt>
<trkpt lat="42.87984874224276" lon="-2.120154135169806">
<ele>714</ele>
<time>2014-09-28T17:30:39Z</time>
</trkpt>
<trkpt lat="42.87989459997472" lon="-2.1201158812181133">
<ele>714</ele>
<time>2014-09-28T17:30:41Z</time>
</trkpt>
<trkpt lat="42.879929454422616" lon="-2.1200902872907887">
<ele>713</ele>
<time>2014-09-28T17:30:43Z</time>
</trkpt>
<trkpt lat="42.87996612603964" lon="-2.120060595666296">
<ele>712</ele>
<time>2014-09-28T17:30:45Z</time>
</trkpt>
<trkpt lat="42.8799925863806" lon="-2.1200535757086096">
<ele>711</ele>
<time>2014-09-28T17:30:47Z</time>
</trkpt>
<trkpt lat="42.880028393690225" lon="-2.1200374887035247">
<ele>711</ele>
<time>2014-09-28T17:30:49Z</time>
</trkpt>
<trkpt lat="42.88006640917779" lon="-2.120015144541515">
<ele>710</ele>
<time>2014-09-28T17:30:51Z</time>
</trkpt>
<trkpt lat="42.88009469049369" lon="-2.1199997323503377">
<ele>709</ele>
<time>2014-09-28T17:30:53Z</time>
</trkpt>
<trkpt lat="42.88011994296682" lon="-2.1199811214026982">
<ele>708</ele>
<time>2014-09-28T17:30:55Z</time>
</trkpt>
<trkpt lat="42.8801535699284" lon="-2.119966496285798">
<ele>708</ele>
<time>2014-09-28T17:30:57Z</time>
</trkpt>
<trkpt lat="42.88017981510348" lon="-2.1199529350578334">
<ele>707</ele>
<time>2014-09-28T17:30:59Z</time>
</trkpt>
<trkpt lat="42.880203860635355" lon="-2.1199409236158018">
<ele>706</ele>
<time>2014-09-28T17:31:01Z</time>
</trkpt>
<trkpt lat="42.88020785137609" lon="-2.1199400702107156">
<ele>706</ele>
<time>2014-09-28T17:31:03Z</time>
</trkpt>
<trkpt lat="42.880215034427074" lon="-2.1199401005161174">
<ele>705</ele>
<time>2014-09-28T17:31:05Z</time>
</trkpt>
<trkpt lat="42.88023525634556" lon="-2.119929895206364">
<ele>705</ele>
<time>2014-09-28T17:31:07Z</time>
</trkpt>
<trkpt lat="42.88026983059787" lon="-2.119911153333476">
<ele>704</ele>
<time>2014-09-28T17:31:09Z</time>
</trkpt>
<trkpt lat="42.880296056883736" lon="-2.1198867703264512">
<ele>704</ele>
<time>2014-09-28T17:31:11Z</time>
</trkpt>
<trkpt lat="42.88031490457352" lon="-2.1198687687756967">
<ele>703</ele>
<time>2014-09-28T17:31:13Z</time>
</trkpt>
<trkpt lat="42.8803341431481" lon="-2.119849527455884">
<ele>702</ele>
<time>2014-09-28T17:31:15Z</time>
</trkpt>
<trkpt lat="42.88034895339856" lon="-2.1198243768430363">
<ele>702</ele>
<time>2014-09-28T17:31:17Z</time>
</trkpt>
<trkpt lat="42.880362495745814" lon="-2.1198053707022253">
<ele>701</ele>
<time>2014-09-28T17:31:19Z</time>
</trkpt>
<trkpt lat="42.88038601483116" lon="-2.1197805586275296">
<ele>701</ele>
<time>2014-09-28T17:31:21Z</time>
</trkpt>
<trkpt lat="42.88040524258005" lon="-2.119746211456474">
<ele>700</ele>
<time>2014-09-28T17:31:23Z</time>
</trkpt>
<trkpt lat="42.880407180599924" lon="-2.1197176139262877">
<ele>699</ele>
<time>2014-09-28T17:31:25Z</time>
</trkpt>
<trkpt lat="42.88041560619475" lon="-2.1196929551730777">
<ele>699</ele>
<time>2014-09-28T17:31:27Z</time>
</trkpt>
<trkpt lat="42.88043535031191" lon="-2.119658055490629">
<ele>698</ele>
<time>2014-09-28T17:31:29Z</time>
</trkpt>
<trkpt lat="42.88045094477506" lon="-2.1196227060389856">
<ele>698</ele>
<time>2014-09-28T17:31:31Z</time>
</trkpt>
<trkpt lat="42.88046632474364" lon="-2.119594780899182">
<ele>697</ele>
<time>2014-09-28T17:31:33Z</time>
</trkpt>
<trkpt lat="42.88046802226442" lon="-2.1195929300606497">
<ele>697</ele>
<time>2014-09-28T17:31:35Z</time>
</trkpt>
<trkpt lat="42.88046230339688" lon="-2.119597360330944">
<ele>697</ele>
<time>2014-09-28T17:31:37Z</time>
</trkpt>
<trkpt lat="42.88046637231937" lon="-2.1195912068201648">
<ele>696</ele>
<time>2014-09-28T17:31:39Z</time>
</trkpt>
<trkpt lat="42.880475626102765" lon="-2.1195837987045385">
<ele>695</ele>
<time>2014-09-28T17:31:41Z</time>
</trkpt>
<trkpt lat="42.88051776782895" lon="-2.1195660210265213">
<ele>695</ele>
<time>2014-09-28T17:31:43Z</time>
</trkpt>
<trkpt lat="42.88054555746759" lon="-2.1195411768746917">
<ele>694</ele>
<time>2014-09-28T17:31:45Z</time>
</trkpt>
<trkpt lat="42.88057540631313" lon="-2.119517680224857">
<ele>693</ele>
<time>2014-09-28T17:31:47Z</time>
</trkpt>
<trkpt lat="42.88060274087773" lon="-2.1194968633194358">
<ele>693</ele>
<time>2014-09-28T17:31:49Z</time>
</trkpt>
<trkpt lat="42.88062919242048" lon="-2.1194695314405623">
<ele>692</ele>
<time>2014-09-28T17:31:51Z</time>
</trkpt>
<trkpt lat="42.8806496990417" lon="-2.119446380815966">
<ele>691</ele>
<time>2014-09-28T17:31:53Z</time>
</trkpt>
<trkpt lat="42.880677517606884" lon="-2.119427852315824">
<ele>691</ele>
<time>2014-09-28T17:31:55Z</time>
</trkpt>
<trkpt lat="42.88070005159724" lon="-2.119412257287061">
<ele>690</ele>
<time>2014-09-28T17:31:57Z</time>
</trkpt>
<trkpt lat="42.880734318519394" lon="-2.1193857582396625">
<ele>689</ele>
<time>2014-09-28T17:31:59Z</time>
</trkpt>
<trkpt lat="42.880760297484" lon="-2.1193669417895205">
<ele>689</ele>
<time>2014-09-28T17:32:01Z</time>
</trkpt>
<trkpt lat="42.880796716354325" lon="-2.1193462646804897">
<ele>688</ele>
<time>2014-09-28T17:32:03Z</time>
</trkpt>
<trkpt lat="42.880822176253005" lon="-2.1193301577504906">
<ele>687</ele>
<time>2014-09-28T17:32:05Z</time>
</trkpt>
<trkpt lat="42.88084502969213" lon="-2.1193215702050665">
<ele>687</ele>
<time>2014-09-28T17:32:07Z</time>
</trkpt>
<trkpt lat="42.880859220953866" lon="-2.119310856428275">
<ele>686</ele>
<time>2014-09-28T17:32:09Z</time>
</trkpt>
<trkpt lat="42.880867406048125" lon="-2.1193163791421283">
<ele>686</ele>
<time>2014-09-28T17:32:11Z</time>
</trkpt>
<trkpt lat="42.880871431106804" lon="-2.1193045264114865">
<ele>686</ele>
<time>2014-09-28T17:32:13Z</time>
</trkpt>
<trkpt lat="42.8808798718366" lon="-2.1192607757239768">
<ele>686</ele>
<time>2014-09-28T17:32:15Z</time>
</trkpt>
<trkpt lat="42.880884708454694" lon="-2.1192421795488956">
<ele>686</ele>
<time>2014-09-28T17:32:17Z</time>
</trkpt>
<trkpt lat="42.880896648856776" lon="-2.119210613763749">
<ele>685</ele>
<time>2014-09-28T17:32:19Z</time>
</trkpt>
<trkpt lat="42.88090698921137" lon="-2.119178765521954">
<ele>685</ele>
<time>2014-09-28T17:32:21Z</time>
</trkpt>
<trkpt lat="42.88090791752804" lon="-2.1191325520127977">
<ele>685</ele>
<time>2014-09-28T17:32:23Z</time>
</trkpt>
<trkpt lat="42.880908833684636" lon="-2.119073635694593">
<ele>684</ele>
<time>2014-09-28T17:32:25Z</time>
</trkpt>
<trkpt lat="42.880907385989254" lon="-2.119029869667283">
<ele>684</ele>
<time>2014-09-28T17:32:27Z</time>
</trkpt>
<trkpt lat="42.88090195140036" lon="-2.1189834040752475">
<ele>683</ele>
<time>2014-09-28T17:32:29Z</time>
</trkpt>
<trkpt lat="42.880903635715526" lon="-2.1189459118348357">
<ele>683</ele>
<time>2014-09-28T17:32:31Z</time>
</trkpt>
<trkpt lat="42.88090675124022" lon="-2.1189092291984526">
<ele>682</ele>
<time>2014-09-28T17:32:33Z</time>
</trkpt>
<trkpt lat="42.88091199412117" lon="-2.1188742663019164">
<ele>682</ele>
<time>2014-09-28T17:32:35Z</time>
</trkpt>
<trkpt lat="42.880915019028485" lon="-2.1188410646923277">
<ele>681</ele>
<time>2014-09-28T17:32:37Z</time>
</trkpt>
<trkpt lat="42.8809199091651" lon="-2.1187904069883827">
<ele>680</ele>
<time>2014-09-28T17:32:39Z</time>
</trkpt>
<trkpt lat="42.88092843686652" lon="-2.1187385934587883">
<ele>680</ele>
<time>2014-09-28T17:32:41Z</time>
</trkpt>
<trkpt lat="42.880931656487334" lon="-2.11870636931788">
<ele>680</ele>
<time>2014-09-28T17:32:43Z</time>
</trkpt>
<trkpt lat="42.88092987600444" lon="-2.118671967983022">
<ele>679</ele>
<time>2014-09-28T17:32:45Z</time>
</trkpt>
<trkpt lat="42.880931633144044" lon="-2.1186438544444055">
<ele>679</ele>
<time>2014-09-28T17:32:47Z</time>
</trkpt>
<trkpt lat="42.88093970002779" lon="-2.118597978396896">
<ele>678</ele>
<time>2014-09-28T17:32:49Z</time>
</trkpt>
<trkpt lat="42.88095083276775" lon="-2.11855402604535">
<ele>678</ele>
<time>2014-09-28T17:32:51Z</time>
</trkpt>
<trkpt lat="42.88095073980869" lon="-2.1185505612917024">
<ele>678</ele>
<time>2014-09-28T17:32:53Z</time>
</trkpt>
<trkpt lat="42.88095039262041" lon="-2.118550746837461">
<ele>677</ele>
<time>2014-09-28T17:32:55Z</time>
</trkpt>
<trkpt lat="42.88095191825295" lon="-2.118533715873479">
<ele>677</ele>
<time>2014-09-28T17:32:57Z</time>
</trkpt>
<trkpt lat="42.88096058102713" lon="-2.1184963263822785">
<ele>676</ele>
<time>2014-09-28T17:32:59Z</time>
</trkpt>
<trkpt lat="42.880970946173605" lon="-2.1184625947521925">
<ele>676</ele>
<time>2014-09-28T17:33:01Z</time>
</trkpt>
<trkpt lat="42.880974955823426" lon="-2.1184330727573726">
<ele>675</ele>
<time>2014-09-28T17:33:03Z</time>
</trkpt>
<trkpt lat="42.88097796656573" lon="-2.118400536826244">
<ele>675</ele>
<time>2014-09-28T17:33:05Z</time>
</trkpt>
<trkpt lat="42.88098126979568" lon="-2.118371812156788">
<ele>674</ele>
<time>2014-09-28T17:33:07Z</time>
</trkpt>
<trkpt lat="42.880986027853666" lon="-2.11833614147413">
<ele>674</ele>
<time>2014-09-28T17:33:09Z</time>
</trkpt>
<trkpt lat="42.8809865541005" lon="-2.1183057040762296">
<ele>673</ele>
<time>2014-09-28T17:33:11Z</time>
</trkpt>
<trkpt lat="42.880984097533045" lon="-2.118272160630288">
<ele>673</ele>
<time>2014-09-28T17:33:13Z</time>
</trkpt>
<trkpt lat="42.880978741187846" lon="-2.118236619616324">
<ele>673</ele>
<time>2014-09-28T17:33:15Z</time>
</trkpt>
<trkpt lat="42.880982040426886" lon="-2.1181954198856756">
<ele>673</ele>
<time>2014-09-28T17:33:17Z</time>
</trkpt>
<trkpt lat="42.8809934967272" lon="-2.1181457750023998">
<ele>672</ele>
<time>2014-09-28T17:33:19Z</time>
</trkpt>
<trkpt lat="42.88100608377831" lon="-2.1181056464102603">
<ele>672</ele>
<time>2014-09-28T17:33:21Z</time>
</trkpt>
<trkpt lat="42.88101618969061" lon="-2.1180744612493423">
<ele>672</ele>
<time>2014-09-28T17:33:23Z</time>
</trkpt>
<trkpt lat="42.88102503215516" lon="-2.118058988577709">
<ele>671</ele>
<time>2014-09-28T17:33:25Z</time>
</trkpt>
<trkpt lat="42.88103559278812" lon="-2.118028837398914">
<ele>671</ele>
<time>2014-09-28T17:33:27Z</time>
</trkpt>
<trkpt lat="42.88103752165606" lon="-2.1179949234217053">
<ele>671</ele>
<time>2014-09-28T17:33:29Z</time>
</trkpt>
<trkpt lat="42.88103578508675" lon="-2.117951826393544">
<ele>671</ele>
<time>2014-09-28T17:33:31Z</time>
</trkpt>
<trkpt lat="42.881044220399566" lon="-2.1179099299396205">
<ele>671</ele>
<time>2014-09-28T17:33:33Z</time>
</trkpt>
<trkpt lat="42.88105075872662" lon="-2.1178738164537685">
<ele>670</ele>
<time>2014-09-28T17:33:35Z</time>
</trkpt>
<trkpt lat="42.88105524272377" lon="-2.1178426941200454">
<ele>670</ele>
<time>2014-09-28T17:33:37Z</time>
</trkpt>
<trkpt lat="42.88105355541724" lon="-2.1178024549686625">
<ele>670</ele>
<time>2014-09-28T17:33:39Z</time>
</trkpt>
<trkpt lat="42.881052772708124" lon="-2.117799787789271">
<ele>670</ele>
<time>2014-09-28T17:33:41Z</time>
</trkpt>
<trkpt lat="42.88105181883679" lon="-2.1177916375030184">
<ele>670</ele>
<time>2014-09-28T17:33:43Z</time>
</trkpt>
<trkpt lat="42.881052320377975" lon="-2.117777250045614">
<ele>669</ele>
<time>2014-09-28T17:33:45Z</time>
</trkpt>
<trkpt lat="42.881054814324294" lon="-2.1177664070429127">
<ele>669</ele>
<time>2014-09-28T17:33:47Z</time>
</trkpt>
<trkpt lat="42.881052036178644" lon="-2.1177346801240127">
<ele>669</ele>
<time>2014-09-28T17:33:49Z</time>
</trkpt>
<trkpt lat="42.88106412665457" lon="-2.1176970652274782">
<ele>669</ele>
<time>2014-09-28T17:33:51Z</time>
</trkpt>
<trkpt lat="42.88107104714951" lon="-2.117684219864017">
<ele>668</ele>
<time>2014-09-28T17:33:53Z</time>
</trkpt>
<trkpt lat="42.88108495181476" lon="-2.1176726283610323">
<ele>668</ele>
<time>2014-09-28T17:33:55Z</time>
</trkpt>
<trkpt lat="42.881099976152385" lon="-2.1176666816460834">
<ele>668</ele>
<time>2014-09-28T17:33:57Z</time>
</trkpt>
<trkpt lat="42.88110121805177" lon="-2.117666096982761">
<ele>668</ele>
<time>2014-09-28T17:33:59Z</time>
</trkpt>
<trkpt lat="42.88110285514501" lon="-2.117663788418946">
<ele>668</ele>
<time>2014-09-28T17:34:01Z</time>
</trkpt>
<trkpt lat="42.88110165201467" lon="-2.1176641380530516">
<ele>668</ele>
<time>2014-09-28T17:34:03Z</time>
</trkpt>
<trkpt lat="42.88110002228499" lon="-2.117664372824045">
<ele>668</ele>
<time>2014-09-28T17:34:05Z</time>
</trkpt>
<trkpt lat="42.881100156881324" lon="-2.1176643675085094">
<ele>668</ele>
<time>2014-09-28T17:34:07Z</time>
</trkpt>
<trkpt lat="42.88110016963326" lon="-2.117664317456824">
<ele>668</ele>
<time>2014-09-28T17:34:09Z</time>
</trkpt>
<trkpt lat="42.881100349917276" lon="-2.1176647562480397">
<ele>668</ele>
<time>2014-09-28T17:34:11Z</time>
</trkpt>
<trkpt lat="42.88109529820775" lon="-2.1176639894940883">
<ele>667</ele>
<time>2014-09-28T17:34:13Z</time>
</trkpt>
<trkpt lat="42.8810910455048" lon="-2.1176644014279438">
<ele>667</ele>
<time>2014-09-28T17:34:15Z</time>
</trkpt>
<trkpt lat="42.88109082501968" lon="-2.1176641846790667">
<ele>667</ele>
<time>2014-09-28T17:34:17Z</time>
</trkpt>
<trkpt lat="42.881093922426395" lon="-2.1176627649603477">
<ele>667</ele>
<time>2014-09-28T17:34:19Z</time>
</trkpt>
<trkpt lat="42.88109450650598" lon="-2.1176633979492276">
<ele>667</ele>
<time>2014-09-28T17:34:21Z</time>
</trkpt>
<trkpt lat="42.881092896584306" lon="-2.1176688544966593">
<ele>667</ele>
<time>2014-09-28T17:34:23Z</time>
</trkpt>
<trkpt lat="42.88108964573371" lon="-2.1176700485150532">
<ele>667</ele>
<time>2014-09-28T17:34:25Z</time>
</trkpt>
<trkpt lat="42.88109162778406" lon="-2.1176704688392927">
<ele>667</ele>
<time>2014-09-28T17:34:27Z</time>
</trkpt>
<trkpt lat="42.88109216937863" lon="-2.1176708865078546">
<ele>667</ele>
<time>2014-09-28T17:34:29Z</time>
</trkpt>
<trkpt lat="42.8810927462018" lon="-2.117670692452296">
<ele>667</ele>
<time>2014-09-28T17:34:31Z</time>
</trkpt>
<trkpt lat="42.88108895929446" lon="-2.117674882673378">
<ele>666</ele>
<time>2014-09-28T17:34:33Z</time>
</trkpt>
<trkpt lat="42.88108866850187" lon="-2.1176766109016003">
<ele>666</ele>
<time>2014-09-28T17:34:35Z</time>
</trkpt>
<trkpt lat="42.88108998932174" lon="-2.117670177636095">
<ele>666</ele>
<time>2014-09-28T17:34:37Z</time>
</trkpt>
<trkpt lat="42.88109308791434" lon="-2.1176652266672953">
<ele>666</ele>
<time>2014-09-28T17:34:39Z</time>
</trkpt>
<trkpt lat="42.88109583397" lon="-2.1176656453279645">
<ele>666</ele>
<time>2014-09-28T17:34:41Z</time>
</trkpt>
<trkpt lat="42.88109896480117" lon="-2.117665576743764">
<ele>666</ele>
<time>2014-09-28T17:34:43Z</time>
</trkpt>
<trkpt lat="42.88109632405444" lon="-2.11766461422403">
<ele>666</ele>
<time>2014-09-28T17:34:45Z</time>
</trkpt>
<trkpt lat="42.88110402286259" lon="-2.1176686048894897">
<ele>666</ele>
<time>2014-09-28T17:34:47Z</time>
</trkpt>
<trkpt lat="42.88111171611171" lon="-2.117669115540541">
<ele>666</ele>
<time>2014-09-28T17:34:49Z</time>
</trkpt>
<trkpt lat="42.881111888933475" lon="-2.1176698025767102">
<ele>667</ele>
<time>2014-09-28T17:34:51Z</time>
</trkpt>
<trkpt lat="42.88111444265865" lon="-2.117668926661868">
<ele>666</ele>
<time>2014-09-28T17:34:53Z</time>
</trkpt>
<trkpt lat="42.881115622378125" lon="-2.117675045466202">
<ele>666</ele>
<time>2014-09-28T17:34:55Z</time>
</trkpt>
<trkpt lat="42.88111602480424" lon="-2.117679612251734">
<ele>666</ele>
<time>2014-09-28T17:34:57Z</time>
</trkpt>
<trkpt lat="42.881115629438966" lon="-2.1176779136359243">
<ele>666</ele>
<time>2014-09-28T17:34:59Z</time>
</trkpt>
<trkpt lat="42.8811135044725" lon="-2.1176754496865233">
<ele>666</ele>
<time>2014-09-28T17:35:01Z</time>
</trkpt>
<trkpt lat="42.88111262548646" lon="-2.117672905465585">
<ele>666</ele>
<time>2014-09-28T17:35:03Z</time>
</trkpt>
<trkpt lat="42.88111827010951" lon="-2.1176633135440963">
<ele>666</ele>
<time>2014-09-28T17:35:05Z</time>
</trkpt>
<trkpt lat="42.88113186946777" lon="-2.117652987872438">
<ele>666</ele>
<time>2014-09-28T17:35:07Z</time>
</trkpt>
<trkpt lat="42.88114662157235" lon="-2.1176524273186845">
<ele>666</ele>
<time>2014-09-28T17:35:09Z</time>
</trkpt>
<trkpt lat="42.881156252831666" lon="-2.1176531075126297">
<ele>666</ele>
<time>2014-09-28T17:35:11Z</time>
</trkpt>
<trkpt lat="42.88116528985029" lon="-2.1176528394367167">
<ele>666</ele>
<time>2014-09-28T17:35:13Z</time>
</trkpt>
<trkpt lat="42.88117267767281" lon="-2.1176538155535214">
<ele>666</ele>
<time>2014-09-28T17:35:15Z</time>
</trkpt>
<trkpt lat="42.88117625348829" lon="-2.117652559313488">
<ele>666</ele>
<time>2014-09-28T17:35:17Z</time>
</trkpt>
<trkpt lat="42.881174164930734" lon="-2.1176482941342267">
<ele>666</ele>
<time>2014-09-28T17:35:19Z</time>
</trkpt>
<trkpt lat="42.88117248538061" lon="-2.117645993635065">
<ele>666</ele>
<time>2014-09-28T17:35:21Z</time>
</trkpt>
<trkpt lat="42.88116898001592" lon="-2.1176455686768008">
<ele>666</ele>
<time>2014-09-28T17:35:23Z</time>
</trkpt>
<trkpt lat="42.881168822905124" lon="-2.1176450381756005">
<ele>666</ele>
<time>2014-09-28T17:35:25Z</time>
</trkpt>
<trkpt lat="42.881165779601055" lon="-2.1176403729063886">
<ele>666</ele>
<time>2014-09-28T17:35:27Z</time>
</trkpt>
<trkpt lat="42.88117173174186" lon="-2.117642677940536">
<ele>666</ele>
<time>2014-09-28T17:35:29Z</time>
</trkpt>
<trkpt lat="42.88119381415937" lon="-2.1176486696723003">
<ele>665</ele>
<time>2014-09-28T17:35:31Z</time>
</trkpt>
<trkpt lat="42.881217978477885" lon="-2.1176523023064893">
<ele>665</ele>
<time>2014-09-28T17:35:33Z</time>
</trkpt>
<trkpt lat="42.88123836863403" lon="-2.1176527833020424">
<ele>665</ele>
<time>2014-09-28T17:35:35Z</time>
</trkpt>
<trkpt lat="42.881264429197984" lon="-2.1176628022760884">
<ele>664</ele>
<time>2014-09-28T17:35:37Z</time>
</trkpt>
<trkpt lat="42.88128669919474" lon="-2.117668965628767">
<ele>664</ele>
<time>2014-09-28T17:35:39Z</time>
</trkpt>
<trkpt lat="42.88130834834105" lon="-2.1176760927364167">
<ele>664</ele>
<time>2014-09-28T17:35:41Z</time>
</trkpt>
<trkpt lat="42.88133207652671" lon="-2.1176815375896565">
<ele>664</ele>
<time>2014-09-28T17:35:43Z</time>
</trkpt>
<trkpt lat="42.881360589771894" lon="-2.117686323948856">
<ele>663</ele>
<time>2014-09-28T17:35:45Z</time>
</trkpt>
<trkpt lat="42.881386314774964" lon="-2.1176949240547707">
<ele>663</ele>
<time>2014-09-28T17:35:47Z</time>
</trkpt>
<trkpt lat="42.88140725658997" lon="-2.117705862425105">
<ele>663</ele>
<time>2014-09-28T17:35:49Z</time>
</trkpt>
<trkpt lat="42.881437257673916" lon="-2.1177181848926567">
<ele>663</ele>
<time>2014-09-28T17:35:51Z</time>
</trkpt>
<trkpt lat="42.88146432664076" lon="-2.117716331907455">
<ele>662</ele>
<time>2014-09-28T17:35:53Z</time>
</trkpt>
<trkpt lat="42.8814925524516" lon="-2.1177175623703075">
<ele>662</ele>
<time>2014-09-28T17:35:55Z</time>
</trkpt>
<trkpt lat="42.881506893301456" lon="-2.1177251547851363">
<ele>661</ele>
<time>2014-09-28T17:35:57Z</time>
</trkpt>
<trkpt lat="42.88151563063012" lon="-2.1177315884668944">
<ele>661</ele>
<time>2014-09-28T17:35:59Z</time>
</trkpt>
<trkpt lat="42.881538669971306" lon="-2.1177393036519483">
<ele>660</ele>
<time>2014-09-28T17:36:01Z</time>
</trkpt>
<trkpt lat="42.881577987960064" lon="-2.117733619116692">
<ele>660</ele>
<time>2014-09-28T17:36:03Z</time>
</trkpt>
<trkpt lat="42.88160637105815" lon="-2.117738115606845">
<ele>660</ele>
<time>2014-09-28T17:36:05Z</time>
</trkpt>
<trkpt lat="42.881636239865614" lon="-2.11773931961685">
<ele>660</ele>
<time>2014-09-28T17:36:07Z</time>
</trkpt>
<trkpt lat="42.881676826262215" lon="-2.1177519317502207">
<ele>659</ele>
<time>2014-09-28T17:36:09Z</time>
</trkpt>
<trkpt lat="42.88170637175638" lon="-2.1177578520766125">
<ele>659</ele>
<time>2014-09-28T17:36:11Z</time>
</trkpt>
<trkpt lat="42.88173502825084" lon="-2.1177618485488323">
<ele>659</ele>
<time>2014-09-28T17:36:13Z</time>
</trkpt>
<trkpt lat="42.88176364155632" lon="-2.117766201973273">
<ele>658</ele>
<time>2014-09-28T17:36:15Z</time>
</trkpt>
<trkpt lat="42.8817895382453" lon="-2.117768785448229">
<ele>658</ele>
<time>2014-09-28T17:36:17Z</time>
</trkpt>
<trkpt lat="42.881817149726835" lon="-2.1177744113290036">
<ele>658</ele>
<time>2014-09-28T17:36:19Z</time>
</trkpt>
<trkpt lat="42.881844826197884" lon="-2.11778172889875">
<ele>657</ele>
<time>2014-09-28T17:36:21Z</time>
</trkpt>
<trkpt lat="42.88186931252154" lon="-2.1177897472749962">
<ele>657</ele>
<time>2014-09-28T17:36:23Z</time>
</trkpt>
<trkpt lat="42.88190116258768" lon="-2.1177971030120375">
<ele>657</ele>
<time>2014-09-28T17:36:25Z</time>
</trkpt>
<trkpt lat="42.88192731924663" lon="-2.1178017378688483">
<ele>656</ele>
<time>2014-09-28T17:36:27Z</time>
</trkpt>
<trkpt lat="" lon="">
<ele></ele>
<time>2014-09-28TZ</time>
</trkpt>
</trkseg>
</trk>
<wpt lat="42.876341" lon="-2.116799">
	<name>wpt17:35:08</name>
	<desc>sta marina. iturmendi</desc>
	<cmt></cmt>
	<photoid>0</photoid>
	<type>2</type>
</wpt>
<wpt lat="
" lon="">
	<name></name>
	<desc></desc>
	<cmt></cmt>
	<photoid></photoid>
	<type></type>
</wpt>
</gpx>
